<?xml version="1.0" encoding="UTF-8" standalone="no" ?>
<gpx xmlns="http://www.topografix.com/GPX/1/1" xmlns:xsi="http://www.w3.org/2001/XMLSchema-instance" xsi:schemaLocation="http://www.topografix.com/GPX/1/1 http://www.topografix.com/GPX/1/1/gpx.xsd" version="1.1" creator="VisuGPX - https://www.visugpx.com">
  <metadata>
    <name>PEYRUS - LEONCEL 26</name>
    <desc><![CDATA[Souvenir d'une journée "sans..."]]></desc>
  </metadata>
  <trk>
    <name><![CDATA[2022-04-14 16:03:41]]></name>
    <trkseg>
      <trkpt lat="44.91323" lon="5.10927">
        <ele>387.55</ele>
        <time>2022-04-14T07:13:44Z</time>
      </trkpt>
      <trkpt lat="44.91323" lon="5.10927">
        <ele>387.55</ele>
        <time>2022-04-14T07:13:45Z</time>
      </trkpt>
      <trkpt lat="44.91323" lon="5.10927">
        <ele>389.47</ele>
        <time>2022-04-14T07:13:47Z</time>
      </trkpt>
      <trkpt lat="44.91323" lon="5.10927">
        <ele>386.59</ele>
        <time>2022-04-14T07:14:06Z</time>
      </trkpt>
      <trkpt lat="44.91323" lon="5.10927">
        <ele>388.03</ele>
        <time>2022-04-14T07:14:15Z</time>
      </trkpt>
      <trkpt lat="44.91324" lon="5.10926">
        <ele>389.47</ele>
        <time>2022-04-14T07:14:17Z</time>
      </trkpt>
      <trkpt lat="44.91322" lon="5.10926">
        <ele>390.91</ele>
        <time>2022-04-14T07:14:20Z</time>
      </trkpt>
      <trkpt lat="44.91323" lon="5.10923">
        <ele>391.39</ele>
        <time>2022-04-14T07:14:23Z</time>
      </trkpt>
      <trkpt lat="44.91323" lon="5.10921">
        <ele>391.39</ele>
        <time>2022-04-14T07:14:24Z</time>
      </trkpt>
      <trkpt lat="44.91324" lon="5.1092">
        <ele>390.91</ele>
        <time>2022-04-14T07:14:25Z</time>
      </trkpt>
      <trkpt lat="44.91328" lon="5.10917">
        <ele>389.47</ele>
        <time>2022-04-14T07:14:30Z</time>
      </trkpt>
      <trkpt lat="44.91329" lon="5.10921">
        <ele>388.51</ele>
        <time>2022-04-14T07:14:43Z</time>
      </trkpt>
      <trkpt lat="44.91329" lon="5.10919">
        <ele>388.51</ele>
        <time>2022-04-14T07:14:45Z</time>
      </trkpt>
      <trkpt lat="44.9133" lon="5.10921">
        <ele>388.51</ele>
        <time>2022-04-14T07:14:50Z</time>
      </trkpt>
      <trkpt lat="44.91327" lon="5.10925">
        <ele>388.03</ele>
        <time>2022-04-14T07:15:00Z</time>
      </trkpt>
      <trkpt lat="44.91324" lon="5.10927">
        <ele>388.03</ele>
        <time>2022-04-14T07:15:17Z</time>
      </trkpt>
      <trkpt lat="44.91325" lon="5.10927">
        <ele>387.55</ele>
        <time>2022-04-14T07:15:42Z</time>
      </trkpt>
      <trkpt lat="44.91317" lon="5.10934">
        <ele>388.03</ele>
        <time>2022-04-14T07:15:56Z</time>
      </trkpt>
      <trkpt lat="44.9131" lon="5.10938">
        <ele>387.07</ele>
        <time>2022-04-14T07:16:11Z</time>
      </trkpt>
      <trkpt lat="44.9131" lon="5.10939">
        <ele>386.59</ele>
        <time>2022-04-14T07:16:34Z</time>
      </trkpt>
      <trkpt lat="44.9131" lon="5.10941">
        <ele>386.59</ele>
        <time>2022-04-14T07:16:57Z</time>
      </trkpt>
      <trkpt lat="44.91306" lon="5.10946">
        <ele>386.11</ele>
        <time>2022-04-14T07:17:08Z</time>
      </trkpt>
      <trkpt lat="44.91305" lon="5.10947">
        <ele>386.11</ele>
        <time>2022-04-14T07:17:09Z</time>
      </trkpt>
      <trkpt lat="44.91296" lon="5.10954">
        <ele>386.59</ele>
        <time>2022-04-14T07:17:19Z</time>
      </trkpt>
      <trkpt lat="44.91295" lon="5.10954">
        <ele>386.59</ele>
        <time>2022-04-14T07:17:20Z</time>
      </trkpt>
      <trkpt lat="44.91281" lon="5.10954">
        <ele>385.63</ele>
        <time>2022-04-14T07:17:34Z</time>
      </trkpt>
      <trkpt lat="44.91266" lon="5.10937">
        <ele>385.15</ele>
        <time>2022-04-14T07:17:50Z</time>
      </trkpt>
      <trkpt lat="44.91261" lon="5.10922">
        <ele>385.15</ele>
        <time>2022-04-14T07:18:01Z</time>
      </trkpt>
      <trkpt lat="44.91261" lon="5.10919">
        <ele>385.15</ele>
        <time>2022-04-14T07:18:02Z</time>
      </trkpt>
      <trkpt lat="44.91261" lon="5.10918">
        <ele>385.15</ele>
        <time>2022-04-14T07:18:03Z</time>
      </trkpt>
      <trkpt lat="44.91261" lon="5.10916">
        <ele>385.15</ele>
        <time>2022-04-14T07:18:04Z</time>
      </trkpt>
      <trkpt lat="44.91261" lon="5.10914">
        <ele>385.63</ele>
        <time>2022-04-14T07:18:05Z</time>
      </trkpt>
      <trkpt lat="44.9126" lon="5.10907">
        <ele>385.63</ele>
        <time>2022-04-14T07:18:09Z</time>
      </trkpt>
      <trkpt lat="44.91255" lon="5.10904">
        <ele>385.63</ele>
        <time>2022-04-14T07:18:14Z</time>
      </trkpt>
      <trkpt lat="44.91252" lon="5.10904">
        <ele>386.59</ele>
        <time>2022-04-14T07:18:17Z</time>
      </trkpt>
      <trkpt lat="44.9125" lon="5.10904">
        <ele>386.59</ele>
        <time>2022-04-14T07:18:18Z</time>
      </trkpt>
      <trkpt lat="44.91241" lon="5.10904">
        <ele>387.55</ele>
        <time>2022-04-14T07:18:32Z</time>
      </trkpt>
      <trkpt lat="44.9124" lon="5.10905">
        <ele>387.55</ele>
        <time>2022-04-14T07:18:33Z</time>
      </trkpt>
      <trkpt lat="44.91239" lon="5.10906">
        <ele>387.55</ele>
        <time>2022-04-14T07:18:34Z</time>
      </trkpt>
      <trkpt lat="44.91231" lon="5.10912">
        <ele>388.03</ele>
        <time>2022-04-14T07:18:42Z</time>
      </trkpt>
      <trkpt lat="44.9123" lon="5.10913">
        <ele>388.03</ele>
        <time>2022-04-14T07:18:43Z</time>
      </trkpt>
      <trkpt lat="44.91229" lon="5.10914">
        <ele>388.03</ele>
        <time>2022-04-14T07:18:44Z</time>
      </trkpt>
      <trkpt lat="44.91214" lon="5.1093">
        <ele>389.95</ele>
        <time>2022-04-14T07:19:01Z</time>
      </trkpt>
      <trkpt lat="44.91211" lon="5.10934">
        <ele>390.43</ele>
        <time>2022-04-14T07:19:05Z</time>
      </trkpt>
      <trkpt lat="44.91198" lon="5.10946">
        <ele>391.39</ele>
        <time>2022-04-14T07:19:18Z</time>
      </trkpt>
      <trkpt lat="44.91182" lon="5.10959">
        <ele>392.84</ele>
        <time>2022-04-14T07:19:35Z</time>
      </trkpt>
      <trkpt lat="44.91159" lon="5.10971">
        <ele>394.76</ele>
        <time>2022-04-14T07:19:54Z</time>
      </trkpt>
      <trkpt lat="44.91137" lon="5.10987">
        <ele>396.68</ele>
        <time>2022-04-14T07:20:13Z</time>
      </trkpt>
      <trkpt lat="44.91113" lon="5.11004">
        <ele>398.12</ele>
        <time>2022-04-14T07:20:34Z</time>
      </trkpt>
      <trkpt lat="44.91096" lon="5.11028">
        <ele>399.57</ele>
        <time>2022-04-14T07:20:53Z</time>
      </trkpt>
      <trkpt lat="44.91081" lon="5.11049">
        <ele>400.53</ele>
        <time>2022-04-14T07:21:12Z</time>
      </trkpt>
      <trkpt lat="44.91064" lon="5.11072">
        <ele>401.97</ele>
        <time>2022-04-14T07:21:29Z</time>
      </trkpt>
      <trkpt lat="44.91063" lon="5.11073">
        <ele>401.97</ele>
        <time>2022-04-14T07:21:30Z</time>
      </trkpt>
      <trkpt lat="44.91059" lon="5.11077">
        <ele>401.97</ele>
        <time>2022-04-14T07:21:34Z</time>
      </trkpt>
      <trkpt lat="44.91058" lon="5.11078">
        <ele>401.97</ele>
        <time>2022-04-14T07:21:35Z</time>
      </trkpt>
      <trkpt lat="44.91035" lon="5.11109">
        <ele>404.37</ele>
        <time>2022-04-14T07:22:01Z</time>
      </trkpt>
      <trkpt lat="44.91013" lon="5.11132">
        <ele>405.81</ele>
        <time>2022-04-14T07:22:22Z</time>
      </trkpt>
      <trkpt lat="44.90991" lon="5.1115">
        <ele>406.77</ele>
        <time>2022-04-14T07:22:40Z</time>
      </trkpt>
      <trkpt lat="44.90967" lon="5.11167">
        <ele>407.74</ele>
        <time>2022-04-14T07:23:00Z</time>
      </trkpt>
      <trkpt lat="44.90954" lon="5.11179">
        <ele>408.7</ele>
        <time>2022-04-14T07:23:19Z</time>
      </trkpt>
      <trkpt lat="44.90939" lon="5.11189">
        <ele>408.22</ele>
        <time>2022-04-14T07:23:35Z</time>
      </trkpt>
      <trkpt lat="44.9092" lon="5.11203">
        <ele>407.74</ele>
        <time>2022-04-14T07:23:54Z</time>
      </trkpt>
      <trkpt lat="44.90915" lon="5.11207">
        <ele>407.74</ele>
        <time>2022-04-14T07:24:00Z</time>
      </trkpt>
      <trkpt lat="44.90914" lon="5.11208">
        <ele>407.74</ele>
        <time>2022-04-14T07:24:01Z</time>
      </trkpt>
      <trkpt lat="44.9091" lon="5.11221">
        <ele>406.77</ele>
        <time>2022-04-14T07:24:10Z</time>
      </trkpt>
      <trkpt lat="44.90909" lon="5.11223">
        <ele>406.77</ele>
        <time>2022-04-14T07:24:11Z</time>
      </trkpt>
      <trkpt lat="44.90909" lon="5.11225">
        <ele>406.77</ele>
        <time>2022-04-14T07:24:12Z</time>
      </trkpt>
      <trkpt lat="44.90909" lon="5.11227">
        <ele>406.29</ele>
        <time>2022-04-14T07:24:13Z</time>
      </trkpt>
      <trkpt lat="44.90909" lon="5.11229">
        <ele>406.29</ele>
        <time>2022-04-14T07:24:14Z</time>
      </trkpt>
      <trkpt lat="44.90902" lon="5.11266">
        <ele>404.37</ele>
        <time>2022-04-14T07:24:33Z</time>
      </trkpt>
      <trkpt lat="44.90904" lon="5.11269">
        <ele>404.37</ele>
        <time>2022-04-14T07:24:35Z</time>
      </trkpt>
      <trkpt lat="44.90903" lon="5.11279">
        <ele>403.41</ele>
        <time>2022-04-14T07:24:42Z</time>
      </trkpt>
      <trkpt lat="44.90902" lon="5.11281">
        <ele>402.93</ele>
        <time>2022-04-14T07:24:43Z</time>
      </trkpt>
      <trkpt lat="44.90892" lon="5.11315">
        <ele>403.41</ele>
        <time>2022-04-14T07:25:03Z</time>
      </trkpt>
      <trkpt lat="44.90893" lon="5.11317">
        <ele>403.41</ele>
        <time>2022-04-14T07:25:04Z</time>
      </trkpt>
      <trkpt lat="44.90898" lon="5.1135">
        <ele>403.41</ele>
        <time>2022-04-14T07:25:20Z</time>
      </trkpt>
      <trkpt lat="44.90883" lon="5.11377">
        <ele>402.93</ele>
        <time>2022-04-14T07:25:37Z</time>
      </trkpt>
      <trkpt lat="44.90867" lon="5.11398">
        <ele>402.45</ele>
        <time>2022-04-14T07:25:54Z</time>
      </trkpt>
      <trkpt lat="44.90849" lon="5.11418">
        <ele>403.41</ele>
        <time>2022-04-14T07:26:12Z</time>
      </trkpt>
      <trkpt lat="44.90828" lon="5.1145">
        <ele>404.37</ele>
        <time>2022-04-14T07:26:35Z</time>
      </trkpt>
      <trkpt lat="44.90814" lon="5.11477">
        <ele>405.81</ele>
        <time>2022-04-14T07:26:53Z</time>
      </trkpt>
      <trkpt lat="44.90796" lon="5.11508">
        <ele>406.77</ele>
        <time>2022-04-14T07:27:15Z</time>
      </trkpt>
      <trkpt lat="44.90776" lon="5.1153">
        <ele>409.18</ele>
        <time>2022-04-14T07:27:35Z</time>
      </trkpt>
      <trkpt lat="44.9076" lon="5.11539">
        <ele>412.06</ele>
        <time>2022-04-14T07:27:52Z</time>
      </trkpt>
      <trkpt lat="44.90747" lon="5.11543">
        <ele>414.95</ele>
        <time>2022-04-14T07:28:05Z</time>
      </trkpt>
      <trkpt lat="44.90731" lon="5.11551">
        <ele>417.83</ele>
        <time>2022-04-14T07:28:20Z</time>
      </trkpt>
      <trkpt lat="44.90718" lon="5.11561">
        <ele>420.23</ele>
        <time>2022-04-14T07:28:35Z</time>
      </trkpt>
      <trkpt lat="44.90706" lon="5.11582">
        <ele>423.12</ele>
        <time>2022-04-14T07:28:53Z</time>
      </trkpt>
      <trkpt lat="44.90702" lon="5.11593">
        <ele>423.12</ele>
        <time>2022-04-14T07:29:01Z</time>
      </trkpt>
      <trkpt lat="44.90693" lon="5.11626">
        <ele>423.6</ele>
        <time>2022-04-14T07:29:20Z</time>
      </trkpt>
      <trkpt lat="44.90685" lon="5.11657">
        <ele>425.04</ele>
        <time>2022-04-14T07:29:39Z</time>
      </trkpt>
      <trkpt lat="44.90686" lon="5.11658">
        <ele>425.04</ele>
        <time>2022-04-14T07:29:40Z</time>
      </trkpt>
      <trkpt lat="44.90683" lon="5.11676">
        <ele>426.96</ele>
        <time>2022-04-14T07:29:58Z</time>
      </trkpt>
      <trkpt lat="44.90683" lon="5.11677">
        <ele>427.44</ele>
        <time>2022-04-14T07:29:59Z</time>
      </trkpt>
      <trkpt lat="44.90683" lon="5.1169">
        <ele>427.92</ele>
        <time>2022-04-14T07:30:08Z</time>
      </trkpt>
      <trkpt lat="44.90683" lon="5.11713">
        <ele>429.85</ele>
        <time>2022-04-14T07:30:22Z</time>
      </trkpt>
      <trkpt lat="44.90682" lon="5.11715">
        <ele>429.85</ele>
        <time>2022-04-14T07:30:23Z</time>
      </trkpt>
      <trkpt lat="44.9068" lon="5.11733">
        <ele>430.81</ele>
        <time>2022-04-14T07:30:32Z</time>
      </trkpt>
      <trkpt lat="44.9068" lon="5.11735">
        <ele>430.81</ele>
        <time>2022-04-14T07:30:33Z</time>
      </trkpt>
      <trkpt lat="44.9068" lon="5.11778">
        <ele>431.77</ele>
        <time>2022-04-14T07:30:53Z</time>
      </trkpt>
      <trkpt lat="44.9068" lon="5.11812">
        <ele>432.73</ele>
        <time>2022-04-14T07:31:12Z</time>
      </trkpt>
      <trkpt lat="44.90678" lon="5.11843">
        <ele>434.17</ele>
        <time>2022-04-14T07:31:31Z</time>
      </trkpt>
      <trkpt lat="44.90682" lon="5.11872">
        <ele>435.13</ele>
        <time>2022-04-14T07:31:51Z</time>
      </trkpt>
      <trkpt lat="44.90682" lon="5.11875">
        <ele>435.13</ele>
        <time>2022-04-14T07:31:53Z</time>
      </trkpt>
      <trkpt lat="44.90684" lon="5.11909">
        <ele>437.06</ele>
        <time>2022-04-14T07:32:12Z</time>
      </trkpt>
      <trkpt lat="44.90682" lon="5.11946">
        <ele>438.5</ele>
        <time>2022-04-14T07:32:33Z</time>
      </trkpt>
      <trkpt lat="44.90682" lon="5.11948">
        <ele>438.5</ele>
        <time>2022-04-14T07:32:34Z</time>
      </trkpt>
      <trkpt lat="44.90682" lon="5.1195">
        <ele>438.5</ele>
        <time>2022-04-14T07:32:35Z</time>
      </trkpt>
      <trkpt lat="44.90681" lon="5.11952">
        <ele>438.5</ele>
        <time>2022-04-14T07:32:36Z</time>
      </trkpt>
      <trkpt lat="44.90681" lon="5.11954">
        <ele>438.98</ele>
        <time>2022-04-14T07:32:37Z</time>
      </trkpt>
      <trkpt lat="44.9068" lon="5.11955">
        <ele>438.98</ele>
        <time>2022-04-14T07:32:38Z</time>
      </trkpt>
      <trkpt lat="44.9068" lon="5.11958">
        <ele>438.98</ele>
        <time>2022-04-14T07:32:39Z</time>
      </trkpt>
      <trkpt lat="44.90679" lon="5.1196">
        <ele>438.98</ele>
        <time>2022-04-14T07:32:40Z</time>
      </trkpt>
      <trkpt lat="44.90667" lon="5.1199">
        <ele>439.94</ele>
        <time>2022-04-14T07:32:57Z</time>
      </trkpt>
      <trkpt lat="44.90655" lon="5.12024">
        <ele>440.42</ele>
        <time>2022-04-14T07:33:16Z</time>
      </trkpt>
      <trkpt lat="44.90652" lon="5.12051">
        <ele>440.42</ele>
        <time>2022-04-14T07:33:33Z</time>
      </trkpt>
      <trkpt lat="44.9065" lon="5.12087">
        <ele>439.46</ele>
        <time>2022-04-14T07:33:52Z</time>
      </trkpt>
      <trkpt lat="44.90647" lon="5.12104">
        <ele>439.46</ele>
        <time>2022-04-14T07:34:01Z</time>
      </trkpt>
      <trkpt lat="44.90652" lon="5.1213">
        <ele>439.94</ele>
        <time>2022-04-14T07:34:16Z</time>
      </trkpt>
      <trkpt lat="44.90654" lon="5.12162">
        <ele>441.38</ele>
        <time>2022-04-14T07:34:34Z</time>
      </trkpt>
      <trkpt lat="44.90646" lon="5.12197">
        <ele>441.86</ele>
        <time>2022-04-14T07:34:51Z</time>
      </trkpt>
      <trkpt lat="44.90642" lon="5.12225">
        <ele>442.82</ele>
        <time>2022-04-14T07:35:06Z</time>
      </trkpt>
      <trkpt lat="44.90636" lon="5.12255">
        <ele>443.31</ele>
        <time>2022-04-14T07:35:24Z</time>
      </trkpt>
      <trkpt lat="44.90634" lon="5.12283">
        <ele>443.79</ele>
        <time>2022-04-14T07:35:39Z</time>
      </trkpt>
      <trkpt lat="44.90634" lon="5.12284">
        <ele>443.79</ele>
        <time>2022-04-14T07:35:40Z</time>
      </trkpt>
      <trkpt lat="44.90635" lon="5.12301">
        <ele>445.23</ele>
        <time>2022-04-14T07:35:50Z</time>
      </trkpt>
      <trkpt lat="44.90635" lon="5.12303">
        <ele>445.23</ele>
        <time>2022-04-14T07:35:51Z</time>
      </trkpt>
      <trkpt lat="44.90636" lon="5.12305">
        <ele>445.23</ele>
        <time>2022-04-14T07:35:52Z</time>
      </trkpt>
      <trkpt lat="44.90639" lon="5.12319">
        <ele>445.71</ele>
        <time>2022-04-14T07:36:01Z</time>
      </trkpt>
      <trkpt lat="44.90641" lon="5.1232">
        <ele>446.19</ele>
        <time>2022-04-14T07:36:02Z</time>
      </trkpt>
      <trkpt lat="44.90642" lon="5.12321">
        <ele>446.19</ele>
        <time>2022-04-14T07:36:03Z</time>
      </trkpt>
      <trkpt lat="44.90643" lon="5.12322">
        <ele>446.19</ele>
        <time>2022-04-14T07:36:04Z</time>
      </trkpt>
      <trkpt lat="44.90643" lon="5.12324">
        <ele>446.19</ele>
        <time>2022-04-14T07:36:05Z</time>
      </trkpt>
      <trkpt lat="44.90643" lon="5.12326">
        <ele>446.19</ele>
        <time>2022-04-14T07:36:06Z</time>
      </trkpt>
      <trkpt lat="44.90644" lon="5.12327">
        <ele>446.19</ele>
        <time>2022-04-14T07:36:07Z</time>
      </trkpt>
      <trkpt lat="44.90645" lon="5.12328">
        <ele>446.67</ele>
        <time>2022-04-14T07:36:08Z</time>
      </trkpt>
      <trkpt lat="44.90646" lon="5.12329">
        <ele>446.67</ele>
        <time>2022-04-14T07:36:09Z</time>
      </trkpt>
      <trkpt lat="44.90648" lon="5.1233">
        <ele>446.67</ele>
        <time>2022-04-14T07:36:10Z</time>
      </trkpt>
      <trkpt lat="44.90649" lon="5.12331">
        <ele>446.67</ele>
        <time>2022-04-14T07:36:11Z</time>
      </trkpt>
      <trkpt lat="44.9065" lon="5.12332">
        <ele>446.67</ele>
        <time>2022-04-14T07:36:12Z</time>
      </trkpt>
      <trkpt lat="44.90651" lon="5.12338">
        <ele>447.15</ele>
        <time>2022-04-14T07:36:15Z</time>
      </trkpt>
      <trkpt lat="44.90651" lon="5.1234">
        <ele>447.15</ele>
        <time>2022-04-14T07:36:16Z</time>
      </trkpt>
      <trkpt lat="44.90664" lon="5.12362">
        <ele>448.59</ele>
        <time>2022-04-14T07:36:32Z</time>
      </trkpt>
      <trkpt lat="44.90665" lon="5.12377">
        <ele>450.03</ele>
        <time>2022-04-14T07:36:41Z</time>
      </trkpt>
      <trkpt lat="44.90653" lon="5.12403">
        <ele>451.96</ele>
        <time>2022-04-14T07:36:58Z</time>
      </trkpt>
      <trkpt lat="44.90642" lon="5.12423">
        <ele>453.4</ele>
        <time>2022-04-14T07:37:14Z</time>
      </trkpt>
      <trkpt lat="44.9064" lon="5.12438">
        <ele>456.28</ele>
        <time>2022-04-14T07:37:26Z</time>
      </trkpt>
      <trkpt lat="44.90646" lon="5.12475">
        <ele>459.17</ele>
        <time>2022-04-14T07:37:50Z</time>
      </trkpt>
      <trkpt lat="44.90647" lon="5.12495">
        <ele>462.05</ele>
        <time>2022-04-14T07:38:07Z</time>
      </trkpt>
      <trkpt lat="44.90647" lon="5.12496">
        <ele>462.05</ele>
        <time>2022-04-14T07:38:08Z</time>
      </trkpt>
      <trkpt lat="44.9064" lon="5.12514">
        <ele>465.42</ele>
        <time>2022-04-14T07:38:30Z</time>
      </trkpt>
      <trkpt lat="44.90631" lon="5.12532">
        <ele>468.78</ele>
        <time>2022-04-14T07:38:52Z</time>
      </trkpt>
      <trkpt lat="44.90621" lon="5.12547">
        <ele>471.66</ele>
        <time>2022-04-14T07:39:09Z</time>
      </trkpt>
      <trkpt lat="44.90613" lon="5.12561">
        <ele>474.55</ele>
        <time>2022-04-14T07:39:27Z</time>
      </trkpt>
      <trkpt lat="44.90619" lon="5.12575">
        <ele>477.91</ele>
        <time>2022-04-14T07:39:46Z</time>
      </trkpt>
      <trkpt lat="44.90618" lon="5.12588">
        <ele>480.8</ele>
        <time>2022-04-14T07:40:04Z</time>
      </trkpt>
      <trkpt lat="44.90611" lon="5.126">
        <ele>484.16</ele>
        <time>2022-04-14T07:40:20Z</time>
      </trkpt>
      <trkpt lat="44.90609" lon="5.12612">
        <ele>487.05</ele>
        <time>2022-04-14T07:40:36Z</time>
      </trkpt>
      <trkpt lat="44.90616" lon="5.12621">
        <ele>490.41</ele>
        <time>2022-04-14T07:40:54Z</time>
      </trkpt>
      <trkpt lat="44.90625" lon="5.12629">
        <ele>493.29</ele>
        <time>2022-04-14T07:41:11Z</time>
      </trkpt>
      <trkpt lat="44.90636" lon="5.12641">
        <ele>496.18</ele>
        <time>2022-04-14T07:41:29Z</time>
      </trkpt>
      <trkpt lat="44.90645" lon="5.1266">
        <ele>499.54</ele>
        <time>2022-04-14T07:41:52Z</time>
      </trkpt>
      <trkpt lat="44.90642" lon="5.12686">
        <ele>502.43</ele>
        <time>2022-04-14T07:42:13Z</time>
      </trkpt>
      <trkpt lat="44.90634" lon="5.12717">
        <ele>505.31</ele>
        <time>2022-04-14T07:42:38Z</time>
      </trkpt>
      <trkpt lat="44.90624" lon="5.12724">
        <ele>506.75</ele>
        <time>2022-04-14T07:42:55Z</time>
      </trkpt>
      <trkpt lat="44.90625" lon="5.12723">
        <ele>506.75</ele>
        <time>2022-04-14T07:43:19Z</time>
      </trkpt>
      <trkpt lat="44.90625" lon="5.12723">
        <ele>506.75</ele>
        <time>2022-04-14T07:43:51Z</time>
      </trkpt>
      <trkpt lat="44.90625" lon="5.12723">
        <ele>506.75</ele>
        <time>2022-04-14T07:44:32Z</time>
      </trkpt>
      <trkpt lat="44.90625" lon="5.12721">
        <ele>506.75</ele>
        <time>2022-04-14T07:45:10Z</time>
      </trkpt>
      <trkpt lat="44.90625" lon="5.12722">
        <ele>506.75</ele>
        <time>2022-04-14T07:45:53Z</time>
      </trkpt>
      <trkpt lat="44.90628" lon="5.12724">
        <ele>507.71</ele>
        <time>2022-04-14T07:46:10Z</time>
      </trkpt>
      <trkpt lat="44.9063" lon="5.12724">
        <ele>507.23</ele>
        <time>2022-04-14T07:46:27Z</time>
      </trkpt>
      <trkpt lat="44.90629" lon="5.12724">
        <ele>506.27</ele>
        <time>2022-04-14T07:47:04Z</time>
      </trkpt>
      <trkpt lat="44.90627" lon="5.12731">
        <ele>506.27</ele>
        <time>2022-04-14T07:47:20Z</time>
      </trkpt>
      <trkpt lat="44.90626" lon="5.12732">
        <ele>506.75</ele>
        <time>2022-04-14T07:47:38Z</time>
      </trkpt>
      <trkpt lat="44.90627" lon="5.12733">
        <ele>506.75</ele>
        <time>2022-04-14T07:47:50Z</time>
      </trkpt>
      <trkpt lat="44.90625" lon="5.12744">
        <ele>506.75</ele>
        <time>2022-04-14T07:47:59Z</time>
      </trkpt>
      <trkpt lat="44.90621" lon="5.12766">
        <ele>507.71</ele>
        <time>2022-04-14T07:48:18Z</time>
      </trkpt>
      <trkpt lat="44.90616" lon="5.12784">
        <ele>508.67</ele>
        <time>2022-04-14T07:48:34Z</time>
      </trkpt>
      <trkpt lat="44.90612" lon="5.12809">
        <ele>512.04</ele>
        <time>2022-04-14T07:48:56Z</time>
      </trkpt>
      <trkpt lat="44.90608" lon="5.12833">
        <ele>514.44</ele>
        <time>2022-04-14T07:49:15Z</time>
      </trkpt>
      <trkpt lat="44.90604" lon="5.12853">
        <ele>517.33</ele>
        <time>2022-04-14T07:49:31Z</time>
      </trkpt>
      <trkpt lat="44.90604" lon="5.12871">
        <ele>520.21</ele>
        <time>2022-04-14T07:49:48Z</time>
      </trkpt>
      <trkpt lat="44.90603" lon="5.12898">
        <ele>523.58</ele>
        <time>2022-04-14T07:50:09Z</time>
      </trkpt>
      <trkpt lat="44.906" lon="5.1293">
        <ele>526.46</ele>
        <time>2022-04-14T07:50:32Z</time>
      </trkpt>
      <trkpt lat="44.90598" lon="5.12953">
        <ele>529.82</ele>
        <time>2022-04-14T07:50:52Z</time>
      </trkpt>
      <trkpt lat="44.90595" lon="5.12976">
        <ele>531.75</ele>
        <time>2022-04-14T07:51:10Z</time>
      </trkpt>
      <trkpt lat="44.90595" lon="5.12998">
        <ele>534.63</ele>
        <time>2022-04-14T07:51:29Z</time>
      </trkpt>
      <trkpt lat="44.90593" lon="5.13021">
        <ele>536.55</ele>
        <time>2022-04-14T07:51:46Z</time>
      </trkpt>
      <trkpt lat="44.90589" lon="5.13045">
        <ele>539.92</ele>
        <time>2022-04-14T07:52:05Z</time>
      </trkpt>
      <trkpt lat="44.90587" lon="5.13067">
        <ele>542.8</ele>
        <time>2022-04-14T07:52:23Z</time>
      </trkpt>
      <trkpt lat="44.90585" lon="5.13084">
        <ele>545.69</ele>
        <time>2022-04-14T07:52:40Z</time>
      </trkpt>
      <trkpt lat="44.90583" lon="5.13103">
        <ele>548.09</ele>
        <time>2022-04-14T07:52:57Z</time>
      </trkpt>
      <trkpt lat="44.90585" lon="5.13113">
        <ele>549.53</ele>
        <time>2022-04-14T07:53:14Z</time>
      </trkpt>
      <trkpt lat="44.90584" lon="5.13115">
        <ele>550.49</ele>
        <time>2022-04-14T07:53:32Z</time>
      </trkpt>
      <trkpt lat="44.90584" lon="5.13127">
        <ele>551.45</ele>
        <time>2022-04-14T07:53:55Z</time>
      </trkpt>
      <trkpt lat="44.90586" lon="5.13146">
        <ele>554.82</ele>
        <time>2022-04-14T07:54:13Z</time>
      </trkpt>
      <trkpt lat="44.90587" lon="5.13172">
        <ele>557.7</ele>
        <time>2022-04-14T07:54:33Z</time>
      </trkpt>
      <trkpt lat="44.90585" lon="5.13197">
        <ele>560.59</ele>
        <time>2022-04-14T07:54:55Z</time>
      </trkpt>
      <trkpt lat="44.90579" lon="5.13214">
        <ele>563.95</ele>
        <time>2022-04-14T07:55:13Z</time>
      </trkpt>
      <trkpt lat="44.90575" lon="5.13237">
        <ele>567.32</ele>
        <time>2022-04-14T07:55:33Z</time>
      </trkpt>
      <trkpt lat="44.90571" lon="5.13258">
        <ele>570.2</ele>
        <time>2022-04-14T07:55:52Z</time>
      </trkpt>
      <trkpt lat="44.90569" lon="5.13278">
        <ele>573.56</ele>
        <time>2022-04-14T07:56:12Z</time>
      </trkpt>
      <trkpt lat="44.90567" lon="5.13296">
        <ele>576.45</ele>
        <time>2022-04-14T07:56:29Z</time>
      </trkpt>
      <trkpt lat="44.90565" lon="5.13315">
        <ele>579.33</ele>
        <time>2022-04-14T07:56:48Z</time>
      </trkpt>
      <trkpt lat="44.90563" lon="5.13338">
        <ele>582.7</ele>
        <time>2022-04-14T07:57:09Z</time>
      </trkpt>
      <trkpt lat="44.90559" lon="5.13363">
        <ele>585.58</ele>
        <time>2022-04-14T07:57:32Z</time>
      </trkpt>
      <trkpt lat="44.90556" lon="5.1338">
        <ele>588.95</ele>
        <time>2022-04-14T07:57:51Z</time>
      </trkpt>
      <trkpt lat="44.90553" lon="5.13401">
        <ele>591.83</ele>
        <time>2022-04-14T07:58:12Z</time>
      </trkpt>
      <trkpt lat="44.90556" lon="5.13423">
        <ele>595.19</ele>
        <time>2022-04-14T07:58:32Z</time>
      </trkpt>
      <trkpt lat="44.9056" lon="5.13447">
        <ele>598.08</ele>
        <time>2022-04-14T07:58:52Z</time>
      </trkpt>
      <trkpt lat="44.9056" lon="5.1347">
        <ele>600.96</ele>
        <time>2022-04-14T07:59:11Z</time>
      </trkpt>
      <trkpt lat="44.9056" lon="5.13489">
        <ele>603.85</ele>
        <time>2022-04-14T07:59:29Z</time>
      </trkpt>
      <trkpt lat="44.90561" lon="5.13497">
        <ele>605.29</ele>
        <time>2022-04-14T07:59:36Z</time>
      </trkpt>
      <trkpt lat="44.90561" lon="5.13498">
        <ele>605.29</ele>
        <time>2022-04-14T07:59:37Z</time>
      </trkpt>
      <trkpt lat="44.90557" lon="5.13517">
        <ele>608.65</ele>
        <time>2022-04-14T07:59:57Z</time>
      </trkpt>
      <trkpt lat="44.90557" lon="5.13536">
        <ele>611.54</ele>
        <time>2022-04-14T08:00:15Z</time>
      </trkpt>
      <trkpt lat="44.90558" lon="5.13555">
        <ele>614.9</ele>
        <time>2022-04-14T08:00:31Z</time>
      </trkpt>
      <trkpt lat="44.90558" lon="5.13569">
        <ele>616.82</ele>
        <time>2022-04-14T08:00:45Z</time>
      </trkpt>
      <trkpt lat="44.90562" lon="5.13591">
        <ele>619.71</ele>
        <time>2022-04-14T08:01:03Z</time>
      </trkpt>
      <trkpt lat="44.90561" lon="5.13592">
        <ele>620.19</ele>
        <time>2022-04-14T08:01:05Z</time>
      </trkpt>
      <trkpt lat="44.90565" lon="5.13611">
        <ele>623.07</ele>
        <time>2022-04-14T08:01:22Z</time>
      </trkpt>
      <trkpt lat="44.90567" lon="5.13631">
        <ele>626.44</ele>
        <time>2022-04-14T08:01:40Z</time>
      </trkpt>
      <trkpt lat="44.90569" lon="5.1365">
        <ele>629.32</ele>
        <time>2022-04-14T08:02:00Z</time>
      </trkpt>
      <trkpt lat="44.9057" lon="5.13653">
        <ele>629.8</ele>
        <time>2022-04-14T08:02:03Z</time>
      </trkpt>
      <trkpt lat="44.9057" lon="5.13663">
        <ele>631.72</ele>
        <time>2022-04-14T08:02:13Z</time>
      </trkpt>
      <trkpt lat="44.90569" lon="5.13676">
        <ele>634.61</ele>
        <time>2022-04-14T08:02:29Z</time>
      </trkpt>
      <trkpt lat="44.90569" lon="5.13687">
        <ele>637.49</ele>
        <time>2022-04-14T08:02:43Z</time>
      </trkpt>
      <trkpt lat="44.90566" lon="5.13701">
        <ele>640.38</ele>
        <time>2022-04-14T08:03:01Z</time>
      </trkpt>
      <trkpt lat="44.90561" lon="5.13712">
        <ele>642.78</ele>
        <time>2022-04-14T08:03:13Z</time>
      </trkpt>
      <trkpt lat="44.90562" lon="5.13726">
        <ele>645.66</ele>
        <time>2022-04-14T08:03:30Z</time>
      </trkpt>
      <trkpt lat="44.90561" lon="5.13732">
        <ele>646.62</ele>
        <time>2022-04-14T08:03:37Z</time>
      </trkpt>
      <trkpt lat="44.90556" lon="5.13745">
        <ele>649.99</ele>
        <time>2022-04-14T08:03:56Z</time>
      </trkpt>
      <trkpt lat="44.90556" lon="5.13758">
        <ele>652.87</ele>
        <time>2022-04-14T08:04:13Z</time>
      </trkpt>
      <trkpt lat="44.90553" lon="5.13772">
        <ele>655.76</ele>
        <time>2022-04-14T08:04:31Z</time>
      </trkpt>
      <trkpt lat="44.90549" lon="5.13784">
        <ele>658.64</ele>
        <time>2022-04-14T08:04:48Z</time>
      </trkpt>
      <trkpt lat="44.90547" lon="5.13787">
        <ele>659.6</ele>
        <time>2022-04-14T08:04:54Z</time>
      </trkpt>
      <trkpt lat="44.9054" lon="5.13794">
        <ele>661.52</ele>
        <time>2022-04-14T08:05:09Z</time>
      </trkpt>
      <trkpt lat="44.90532" lon="5.13803">
        <ele>664.41</ele>
        <time>2022-04-14T08:05:28Z</time>
      </trkpt>
      <trkpt lat="44.90524" lon="5.13813">
        <ele>667.77</ele>
        <time>2022-04-14T08:05:47Z</time>
      </trkpt>
      <trkpt lat="44.90522" lon="5.13819">
        <ele>669.22</ele>
        <time>2022-04-14T08:05:55Z</time>
      </trkpt>
      <trkpt lat="44.90516" lon="5.13831">
        <ele>671.62</ele>
        <time>2022-04-14T08:06:12Z</time>
      </trkpt>
      <trkpt lat="44.90511" lon="5.13843">
        <ele>674.98</ele>
        <time>2022-04-14T08:06:30Z</time>
      </trkpt>
      <trkpt lat="44.90505" lon="5.1385">
        <ele>677.39</ele>
        <time>2022-04-14T08:06:44Z</time>
      </trkpt>
      <trkpt lat="44.90496" lon="5.13847">
        <ele>680.75</ele>
        <time>2022-04-14T08:07:04Z</time>
      </trkpt>
      <trkpt lat="44.90488" lon="5.13854">
        <ele>682.67</ele>
        <time>2022-04-14T08:07:38Z</time>
      </trkpt>
      <trkpt lat="44.90489" lon="5.13847">
        <ele>682.19</ele>
        <time>2022-04-14T08:08:10Z</time>
      </trkpt>
      <trkpt lat="44.90489" lon="5.13841">
        <ele>682.19</ele>
        <time>2022-04-14T08:08:25Z</time>
      </trkpt>
      <trkpt lat="44.90494" lon="5.13839">
        <ele>682.19</ele>
        <time>2022-04-14T08:08:34Z</time>
      </trkpt>
      <trkpt lat="44.90492" lon="5.13846">
        <ele>681.23</ele>
        <time>2022-04-14T08:08:43Z</time>
      </trkpt>
      <trkpt lat="44.9049" lon="5.13847">
        <ele>681.23</ele>
        <time>2022-04-14T08:08:45Z</time>
      </trkpt>
      <trkpt lat="44.90487" lon="5.13849">
        <ele>683.15</ele>
        <time>2022-04-14T08:09:11Z</time>
      </trkpt>
      <trkpt lat="44.90487" lon="5.13854">
        <ele>683.15</ele>
        <time>2022-04-14T08:09:20Z</time>
      </trkpt>
      <trkpt lat="44.90486" lon="5.13857">
        <ele>682.67</ele>
        <time>2022-04-14T08:09:23Z</time>
      </trkpt>
      <trkpt lat="44.90479" lon="5.13868">
        <ele>686.04</ele>
        <time>2022-04-14T08:09:52Z</time>
      </trkpt>
      <trkpt lat="44.90476" lon="5.13875">
        <ele>688.92</ele>
        <time>2022-04-14T08:10:08Z</time>
      </trkpt>
      <trkpt lat="44.90469" lon="5.1388">
        <ele>692.29</ele>
        <time>2022-04-14T08:10:22Z</time>
      </trkpt>
      <trkpt lat="44.90466" lon="5.13882">
        <ele>692.77</ele>
        <time>2022-04-14T08:10:26Z</time>
      </trkpt>
      <trkpt lat="44.90459" lon="5.13886">
        <ele>695.65</ele>
        <time>2022-04-14T08:10:45Z</time>
      </trkpt>
      <trkpt lat="44.9045" lon="5.13893">
        <ele>699.02</ele>
        <time>2022-04-14T08:11:03Z</time>
      </trkpt>
      <trkpt lat="44.90447" lon="5.13895">
        <ele>699.5</ele>
        <time>2022-04-14T08:11:09Z</time>
      </trkpt>
      <trkpt lat="44.90446" lon="5.13896">
        <ele>699.98</ele>
        <time>2022-04-14T08:11:10Z</time>
      </trkpt>
      <trkpt lat="44.90439" lon="5.13907">
        <ele>702.86</ele>
        <time>2022-04-14T08:11:29Z</time>
      </trkpt>
      <trkpt lat="44.90435" lon="5.13919">
        <ele>706.23</ele>
        <time>2022-04-14T08:11:46Z</time>
      </trkpt>
      <trkpt lat="44.9043" lon="5.13932">
        <ele>709.11</ele>
        <time>2022-04-14T08:12:06Z</time>
      </trkpt>
      <trkpt lat="44.90426" lon="5.13938">
        <ele>711.99</ele>
        <time>2022-04-14T08:12:24Z</time>
      </trkpt>
      <trkpt lat="44.9042" lon="5.13946">
        <ele>715.36</ele>
        <time>2022-04-14T08:12:43Z</time>
      </trkpt>
      <trkpt lat="44.90418" lon="5.13946">
        <ele>715.84</ele>
        <time>2022-04-14T08:12:47Z</time>
      </trkpt>
      <trkpt lat="44.90418" lon="5.1396">
        <ele>719.2</ele>
        <time>2022-04-14T08:13:07Z</time>
      </trkpt>
      <trkpt lat="44.90417" lon="5.13962">
        <ele>719.2</ele>
        <time>2022-04-14T08:13:08Z</time>
      </trkpt>
      <trkpt lat="44.90417" lon="5.13963">
        <ele>719.68</ele>
        <time>2022-04-14T08:13:09Z</time>
      </trkpt>
      <trkpt lat="44.90408" lon="5.1397">
        <ele>722.57</ele>
        <time>2022-04-14T08:13:26Z</time>
      </trkpt>
      <trkpt lat="44.90406" lon="5.13979">
        <ele>725.93</ele>
        <time>2022-04-14T08:13:44Z</time>
      </trkpt>
      <trkpt lat="44.90398" lon="5.13986">
        <ele>728.82</ele>
        <time>2022-04-14T08:14:01Z</time>
      </trkpt>
      <trkpt lat="44.90391" lon="5.13996">
        <ele>732.18</ele>
        <time>2022-04-14T08:14:21Z</time>
      </trkpt>
      <trkpt lat="44.90386" lon="5.14006">
        <ele>735.07</ele>
        <time>2022-04-14T08:14:42Z</time>
      </trkpt>
      <trkpt lat="44.90384" lon="5.14017">
        <ele>738.43</ele>
        <time>2022-04-14T08:15:01Z</time>
      </trkpt>
      <trkpt lat="44.90377" lon="5.14026">
        <ele>741.31</ele>
        <time>2022-04-14T08:15:21Z</time>
      </trkpt>
      <trkpt lat="44.90367" lon="5.14032">
        <ele>744.68</ele>
        <time>2022-04-14T08:15:46Z</time>
      </trkpt>
      <trkpt lat="44.90362" lon="5.14039">
        <ele>747.08</ele>
        <time>2022-04-14T08:16:04Z</time>
      </trkpt>
      <trkpt lat="44.90355" lon="5.14047">
        <ele>749.97</ele>
        <time>2022-04-14T08:16:21Z</time>
      </trkpt>
      <trkpt lat="44.9035" lon="5.14057">
        <ele>752.85</ele>
        <time>2022-04-14T08:16:41Z</time>
      </trkpt>
      <trkpt lat="44.90341" lon="5.14068">
        <ele>756.21</ele>
        <time>2022-04-14T08:17:00Z</time>
      </trkpt>
      <trkpt lat="44.9033" lon="5.14071">
        <ele>759.1</ele>
        <time>2022-04-14T08:17:21Z</time>
      </trkpt>
      <trkpt lat="44.90322" lon="5.14078">
        <ele>761.98</ele>
        <time>2022-04-14T08:17:39Z</time>
      </trkpt>
      <trkpt lat="44.90313" lon="5.14086">
        <ele>764.87</ele>
        <time>2022-04-14T08:17:59Z</time>
      </trkpt>
      <trkpt lat="44.90301" lon="5.14093">
        <ele>767.75</ele>
        <time>2022-04-14T08:18:21Z</time>
      </trkpt>
      <trkpt lat="44.903" lon="5.14101">
        <ele>771.11</ele>
        <time>2022-04-14T08:18:42Z</time>
      </trkpt>
      <trkpt lat="44.90303" lon="5.141">
        <ele>773.04</ele>
        <time>2022-04-14T08:19:21Z</time>
      </trkpt>
      <trkpt lat="44.90315" lon="5.14113">
        <ele>775.92</ele>
        <time>2022-04-14T08:19:49Z</time>
      </trkpt>
      <trkpt lat="44.90306" lon="5.14118">
        <ele>779.29</ele>
        <time>2022-04-14T08:20:03Z</time>
      </trkpt>
      <trkpt lat="44.90299" lon="5.14124">
        <ele>782.17</ele>
        <time>2022-04-14T08:20:23Z</time>
      </trkpt>
      <trkpt lat="44.90294" lon="5.14131">
        <ele>785.05</ele>
        <time>2022-04-14T08:20:43Z</time>
      </trkpt>
      <trkpt lat="44.90297" lon="5.14134">
        <ele>786.98</ele>
        <time>2022-04-14T08:20:52Z</time>
      </trkpt>
      <trkpt lat="44.90295" lon="5.1414">
        <ele>787.94</ele>
        <time>2022-04-14T08:21:00Z</time>
      </trkpt>
      <trkpt lat="44.90295" lon="5.14141">
        <ele>787.94</ele>
        <time>2022-04-14T08:21:01Z</time>
      </trkpt>
      <trkpt lat="44.9029" lon="5.14146">
        <ele>791.3</ele>
        <time>2022-04-14T08:21:19Z</time>
      </trkpt>
      <trkpt lat="44.90278" lon="5.14153">
        <ele>794.19</ele>
        <time>2022-04-14T08:21:43Z</time>
      </trkpt>
      <trkpt lat="44.90268" lon="5.14165">
        <ele>797.07</ele>
        <time>2022-04-14T08:22:06Z</time>
      </trkpt>
      <trkpt lat="44.90259" lon="5.14174">
        <ele>800.44</ele>
        <time>2022-04-14T08:22:26Z</time>
      </trkpt>
      <trkpt lat="44.90253" lon="5.14184">
        <ele>803.32</ele>
        <time>2022-04-14T08:22:47Z</time>
      </trkpt>
      <trkpt lat="44.90252" lon="5.14184">
        <ele>803.8</ele>
        <time>2022-04-14T08:22:48Z</time>
      </trkpt>
      <trkpt lat="44.90245" lon="5.14192">
        <ele>807.16</ele>
        <time>2022-04-14T08:23:06Z</time>
      </trkpt>
      <trkpt lat="44.9024" lon="5.14201">
        <ele>810.05</ele>
        <time>2022-04-14T08:23:25Z</time>
      </trkpt>
      <trkpt lat="44.90239" lon="5.14205">
        <ele>811.01</ele>
        <time>2022-04-14T08:23:32Z</time>
      </trkpt>
      <trkpt lat="44.90232" lon="5.14213">
        <ele>813.89</ele>
        <time>2022-04-14T08:23:51Z</time>
      </trkpt>
      <trkpt lat="44.90224" lon="5.14223">
        <ele>816.78</ele>
        <time>2022-04-14T08:24:11Z</time>
      </trkpt>
      <trkpt lat="44.90219" lon="5.14232">
        <ele>820.14</ele>
        <time>2022-04-14T08:24:31Z</time>
      </trkpt>
      <trkpt lat="44.90222" lon="5.14241">
        <ele>823.03</ele>
        <time>2022-04-14T08:24:53Z</time>
      </trkpt>
      <trkpt lat="44.90228" lon="5.14243">
        <ele>826.39</ele>
        <time>2022-04-14T08:25:07Z</time>
      </trkpt>
      <trkpt lat="44.9024" lon="5.14244">
        <ele>829.27</ele>
        <time>2022-04-14T08:25:29Z</time>
      </trkpt>
      <trkpt lat="44.90245" lon="5.14242">
        <ele>831.2</ele>
        <time>2022-04-14T08:25:41Z</time>
      </trkpt>
      <trkpt lat="44.90247" lon="5.14243">
        <ele>831.2</ele>
        <time>2022-04-14T08:25:44Z</time>
      </trkpt>
      <trkpt lat="44.90258" lon="5.14239">
        <ele>834.56</ele>
        <time>2022-04-14T08:26:00Z</time>
      </trkpt>
      <trkpt lat="44.90273" lon="5.14238">
        <ele>837.45</ele>
        <time>2022-04-14T08:26:24Z</time>
      </trkpt>
      <trkpt lat="44.90284" lon="5.14239">
        <ele>840.33</ele>
        <time>2022-04-14T08:26:44Z</time>
      </trkpt>
      <trkpt lat="44.90298" lon="5.14243">
        <ele>843.21</ele>
        <time>2022-04-14T08:27:06Z</time>
      </trkpt>
      <trkpt lat="44.90299" lon="5.14241">
        <ele>844.18</ele>
        <time>2022-04-14T08:27:10Z</time>
      </trkpt>
      <trkpt lat="44.90303" lon="5.14242">
        <ele>844.66</ele>
        <time>2022-04-14T08:27:17Z</time>
      </trkpt>
      <trkpt lat="44.90307" lon="5.14243">
        <ele>846.1</ele>
        <time>2022-04-14T08:27:25Z</time>
      </trkpt>
      <trkpt lat="44.90312" lon="5.14246">
        <ele>847.54</ele>
        <time>2022-04-14T08:27:32Z</time>
      </trkpt>
      <trkpt lat="44.90314" lon="5.1426">
        <ele>850.42</ele>
        <time>2022-04-14T08:27:52Z</time>
      </trkpt>
      <trkpt lat="44.90308" lon="5.14263">
        <ele>853.31</ele>
        <time>2022-04-14T08:28:11Z</time>
      </trkpt>
      <trkpt lat="44.90296" lon="5.14262">
        <ele>856.19</ele>
        <time>2022-04-14T08:28:32Z</time>
      </trkpt>
      <trkpt lat="44.90291" lon="5.14275">
        <ele>859.56</ele>
        <time>2022-04-14T08:28:52Z</time>
      </trkpt>
      <trkpt lat="44.90281" lon="5.14284">
        <ele>862.44</ele>
        <time>2022-04-14T08:29:10Z</time>
      </trkpt>
      <trkpt lat="44.90272" lon="5.14296">
        <ele>864.84</ele>
        <time>2022-04-14T08:29:32Z</time>
      </trkpt>
      <trkpt lat="44.90264" lon="5.14312">
        <ele>867.73</ele>
        <time>2022-04-14T08:29:59Z</time>
      </trkpt>
      <trkpt lat="44.90258" lon="5.14319">
        <ele>870.61</ele>
        <time>2022-04-14T08:30:16Z</time>
      </trkpt>
      <trkpt lat="44.90254" lon="5.14331">
        <ele>873.98</ele>
        <time>2022-04-14T08:30:35Z</time>
      </trkpt>
      <trkpt lat="44.90248" lon="5.14338">
        <ele>876.86</ele>
        <time>2022-04-14T08:30:53Z</time>
      </trkpt>
      <trkpt lat="44.9024" lon="5.14348">
        <ele>880.22</ele>
        <time>2022-04-14T08:31:15Z</time>
      </trkpt>
      <trkpt lat="44.90236" lon="5.14354">
        <ele>881.67</ele>
        <time>2022-04-14T08:31:37Z</time>
      </trkpt>
      <trkpt lat="44.90232" lon="5.14368">
        <ele>885.03</ele>
        <time>2022-04-14T08:31:59Z</time>
      </trkpt>
      <trkpt lat="44.90226" lon="5.14375">
        <ele>887.91</ele>
        <time>2022-04-14T08:32:14Z</time>
      </trkpt>
      <trkpt lat="44.90215" lon="5.14385">
        <ele>890.8</ele>
        <time>2022-04-14T08:32:38Z</time>
      </trkpt>
      <trkpt lat="44.90212" lon="5.14392">
        <ele>894.16</ele>
        <time>2022-04-14T08:32:59Z</time>
      </trkpt>
      <trkpt lat="44.90216" lon="5.14396">
        <ele>896.57</ele>
        <time>2022-04-14T08:33:28Z</time>
      </trkpt>
      <trkpt lat="44.90209" lon="5.14405">
        <ele>899.93</ele>
        <time>2022-04-14T08:33:49Z</time>
      </trkpt>
      <trkpt lat="44.90203" lon="5.14412">
        <ele>902.82</ele>
        <time>2022-04-14T08:34:09Z</time>
      </trkpt>
      <trkpt lat="44.90196" lon="5.14425">
        <ele>905.7</ele>
        <time>2022-04-14T08:34:33Z</time>
      </trkpt>
      <trkpt lat="44.9019" lon="5.14443">
        <ele>908.58</ele>
        <time>2022-04-14T08:34:56Z</time>
      </trkpt>
      <trkpt lat="44.90187" lon="5.14467">
        <ele>911.47</ele>
        <time>2022-04-14T08:35:23Z</time>
      </trkpt>
      <trkpt lat="44.90185" lon="5.14474">
        <ele>912.43</ele>
        <time>2022-04-14T08:35:33Z</time>
      </trkpt>
      <trkpt lat="44.90184" lon="5.14491">
        <ele>915.79</ele>
        <time>2022-04-14T08:35:51Z</time>
      </trkpt>
      <trkpt lat="44.90183" lon="5.14506">
        <ele>919.16</ele>
        <time>2022-04-14T08:36:10Z</time>
      </trkpt>
      <trkpt lat="44.90184" lon="5.1451">
        <ele>920.12</ele>
        <time>2022-04-14T08:36:43Z</time>
      </trkpt>
      <trkpt lat="44.90183" lon="5.1451">
        <ele>920.6</ele>
        <time>2022-04-14T08:37:15Z</time>
      </trkpt>
      <trkpt lat="44.90186" lon="5.14511">
        <ele>920.6</ele>
        <time>2022-04-14T08:37:45Z</time>
      </trkpt>
      <trkpt lat="44.90187" lon="5.14511">
        <ele>920.6</ele>
        <time>2022-04-14T08:38:18Z</time>
      </trkpt>
      <trkpt lat="44.90185" lon="5.1451">
        <ele>920.6</ele>
        <time>2022-04-14T08:38:22Z</time>
      </trkpt>
      <trkpt lat="44.90183" lon="5.14508">
        <ele>920.6</ele>
        <time>2022-04-14T08:39:08Z</time>
      </trkpt>
      <trkpt lat="44.90182" lon="5.14513">
        <ele>920.6</ele>
        <time>2022-04-14T08:39:16Z</time>
      </trkpt>
      <trkpt lat="44.90183" lon="5.14519">
        <ele>923.48</ele>
        <time>2022-04-14T08:39:23Z</time>
      </trkpt>
      <trkpt lat="44.90184" lon="5.14521">
        <ele>923.96</ele>
        <time>2022-04-14T08:39:25Z</time>
      </trkpt>
      <trkpt lat="44.90185" lon="5.14542">
        <ele>927.33</ele>
        <time>2022-04-14T08:39:47Z</time>
      </trkpt>
      <trkpt lat="44.90187" lon="5.14556">
        <ele>930.21</ele>
        <time>2022-04-14T08:40:22Z</time>
      </trkpt>
      <trkpt lat="44.90186" lon="5.14564">
        <ele>933.1</ele>
        <time>2022-04-14T08:41:06Z</time>
      </trkpt>
      <trkpt lat="44.90186" lon="5.14575">
        <ele>935.02</ele>
        <time>2022-04-14T08:41:20Z</time>
      </trkpt>
      <trkpt lat="44.90184" lon="5.14608">
        <ele>937.9</ele>
        <time>2022-04-14T08:41:51Z</time>
      </trkpt>
      <trkpt lat="44.90178" lon="5.14613">
        <ele>940.31</ele>
        <time>2022-04-14T08:42:32Z</time>
      </trkpt>
      <trkpt lat="44.9018" lon="5.14617">
        <ele>942.23</ele>
        <time>2022-04-14T08:42:56Z</time>
      </trkpt>
      <trkpt lat="44.90181" lon="5.14621">
        <ele>943.19</ele>
        <time>2022-04-14T08:43:00Z</time>
      </trkpt>
      <trkpt lat="44.90186" lon="5.14635">
        <ele>946.07</ele>
        <time>2022-04-14T08:43:19Z</time>
      </trkpt>
      <trkpt lat="44.90191" lon="5.14642">
        <ele>947.52</ele>
        <time>2022-04-14T08:43:29Z</time>
      </trkpt>
      <trkpt lat="44.90206" lon="5.14644">
        <ele>950.4</ele>
        <time>2022-04-14T08:43:51Z</time>
      </trkpt>
      <trkpt lat="44.90221" lon="5.14651">
        <ele>953.77</ele>
        <time>2022-04-14T08:44:15Z</time>
      </trkpt>
      <trkpt lat="44.90219" lon="5.14662">
        <ele>956.65</ele>
        <time>2022-04-14T08:44:32Z</time>
      </trkpt>
      <trkpt lat="44.90216" lon="5.14672">
        <ele>960.01</ele>
        <time>2022-04-14T08:44:52Z</time>
      </trkpt>
      <trkpt lat="44.90207" lon="5.14684">
        <ele>962.9</ele>
        <time>2022-04-14T08:45:15Z</time>
      </trkpt>
      <trkpt lat="44.90206" lon="5.14697">
        <ele>966.26</ele>
        <time>2022-04-14T08:45:37Z</time>
      </trkpt>
      <trkpt lat="44.90203" lon="5.14711">
        <ele>969.63</ele>
        <time>2022-04-14T08:45:53Z</time>
      </trkpt>
      <trkpt lat="44.90198" lon="5.14716">
        <ele>972.51</ele>
        <time>2022-04-14T08:46:12Z</time>
      </trkpt>
      <trkpt lat="44.90196" lon="5.14726">
        <ele>974.43</ele>
        <time>2022-04-14T08:46:45Z</time>
      </trkpt>
      <trkpt lat="44.90192" lon="5.14737">
        <ele>977.32</ele>
        <time>2022-04-14T08:47:02Z</time>
      </trkpt>
      <trkpt lat="44.90188" lon="5.14748">
        <ele>980.68</ele>
        <time>2022-04-14T08:47:21Z</time>
      </trkpt>
      <trkpt lat="44.90185" lon="5.14752">
        <ele>982.12</ele>
        <time>2022-04-14T08:47:29Z</time>
      </trkpt>
      <trkpt lat="44.90184" lon="5.14752">
        <ele>983.09</ele>
        <time>2022-04-14T08:47:59Z</time>
      </trkpt>
      <trkpt lat="44.90183" lon="5.14767">
        <ele>985.01</ele>
        <time>2022-04-14T08:48:30Z</time>
      </trkpt>
      <trkpt lat="44.90182" lon="5.14777">
        <ele>988.37</ele>
        <time>2022-04-14T08:48:49Z</time>
      </trkpt>
      <trkpt lat="44.9018" lon="5.14784">
        <ele>989.81</ele>
        <time>2022-04-14T08:49:00Z</time>
      </trkpt>
      <trkpt lat="44.90177" lon="5.14789">
        <ele>992.7</ele>
        <time>2022-04-14T08:49:31Z</time>
      </trkpt>
      <trkpt lat="44.90174" lon="5.14795">
        <ele>993.18</ele>
        <time>2022-04-14T08:50:03Z</time>
      </trkpt>
      <trkpt lat="44.90171" lon="5.14799">
        <ele>994.62</ele>
        <time>2022-04-14T08:50:11Z</time>
      </trkpt>
      <trkpt lat="44.9017" lon="5.14798">
        <ele>994.62</ele>
        <time>2022-04-14T08:50:12Z</time>
      </trkpt>
      <trkpt lat="44.90161" lon="5.14804">
        <ele>997.99</ele>
        <time>2022-04-14T08:50:33Z</time>
      </trkpt>
      <trkpt lat="44.90156" lon="5.14804">
        <ele>1000.87</ele>
        <time>2022-04-14T08:50:57Z</time>
      </trkpt>
      <trkpt lat="44.9015" lon="5.14811">
        <ele>1003.27</ele>
        <time>2022-04-14T08:51:50Z</time>
      </trkpt>
      <trkpt lat="44.90151" lon="5.14825">
        <ele>1006.64</ele>
        <time>2022-04-14T08:52:12Z</time>
      </trkpt>
      <trkpt lat="44.9016" lon="5.14823">
        <ele>1009.04</ele>
        <time>2022-04-14T08:52:47Z</time>
      </trkpt>
      <trkpt lat="44.9016" lon="5.14824">
        <ele>1010.48</ele>
        <time>2022-04-14T08:53:39Z</time>
      </trkpt>
      <trkpt lat="44.90155" lon="5.14831">
        <ele>1013.37</ele>
        <time>2022-04-14T08:54:04Z</time>
      </trkpt>
      <trkpt lat="44.90147" lon="5.14836">
        <ele>1016.25</ele>
        <time>2022-04-14T08:54:24Z</time>
      </trkpt>
      <trkpt lat="44.90151" lon="5.14842">
        <ele>1017.69</ele>
        <time>2022-04-14T08:55:05Z</time>
      </trkpt>
      <trkpt lat="44.90158" lon="5.14842">
        <ele>1020.58</ele>
        <time>2022-04-14T08:55:34Z</time>
      </trkpt>
      <trkpt lat="44.90166" lon="5.14828">
        <ele>1023.94</ele>
        <time>2022-04-14T08:55:55Z</time>
      </trkpt>
      <trkpt lat="44.90167" lon="5.14828">
        <ele>1025.38</ele>
        <time>2022-04-14T08:56:26Z</time>
      </trkpt>
      <trkpt lat="44.90169" lon="5.14841">
        <ele>1028.27</ele>
        <time>2022-04-14T08:56:51Z</time>
      </trkpt>
      <trkpt lat="44.90164" lon="5.14845">
        <ele>1030.67</ele>
        <time>2022-04-14T08:57:12Z</time>
      </trkpt>
      <trkpt lat="44.90164" lon="5.1485">
        <ele>1031.63</ele>
        <time>2022-04-14T08:57:40Z</time>
      </trkpt>
      <trkpt lat="44.90161" lon="5.14861">
        <ele>1034.52</ele>
        <time>2022-04-14T08:57:59Z</time>
      </trkpt>
      <trkpt lat="44.90158" lon="5.14872">
        <ele>1037.4</ele>
        <time>2022-04-14T08:58:19Z</time>
      </trkpt>
      <trkpt lat="44.90153" lon="5.14889">
        <ele>1040.76</ele>
        <time>2022-04-14T08:58:44Z</time>
      </trkpt>
      <trkpt lat="44.9016" lon="5.14898">
        <ele>1043.65</ele>
        <time>2022-04-14T08:59:08Z</time>
      </trkpt>
      <trkpt lat="44.9017" lon="5.14913">
        <ele>1045.09</ele>
        <time>2022-04-14T08:59:28Z</time>
      </trkpt>
      <trkpt lat="44.90172" lon="5.14914">
        <ele>1046.53</ele>
        <time>2022-04-14T08:59:49Z</time>
      </trkpt>
      <trkpt lat="44.90169" lon="5.14917">
        <ele>1045.57</ele>
        <time>2022-04-14T09:00:16Z</time>
      </trkpt>
      <trkpt lat="44.90168" lon="5.14914">
        <ele>1045.57</ele>
        <time>2022-04-14T09:00:23Z</time>
      </trkpt>
      <trkpt lat="44.90168" lon="5.14915">
        <ele>1045.57</ele>
        <time>2022-04-14T09:00:24Z</time>
      </trkpt>
      <trkpt lat="44.90167" lon="5.14916">
        <ele>1044.61</ele>
        <time>2022-04-14T09:00:48Z</time>
      </trkpt>
      <trkpt lat="44.90177" lon="5.14918">
        <ele>1046.05</ele>
        <time>2022-04-14T09:01:25Z</time>
      </trkpt>
      <trkpt lat="44.90166" lon="5.14912">
        <ele>1046.05</ele>
        <time>2022-04-14T09:01:53Z</time>
      </trkpt>
      <trkpt lat="44.90169" lon="5.14908">
        <ele>1046.05</ele>
        <time>2022-04-14T09:02:24Z</time>
      </trkpt>
      <trkpt lat="44.90159" lon="5.14905">
        <ele>1046.53</ele>
        <time>2022-04-14T09:02:47Z</time>
      </trkpt>
      <trkpt lat="44.90173" lon="5.14911">
        <ele>1046.05</ele>
        <time>2022-04-14T09:03:19Z</time>
      </trkpt>
      <trkpt lat="44.90171" lon="5.14909">
        <ele>1046.05</ele>
        <time>2022-04-14T09:03:48Z</time>
      </trkpt>
      <trkpt lat="44.9017" lon="5.14909">
        <ele>1047.01</ele>
        <time>2022-04-14T09:04:26Z</time>
      </trkpt>
      <trkpt lat="44.90172" lon="5.14915">
        <ele>1047.01</ele>
        <time>2022-04-14T09:05:04Z</time>
      </trkpt>
      <trkpt lat="44.90175" lon="5.14914">
        <ele>1046.05</ele>
        <time>2022-04-14T09:05:42Z</time>
      </trkpt>
      <trkpt lat="44.9018" lon="5.14914">
        <ele>1046.53</ele>
        <time>2022-04-14T09:06:17Z</time>
      </trkpt>
      <trkpt lat="44.90177" lon="5.14914">
        <ele>1046.53</ele>
        <time>2022-04-14T09:06:20Z</time>
      </trkpt>
      <trkpt lat="44.9016" lon="5.14918">
        <ele>1046.53</ele>
        <time>2022-04-14T09:06:50Z</time>
      </trkpt>
      <trkpt lat="44.90166" lon="5.1492">
        <ele>1046.53</ele>
        <time>2022-04-14T09:07:28Z</time>
      </trkpt>
      <trkpt lat="44.90164" lon="5.14917">
        <ele>1046.53</ele>
        <time>2022-04-14T09:08:08Z</time>
      </trkpt>
      <trkpt lat="44.90161" lon="5.14916">
        <ele>1046.53</ele>
        <time>2022-04-14T09:08:39Z</time>
      </trkpt>
      <trkpt lat="44.90164" lon="5.14915">
        <ele>1046.53</ele>
        <time>2022-04-14T09:08:54Z</time>
      </trkpt>
      <trkpt lat="44.90166" lon="5.14908">
        <ele>1046.53</ele>
        <time>2022-04-14T09:09:33Z</time>
      </trkpt>
      <trkpt lat="44.90172" lon="5.14918">
        <ele>1046.53</ele>
        <time>2022-04-14T09:09:48Z</time>
      </trkpt>
      <trkpt lat="44.90171" lon="5.14922">
        <ele>1047.01</ele>
        <time>2022-04-14T09:10:04Z</time>
      </trkpt>
      <trkpt lat="44.90168" lon="5.14921">
        <ele>1047.01</ele>
        <time>2022-04-14T09:10:18Z</time>
      </trkpt>
      <trkpt lat="44.90165" lon="5.14913">
        <ele>1047.01</ele>
        <time>2022-04-14T09:10:33Z</time>
      </trkpt>
      <trkpt lat="44.9016" lon="5.14906">
        <ele>1046.53</ele>
        <time>2022-04-14T09:10:51Z</time>
      </trkpt>
      <trkpt lat="44.90167" lon="5.1491">
        <ele>1047.01</ele>
        <time>2022-04-14T09:11:06Z</time>
      </trkpt>
      <trkpt lat="44.9017" lon="5.1491">
        <ele>1047.01</ele>
        <time>2022-04-14T09:11:19Z</time>
      </trkpt>
      <trkpt lat="44.90169" lon="5.14914">
        <ele>1047.01</ele>
        <time>2022-04-14T09:11:36Z</time>
      </trkpt>
      <trkpt lat="44.90166" lon="5.1492">
        <ele>1047.01</ele>
        <time>2022-04-14T09:11:54Z</time>
      </trkpt>
      <trkpt lat="44.90165" lon="5.14923">
        <ele>1047.01</ele>
        <time>2022-04-14T09:12:11Z</time>
      </trkpt>
      <trkpt lat="44.90168" lon="5.14917">
        <ele>1047.01</ele>
        <time>2022-04-14T09:12:27Z</time>
      </trkpt>
      <trkpt lat="44.90169" lon="5.14918">
        <ele>1047.01</ele>
        <time>2022-04-14T09:12:48Z</time>
      </trkpt>
      <trkpt lat="44.90174" lon="5.14919">
        <ele>1047.01</ele>
        <time>2022-04-14T09:13:27Z</time>
      </trkpt>
      <trkpt lat="44.9018" lon="5.14918">
        <ele>1047.01</ele>
        <time>2022-04-14T09:14:07Z</time>
      </trkpt>
      <trkpt lat="44.9017" lon="5.14911">
        <ele>1047.01</ele>
        <time>2022-04-14T09:14:37Z</time>
      </trkpt>
      <trkpt lat="44.9017" lon="5.14911">
        <ele>1047.01</ele>
        <time>2022-04-14T09:15:07Z</time>
      </trkpt>
      <trkpt lat="44.90168" lon="5.1491">
        <ele>1047.01</ele>
        <time>2022-04-14T09:15:35Z</time>
      </trkpt>
      <trkpt lat="44.90166" lon="5.14912">
        <ele>1047.01</ele>
        <time>2022-04-14T09:16:11Z</time>
      </trkpt>
      <trkpt lat="44.90169" lon="5.14912">
        <ele>1047.01</ele>
        <time>2022-04-14T09:16:34Z</time>
      </trkpt>
      <trkpt lat="44.90167" lon="5.14909">
        <ele>1047.01</ele>
        <time>2022-04-14T09:17:09Z</time>
      </trkpt>
      <trkpt lat="44.90166" lon="5.14904">
        <ele>1047.01</ele>
        <time>2022-04-14T09:17:47Z</time>
      </trkpt>
      <trkpt lat="44.90166" lon="5.14902">
        <ele>1047.01</ele>
        <time>2022-04-14T09:18:11Z</time>
      </trkpt>
      <trkpt lat="44.90164" lon="5.14905">
        <ele>1047.01</ele>
        <time>2022-04-14T09:18:46Z</time>
      </trkpt>
      <trkpt lat="44.90163" lon="5.14904">
        <ele>1047.01</ele>
        <time>2022-04-14T09:19:20Z</time>
      </trkpt>
      <trkpt lat="44.90169" lon="5.14906">
        <ele>1047.01</ele>
        <time>2022-04-14T09:20:01Z</time>
      </trkpt>
      <trkpt lat="44.9017" lon="5.14908">
        <ele>1047.01</ele>
        <time>2022-04-14T09:20:41Z</time>
      </trkpt>
      <trkpt lat="44.90168" lon="5.14908">
        <ele>1047.01</ele>
        <time>2022-04-14T09:21:23Z</time>
      </trkpt>
      <trkpt lat="44.90168" lon="5.14909">
        <ele>1047.01</ele>
        <time>2022-04-14T09:21:50Z</time>
      </trkpt>
      <trkpt lat="44.90167" lon="5.14908">
        <ele>1047.01</ele>
        <time>2022-04-14T09:22:18Z</time>
      </trkpt>
      <trkpt lat="44.90172" lon="5.14908">
        <ele>1047.01</ele>
        <time>2022-04-14T09:23:02Z</time>
      </trkpt>
      <trkpt lat="44.90177" lon="5.14911">
        <ele>1047.01</ele>
        <time>2022-04-14T09:23:37Z</time>
      </trkpt>
      <trkpt lat="44.90177" lon="5.14914">
        <ele>1047.01</ele>
        <time>2022-04-14T09:24:12Z</time>
      </trkpt>
      <trkpt lat="44.90174" lon="5.14915">
        <ele>1047.01</ele>
        <time>2022-04-14T09:24:49Z</time>
      </trkpt>
      <trkpt lat="44.90174" lon="5.14915">
        <ele>1047.01</ele>
        <time>2022-04-14T09:25:54Z</time>
      </trkpt>
      <trkpt lat="44.90174" lon="5.14915">
        <ele>1047.01</ele>
        <time>2022-04-14T09:27:54Z</time>
      </trkpt>
      <trkpt lat="44.90173" lon="5.14914">
        <ele>1047.01</ele>
        <time>2022-04-14T09:28:55Z</time>
      </trkpt>
      <trkpt lat="44.90173" lon="5.14914">
        <ele>1047.01</ele>
        <time>2022-04-14T09:29:49Z</time>
      </trkpt>
      <trkpt lat="44.90173" lon="5.14914">
        <ele>1047.01</ele>
        <time>2022-04-14T09:30:55Z</time>
      </trkpt>
      <trkpt lat="44.90171" lon="5.14915">
        <ele>1047.01</ele>
        <time>2022-04-14T09:32:06Z</time>
      </trkpt>
      <trkpt lat="44.90171" lon="5.14915">
        <ele>1047.01</ele>
        <time>2022-04-14T09:32:29Z</time>
      </trkpt>
      <trkpt lat="44.9017" lon="5.14914">
        <ele>1047.01</ele>
        <time>2022-04-14T09:33:15Z</time>
      </trkpt>
      <trkpt lat="44.90169" lon="5.14914">
        <ele>1047.01</ele>
        <time>2022-04-14T09:33:48Z</time>
      </trkpt>
      <trkpt lat="44.90169" lon="5.14914">
        <ele>1047.01</ele>
        <time>2022-04-14T09:34:52Z</time>
      </trkpt>
      <trkpt lat="44.90168" lon="5.14914">
        <ele>1047.01</ele>
        <time>2022-04-14T09:35:28Z</time>
      </trkpt>
      <trkpt lat="44.90168" lon="5.14913">
        <ele>1047.01</ele>
        <time>2022-04-14T09:36:22Z</time>
      </trkpt>
      <trkpt lat="44.9017" lon="5.14911">
        <ele>1047.01</ele>
        <time>2022-04-14T09:38:12Z</time>
      </trkpt>
      <trkpt lat="44.90171" lon="5.14903">
        <ele>1047.01</ele>
        <time>2022-04-14T09:38:33Z</time>
      </trkpt>
      <trkpt lat="44.90173" lon="5.14897">
        <ele>1050.86</ele>
        <time>2022-04-14T09:38:49Z</time>
      </trkpt>
      <trkpt lat="44.90173" lon="5.14897">
        <ele>1050.38</ele>
        <time>2022-04-14T09:38:50Z</time>
      </trkpt>
      <trkpt lat="44.90159" lon="5.14903">
        <ele>1050.38</ele>
        <time>2022-04-14T09:39:34Z</time>
      </trkpt>
      <trkpt lat="44.90169" lon="5.14906">
        <ele>1052.78</ele>
        <time>2022-04-14T09:39:47Z</time>
      </trkpt>
      <trkpt lat="44.90162" lon="5.14905">
        <ele>1051.34</ele>
        <time>2022-04-14T09:39:54Z</time>
      </trkpt>
      <trkpt lat="44.90164" lon="5.14905">
        <ele>1049.9</ele>
        <time>2022-04-14T09:40:07Z</time>
      </trkpt>
      <trkpt lat="44.90162" lon="5.14905">
        <ele>1050.86</ele>
        <time>2022-04-14T09:40:21Z</time>
      </trkpt>
      <trkpt lat="44.90175" lon="5.14903">
        <ele>1051.82</ele>
        <time>2022-04-14T09:40:34Z</time>
      </trkpt>
      <trkpt lat="44.90183" lon="5.14896">
        <ele>1051.34</ele>
        <time>2022-04-14T09:40:54Z</time>
      </trkpt>
      <trkpt lat="44.90189" lon="5.14895">
        <ele>1051.82</ele>
        <time>2022-04-14T09:41:13Z</time>
      </trkpt>
      <trkpt lat="44.90189" lon="5.14895">
        <ele>1051.82</ele>
        <time>2022-04-14T09:41:14Z</time>
      </trkpt>
      <trkpt lat="44.90208" lon="5.14903">
        <ele>1051.82</ele>
        <time>2022-04-14T09:41:27Z</time>
      </trkpt>
      <trkpt lat="44.90186" lon="5.14915">
        <ele>1051.82</ele>
        <time>2022-04-14T09:41:40Z</time>
      </trkpt>
      <trkpt lat="44.90162" lon="5.14914">
        <ele>1051.34</ele>
        <time>2022-04-14T09:41:55Z</time>
      </trkpt>
      <trkpt lat="44.90173" lon="5.14935">
        <ele>1051.82</ele>
        <time>2022-04-14T09:42:10Z</time>
      </trkpt>
      <trkpt lat="44.90212" lon="5.14982">
        <ele>1052.3</ele>
        <time>2022-04-14T09:42:41Z</time>
      </trkpt>
      <trkpt lat="44.90185" lon="5.14915">
        <ele>1055.18</ele>
        <time>2022-04-14T09:42:48Z</time>
      </trkpt>
      <trkpt lat="44.90181" lon="5.14914">
        <ele>1056.15</ele>
        <time>2022-04-14T09:42:50Z</time>
      </trkpt>
      <trkpt lat="44.90169" lon="5.14909">
        <ele>1052.78</ele>
        <time>2022-04-14T09:43:00Z</time>
      </trkpt>
      <trkpt lat="44.9017" lon="5.14911">
        <ele>1049.42</ele>
        <time>2022-04-14T09:43:41Z</time>
      </trkpt>
      <trkpt lat="44.9017" lon="5.14911">
        <ele>1047.01</ele>
        <time>2022-04-14T09:43:44Z</time>
      </trkpt>
      <trkpt lat="44.90173" lon="5.14908">
        <ele>1050.38</ele>
        <time>2022-04-14T09:43:55Z</time>
      </trkpt>
      <trkpt lat="44.9018" lon="5.14905">
        <ele>1052.3</ele>
        <time>2022-04-14T09:44:15Z</time>
      </trkpt>
      <trkpt lat="44.90175" lon="5.14908">
        <ele>1051.82</ele>
        <time>2022-04-14T09:44:32Z</time>
      </trkpt>
      <trkpt lat="44.90174" lon="5.14907">
        <ele>1051.34</ele>
        <time>2022-04-14T09:44:51Z</time>
      </trkpt>
      <trkpt lat="44.90182" lon="5.14908">
        <ele>1051.34</ele>
        <time>2022-04-14T09:45:01Z</time>
      </trkpt>
      <trkpt lat="44.90183" lon="5.14909">
        <ele>1051.34</ele>
        <time>2022-04-14T09:45:02Z</time>
      </trkpt>
      <trkpt lat="44.90166" lon="5.14912">
        <ele>1051.34</ele>
        <time>2022-04-14T09:45:14Z</time>
      </trkpt>
      <trkpt lat="44.90169" lon="5.14909">
        <ele>1051.34</ele>
        <time>2022-04-14T09:45:28Z</time>
      </trkpt>
      <trkpt lat="44.90174" lon="5.14912">
        <ele>1051.82</ele>
        <time>2022-04-14T09:45:35Z</time>
      </trkpt>
      <trkpt lat="44.90161" lon="5.14915">
        <ele>1051.34</ele>
        <time>2022-04-14T09:45:40Z</time>
      </trkpt>
      <trkpt lat="44.90159" lon="5.14906">
        <ele>1051.82</ele>
        <time>2022-04-14T09:45:51Z</time>
      </trkpt>
      <trkpt lat="44.90166" lon="5.14913">
        <ele>1055.18</ele>
        <time>2022-04-14T09:45:56Z</time>
      </trkpt>
      <trkpt lat="44.90167" lon="5.14914">
        <ele>1056.15</ele>
        <time>2022-04-14T09:45:58Z</time>
      </trkpt>
      <trkpt lat="44.90167" lon="5.14914">
        <ele>1053.26</ele>
        <time>2022-04-14T09:46:11Z</time>
      </trkpt>
      <trkpt lat="44.90167" lon="5.14914">
        <ele>1050.38</ele>
        <time>2022-04-14T09:47:03Z</time>
      </trkpt>
      <trkpt lat="44.90168" lon="5.14914">
        <ele>1050.86</ele>
        <time>2022-04-14T09:47:45Z</time>
      </trkpt>
      <trkpt lat="44.90168" lon="5.14914">
        <ele>1051.34</ele>
        <time>2022-04-14T09:48:24Z</time>
      </trkpt>
      <trkpt lat="44.90168" lon="5.14914">
        <ele>1051.34</ele>
        <time>2022-04-14T09:49:04Z</time>
      </trkpt>
      <trkpt lat="44.90168" lon="5.14914">
        <ele>1052.3</ele>
        <time>2022-04-14T09:49:06Z</time>
      </trkpt>
      <trkpt lat="44.90168" lon="5.14913">
        <ele>1051.82</ele>
        <time>2022-04-14T09:49:42Z</time>
      </trkpt>
      <trkpt lat="44.90168" lon="5.14913">
        <ele>1051.82</ele>
        <time>2022-04-14T09:50:10Z</time>
      </trkpt>
      <trkpt lat="44.90168" lon="5.14913">
        <ele>1052.3</ele>
        <time>2022-04-14T09:50:47Z</time>
      </trkpt>
      <trkpt lat="44.90169" lon="5.14912">
        <ele>1051.82</ele>
        <time>2022-04-14T09:51:17Z</time>
      </trkpt>
      <trkpt lat="44.90169" lon="5.14913">
        <ele>1051.82</ele>
        <time>2022-04-14T09:51:47Z</time>
      </trkpt>
      <trkpt lat="44.90169" lon="5.14914">
        <ele>1051.82</ele>
        <time>2022-04-14T09:52:07Z</time>
      </trkpt>
      <trkpt lat="44.90167" lon="5.14918">
        <ele>1051.82</ele>
        <time>2022-04-14T09:52:13Z</time>
      </trkpt>
      <trkpt lat="44.90167" lon="5.1492">
        <ele>1051.82</ele>
        <time>2022-04-14T09:52:15Z</time>
      </trkpt>
      <trkpt lat="44.90168" lon="5.14926">
        <ele>1051.34</ele>
        <time>2022-04-14T09:52:25Z</time>
      </trkpt>
      <trkpt lat="44.90169" lon="5.14927">
        <ele>1051.34</ele>
        <time>2022-04-14T09:52:26Z</time>
      </trkpt>
      <trkpt lat="44.90172" lon="5.14932">
        <ele>1051.82</ele>
        <time>2022-04-14T09:52:31Z</time>
      </trkpt>
      <trkpt lat="44.90173" lon="5.14933">
        <ele>1051.82</ele>
        <time>2022-04-14T09:52:32Z</time>
      </trkpt>
      <trkpt lat="44.90174" lon="5.14934">
        <ele>1051.82</ele>
        <time>2022-04-14T09:52:33Z</time>
      </trkpt>
      <trkpt lat="44.90183" lon="5.14952">
        <ele>1053.26</ele>
        <time>2022-04-14T09:52:51Z</time>
      </trkpt>
      <trkpt lat="44.90186" lon="5.14973">
        <ele>1054.7</ele>
        <time>2022-04-14T09:53:07Z</time>
      </trkpt>
      <trkpt lat="44.90192" lon="5.1498">
        <ele>1055.18</ele>
        <time>2022-04-14T09:53:15Z</time>
      </trkpt>
      <trkpt lat="44.90193" lon="5.14982">
        <ele>1055.18</ele>
        <time>2022-04-14T09:53:17Z</time>
      </trkpt>
      <trkpt lat="44.90194" lon="5.14983">
        <ele>1055.18</ele>
        <time>2022-04-14T09:53:18Z</time>
      </trkpt>
      <trkpt lat="44.90203" lon="5.15001">
        <ele>1055.18</ele>
        <time>2022-04-14T09:53:34Z</time>
      </trkpt>
      <trkpt lat="44.90204" lon="5.15001">
        <ele>1055.18</ele>
        <time>2022-04-14T09:53:35Z</time>
      </trkpt>
      <trkpt lat="44.90205" lon="5.15002">
        <ele>1055.18</ele>
        <time>2022-04-14T09:53:36Z</time>
      </trkpt>
      <trkpt lat="44.90218" lon="5.15022">
        <ele>1053.74</ele>
        <time>2022-04-14T09:53:54Z</time>
      </trkpt>
      <trkpt lat="44.9022" lon="5.15025">
        <ele>1053.26</ele>
        <time>2022-04-14T09:53:57Z</time>
      </trkpt>
      <trkpt lat="44.90221" lon="5.15026">
        <ele>1053.26</ele>
        <time>2022-04-14T09:53:58Z</time>
      </trkpt>
      <trkpt lat="44.90221" lon="5.15027">
        <ele>1053.26</ele>
        <time>2022-04-14T09:53:59Z</time>
      </trkpt>
      <trkpt lat="44.90222" lon="5.15029">
        <ele>1052.78</ele>
        <time>2022-04-14T09:54:00Z</time>
      </trkpt>
      <trkpt lat="44.90222" lon="5.1503">
        <ele>1052.78</ele>
        <time>2022-04-14T09:54:01Z</time>
      </trkpt>
      <trkpt lat="44.90229" lon="5.15052">
        <ele>1049.9</ele>
        <time>2022-04-14T09:54:18Z</time>
      </trkpt>
      <trkpt lat="44.90234" lon="5.15079">
        <ele>1049.42</ele>
        <time>2022-04-14T09:54:36Z</time>
      </trkpt>
      <trkpt lat="44.9024" lon="5.1511">
        <ele>1049.42</ele>
        <time>2022-04-14T09:54:56Z</time>
      </trkpt>
      <trkpt lat="44.90245" lon="5.15145">
        <ele>1048.45</ele>
        <time>2022-04-14T09:55:18Z</time>
      </trkpt>
      <trkpt lat="44.90247" lon="5.15165">
        <ele>1048.45</ele>
        <time>2022-04-14T09:55:32Z</time>
      </trkpt>
      <trkpt lat="44.90248" lon="5.15167">
        <ele>1048.45</ele>
        <time>2022-04-14T09:55:34Z</time>
      </trkpt>
      <trkpt lat="44.90249" lon="5.15176">
        <ele>1048.45</ele>
        <time>2022-04-14T09:55:40Z</time>
      </trkpt>
      <trkpt lat="44.90252" lon="5.15186">
        <ele>1047.01</ele>
        <time>2022-04-14T09:55:47Z</time>
      </trkpt>
      <trkpt lat="44.9025" lon="5.15195">
        <ele>1047.01</ele>
        <time>2022-04-14T09:55:59Z</time>
      </trkpt>
      <trkpt lat="44.90247" lon="5.15201">
        <ele>1047.01</ele>
        <time>2022-04-14T09:56:04Z</time>
      </trkpt>
      <trkpt lat="44.90244" lon="5.15206">
        <ele>1047.01</ele>
        <time>2022-04-14T09:56:11Z</time>
      </trkpt>
      <trkpt lat="44.90237" lon="5.15218">
        <ele>1045.57</ele>
        <time>2022-04-14T09:56:25Z</time>
      </trkpt>
      <trkpt lat="44.90223" lon="5.1523">
        <ele>1045.57</ele>
        <time>2022-04-14T09:56:41Z</time>
      </trkpt>
      <trkpt lat="44.90213" lon="5.15232">
        <ele>1044.61</ele>
        <time>2022-04-14T09:56:49Z</time>
      </trkpt>
      <trkpt lat="44.9021" lon="5.15231">
        <ele>1044.13</ele>
        <time>2022-04-14T09:56:52Z</time>
      </trkpt>
      <trkpt lat="44.90206" lon="5.15231">
        <ele>1043.65</ele>
        <time>2022-04-14T09:56:56Z</time>
      </trkpt>
      <trkpt lat="44.90187" lon="5.15231">
        <ele>1043.17</ele>
        <time>2022-04-14T09:57:13Z</time>
      </trkpt>
      <trkpt lat="44.90169" lon="5.15229">
        <ele>1041.73</ele>
        <time>2022-04-14T09:57:30Z</time>
      </trkpt>
      <trkpt lat="44.90164" lon="5.15231">
        <ele>1044.13</ele>
        <time>2022-04-14T09:57:35Z</time>
      </trkpt>
      <trkpt lat="44.90163" lon="5.15232">
        <ele>1044.13</ele>
        <time>2022-04-14T09:57:36Z</time>
      </trkpt>
      <trkpt lat="44.90162" lon="5.15233">
        <ele>1044.13</ele>
        <time>2022-04-14T09:57:37Z</time>
      </trkpt>
      <trkpt lat="44.90154" lon="5.15251">
        <ele>1042.69</ele>
        <time>2022-04-14T09:57:53Z</time>
      </trkpt>
      <trkpt lat="44.90154" lon="5.15255">
        <ele>1042.69</ele>
        <time>2022-04-14T09:57:56Z</time>
      </trkpt>
      <trkpt lat="44.90154" lon="5.15259">
        <ele>1042.21</ele>
        <time>2022-04-14T09:57:59Z</time>
      </trkpt>
      <trkpt lat="44.90153" lon="5.15261">
        <ele>1042.21</ele>
        <time>2022-04-14T09:58:00Z</time>
      </trkpt>
      <trkpt lat="44.90141" lon="5.15271">
        <ele>1041.25</ele>
        <time>2022-04-14T09:58:14Z</time>
      </trkpt>
      <trkpt lat="44.90131" lon="5.15286">
        <ele>1040.28</ele>
        <time>2022-04-14T09:58:29Z</time>
      </trkpt>
      <trkpt lat="44.9013" lon="5.15293">
        <ele>1040.28</ele>
        <time>2022-04-14T09:58:33Z</time>
      </trkpt>
      <trkpt lat="44.90127" lon="5.15307">
        <ele>1040.76</ele>
        <time>2022-04-14T09:58:44Z</time>
      </trkpt>
      <trkpt lat="44.90127" lon="5.15309">
        <ele>1040.76</ele>
        <time>2022-04-14T09:58:45Z</time>
      </trkpt>
      <trkpt lat="44.90127" lon="5.15311">
        <ele>1040.76</ele>
        <time>2022-04-14T09:58:46Z</time>
      </trkpt>
      <trkpt lat="44.90126" lon="5.15312">
        <ele>1040.76</ele>
        <time>2022-04-14T09:58:47Z</time>
      </trkpt>
      <trkpt lat="44.90126" lon="5.15314">
        <ele>1040.76</ele>
        <time>2022-04-14T09:58:48Z</time>
      </trkpt>
      <trkpt lat="44.90119" lon="5.15341">
        <ele>1040.28</ele>
        <time>2022-04-14T09:59:05Z</time>
      </trkpt>
      <trkpt lat="44.90115" lon="5.15356">
        <ele>1039.8</ele>
        <time>2022-04-14T09:59:15Z</time>
      </trkpt>
      <trkpt lat="44.90115" lon="5.15357">
        <ele>1039.8</ele>
        <time>2022-04-14T09:59:16Z</time>
      </trkpt>
      <trkpt lat="44.90115" lon="5.15358">
        <ele>1039.8</ele>
        <time>2022-04-14T09:59:17Z</time>
      </trkpt>
      <trkpt lat="44.90107" lon="5.15373">
        <ele>1039.32</ele>
        <time>2022-04-14T09:59:27Z</time>
      </trkpt>
      <trkpt lat="44.90099" lon="5.15396">
        <ele>1037.88</ele>
        <time>2022-04-14T09:59:43Z</time>
      </trkpt>
      <trkpt lat="44.90089" lon="5.15415">
        <ele>1036.44</ele>
        <time>2022-04-14T09:59:58Z</time>
      </trkpt>
      <trkpt lat="44.90078" lon="5.15437">
        <ele>1035</ele>
        <time>2022-04-14T10:00:14Z</time>
      </trkpt>
      <trkpt lat="44.90078" lon="5.1544">
        <ele>1035</ele>
        <time>2022-04-14T10:00:16Z</time>
      </trkpt>
      <trkpt lat="44.90083" lon="5.15462">
        <ele>1035</ele>
        <time>2022-04-14T10:00:30Z</time>
      </trkpt>
      <trkpt lat="44.9009" lon="5.1548">
        <ele>1034.52</ele>
        <time>2022-04-14T10:00:42Z</time>
      </trkpt>
      <trkpt lat="44.90087" lon="5.15502">
        <ele>1033.55</ele>
        <time>2022-04-14T10:00:57Z</time>
      </trkpt>
      <trkpt lat="44.90087" lon="5.15507">
        <ele>1033.55</ele>
        <time>2022-04-14T10:01:01Z</time>
      </trkpt>
      <trkpt lat="44.90086" lon="5.15509">
        <ele>1033.07</ele>
        <time>2022-04-14T10:01:02Z</time>
      </trkpt>
      <trkpt lat="44.90086" lon="5.15511">
        <ele>1033.07</ele>
        <time>2022-04-14T10:01:03Z</time>
      </trkpt>
      <trkpt lat="44.90086" lon="5.15534">
        <ele>1031.15</ele>
        <time>2022-04-14T10:01:18Z</time>
      </trkpt>
      <trkpt lat="44.9009" lon="5.15562">
        <ele>1030.19</ele>
        <time>2022-04-14T10:01:34Z</time>
      </trkpt>
      <trkpt lat="44.90098" lon="5.15588">
        <ele>1028.27</ele>
        <time>2022-04-14T10:01:53Z</time>
      </trkpt>
      <trkpt lat="44.90103" lon="5.15614">
        <ele>1026.83</ele>
        <time>2022-04-14T10:02:09Z</time>
      </trkpt>
      <trkpt lat="44.90103" lon="5.15616">
        <ele>1026.83</ele>
        <time>2022-04-14T10:02:10Z</time>
      </trkpt>
      <trkpt lat="44.901" lon="5.15639">
        <ele>1026.34</ele>
        <time>2022-04-14T10:02:23Z</time>
      </trkpt>
      <trkpt lat="44.90098" lon="5.15664">
        <ele>1024.9</ele>
        <time>2022-04-14T10:02:38Z</time>
      </trkpt>
      <trkpt lat="44.90099" lon="5.15673">
        <ele>1023.94</ele>
        <time>2022-04-14T10:02:54Z</time>
      </trkpt>
      <trkpt lat="44.90101" lon="5.15675">
        <ele>1023.46</ele>
        <time>2022-04-14T10:02:56Z</time>
      </trkpt>
      <trkpt lat="44.90102" lon="5.15676">
        <ele>1023.46</ele>
        <time>2022-04-14T10:02:57Z</time>
      </trkpt>
      <trkpt lat="44.90116" lon="5.15683">
        <ele>1021.54</ele>
        <time>2022-04-14T10:03:11Z</time>
      </trkpt>
      <trkpt lat="44.90135" lon="5.15702">
        <ele>1022.98</ele>
        <time>2022-04-14T10:03:33Z</time>
      </trkpt>
      <trkpt lat="44.90144" lon="5.15716">
        <ele>1022.02</ele>
        <time>2022-04-14T10:03:45Z</time>
      </trkpt>
      <trkpt lat="44.90159" lon="5.15737">
        <ele>1022.02</ele>
        <time>2022-04-14T10:04:03Z</time>
      </trkpt>
      <trkpt lat="44.90173" lon="5.15758">
        <ele>1022.5</ele>
        <time>2022-04-14T10:04:21Z</time>
      </trkpt>
      <trkpt lat="44.9018" lon="5.15769">
        <ele>1022.98</ele>
        <time>2022-04-14T10:04:30Z</time>
      </trkpt>
      <trkpt lat="44.90181" lon="5.15769">
        <ele>1022.98</ele>
        <time>2022-04-14T10:04:31Z</time>
      </trkpt>
      <trkpt lat="44.90182" lon="5.1577">
        <ele>1022.98</ele>
        <time>2022-04-14T10:04:32Z</time>
      </trkpt>
      <trkpt lat="44.90189" lon="5.1578">
        <ele>1022.98</ele>
        <time>2022-04-14T10:04:45Z</time>
      </trkpt>
      <trkpt lat="44.90203" lon="5.15799">
        <ele>1023.94</ele>
        <time>2022-04-14T10:05:02Z</time>
      </trkpt>
      <trkpt lat="44.90207" lon="5.15809">
        <ele>1024.42</ele>
        <time>2022-04-14T10:05:17Z</time>
      </trkpt>
      <trkpt lat="44.90201" lon="5.15817">
        <ele>1025.38</ele>
        <time>2022-04-14T10:05:31Z</time>
      </trkpt>
      <trkpt lat="44.902" lon="5.15818">
        <ele>1025.38</ele>
        <time>2022-04-14T10:05:32Z</time>
      </trkpt>
      <trkpt lat="44.90195" lon="5.15824">
        <ele>1025.86</ele>
        <time>2022-04-14T10:05:42Z</time>
      </trkpt>
      <trkpt lat="44.90196" lon="5.15822">
        <ele>1025.86</ele>
        <time>2022-04-14T10:05:44Z</time>
      </trkpt>
      <trkpt lat="44.90207" lon="5.15812">
        <ele>1025.86</ele>
        <time>2022-04-14T10:05:58Z</time>
      </trkpt>
      <trkpt lat="44.90218" lon="5.1581">
        <ele>1024.9</ele>
        <time>2022-04-14T10:06:08Z</time>
      </trkpt>
      <trkpt lat="44.9022" lon="5.1581">
        <ele>1024.9</ele>
        <time>2022-04-14T10:06:09Z</time>
      </trkpt>
      <trkpt lat="44.90221" lon="5.1581">
        <ele>1024.9</ele>
        <time>2022-04-14T10:06:10Z</time>
      </trkpt>
      <trkpt lat="44.90242" lon="5.15816">
        <ele>1026.83</ele>
        <time>2022-04-14T10:06:31Z</time>
      </trkpt>
      <trkpt lat="44.90243" lon="5.15817">
        <ele>1026.83</ele>
        <time>2022-04-14T10:06:32Z</time>
      </trkpt>
      <trkpt lat="44.90259" lon="5.15825">
        <ele>1026.83</ele>
        <time>2022-04-14T10:06:48Z</time>
      </trkpt>
      <trkpt lat="44.9026" lon="5.15826">
        <ele>1026.83</ele>
        <time>2022-04-14T10:06:49Z</time>
      </trkpt>
      <trkpt lat="44.90267" lon="5.15833">
        <ele>1025.86</ele>
        <time>2022-04-14T10:07:03Z</time>
      </trkpt>
      <trkpt lat="44.90269" lon="5.15842">
        <ele>1025.86</ele>
        <time>2022-04-14T10:07:14Z</time>
      </trkpt>
      <trkpt lat="44.90267" lon="5.15845">
        <ele>1025.38</ele>
        <time>2022-04-14T10:07:20Z</time>
      </trkpt>
      <trkpt lat="44.90262" lon="5.15839">
        <ele>1026.83</ele>
        <time>2022-04-14T10:07:30Z</time>
      </trkpt>
      <trkpt lat="44.90261" lon="5.15835">
        <ele>1026.83</ele>
        <time>2022-04-14T10:07:33Z</time>
      </trkpt>
      <trkpt lat="44.9026" lon="5.15834">
        <ele>1027.79</ele>
        <time>2022-04-14T10:07:47Z</time>
      </trkpt>
      <trkpt lat="44.9026" lon="5.15834">
        <ele>1026.83</ele>
        <time>2022-04-14T10:08:10Z</time>
      </trkpt>
      <trkpt lat="44.9026" lon="5.15832">
        <ele>1026.83</ele>
        <time>2022-04-14T10:08:33Z</time>
      </trkpt>
      <trkpt lat="44.90259" lon="5.1583">
        <ele>1026.83</ele>
        <time>2022-04-14T10:09:10Z</time>
      </trkpt>
      <trkpt lat="44.90259" lon="5.1583">
        <ele>1026.83</ele>
        <time>2022-04-14T10:09:49Z</time>
      </trkpt>
      <trkpt lat="44.90259" lon="5.1583">
        <ele>1026.83</ele>
        <time>2022-04-14T10:10:35Z</time>
      </trkpt>
      <trkpt lat="44.90259" lon="5.15831">
        <ele>1026.83</ele>
        <time>2022-04-14T10:11:16Z</time>
      </trkpt>
      <trkpt lat="44.90258" lon="5.1583">
        <ele>1026.83</ele>
        <time>2022-04-14T10:12:01Z</time>
      </trkpt>
      <trkpt lat="44.90256" lon="5.15829">
        <ele>1026.83</ele>
        <time>2022-04-14T10:12:41Z</time>
      </trkpt>
      <trkpt lat="44.90255" lon="5.15828">
        <ele>1026.83</ele>
        <time>2022-04-14T10:13:24Z</time>
      </trkpt>
      <trkpt lat="44.90254" lon="5.15827">
        <ele>1026.83</ele>
        <time>2022-04-14T10:14:07Z</time>
      </trkpt>
      <trkpt lat="44.90253" lon="5.15826">
        <ele>1026.83</ele>
        <time>2022-04-14T10:14:48Z</time>
      </trkpt>
      <trkpt lat="44.90252" lon="5.15825">
        <ele>1026.83</ele>
        <time>2022-04-14T10:15:21Z</time>
      </trkpt>
      <trkpt lat="44.90251" lon="5.15825">
        <ele>1026.83</ele>
        <time>2022-04-14T10:15:59Z</time>
      </trkpt>
      <trkpt lat="44.9025" lon="5.15824">
        <ele>1026.83</ele>
        <time>2022-04-14T10:16:33Z</time>
      </trkpt>
      <trkpt lat="44.90249" lon="5.15824">
        <ele>1026.83</ele>
        <time>2022-04-14T10:17:11Z</time>
      </trkpt>
      <trkpt lat="44.90248" lon="5.15824">
        <ele>1026.83</ele>
        <time>2022-04-14T10:17:41Z</time>
      </trkpt>
      <trkpt lat="44.90248" lon="5.15824">
        <ele>1026.83</ele>
        <time>2022-04-14T10:18:24Z</time>
      </trkpt>
      <trkpt lat="44.90248" lon="5.15824">
        <ele>1026.83</ele>
        <time>2022-04-14T10:19:16Z</time>
      </trkpt>
      <trkpt lat="44.90247" lon="5.15825">
        <ele>1026.83</ele>
        <time>2022-04-14T10:20:22Z</time>
      </trkpt>
      <trkpt lat="44.90247" lon="5.15826">
        <ele>1026.83</ele>
        <time>2022-04-14T10:21:27Z</time>
      </trkpt>
      <trkpt lat="44.90247" lon="5.15826">
        <ele>1026.83</ele>
        <time>2022-04-14T10:22:22Z</time>
      </trkpt>
      <trkpt lat="44.90246" lon="5.15826">
        <ele>1026.83</ele>
        <time>2022-04-14T10:23:04Z</time>
      </trkpt>
      <trkpt lat="44.90247" lon="5.15827">
        <ele>1026.83</ele>
        <time>2022-04-14T10:23:58Z</time>
      </trkpt>
      <trkpt lat="44.90247" lon="5.15825">
        <ele>1026.83</ele>
        <time>2022-04-14T10:24:50Z</time>
      </trkpt>
      <trkpt lat="44.90248" lon="5.15825">
        <ele>1026.83</ele>
        <time>2022-04-14T10:25:34Z</time>
      </trkpt>
      <trkpt lat="44.90249" lon="5.15824">
        <ele>1026.83</ele>
        <time>2022-04-14T10:26:22Z</time>
      </trkpt>
      <trkpt lat="44.9025" lon="5.15823">
        <ele>1026.83</ele>
        <time>2022-04-14T10:27:18Z</time>
      </trkpt>
      <trkpt lat="44.9025" lon="5.15823">
        <ele>1026.83</ele>
        <time>2022-04-14T10:28:20Z</time>
      </trkpt>
      <trkpt lat="44.9025" lon="5.15823">
        <ele>1026.83</ele>
        <time>2022-04-14T10:29:02Z</time>
      </trkpt>
      <trkpt lat="44.90249" lon="5.15822">
        <ele>1026.83</ele>
        <time>2022-04-14T10:29:35Z</time>
      </trkpt>
      <trkpt lat="44.9025" lon="5.15826">
        <ele>1026.83</ele>
        <time>2022-04-14T10:30:20Z</time>
      </trkpt>
      <trkpt lat="44.90251" lon="5.15828">
        <ele>1026.83</ele>
        <time>2022-04-14T10:30:49Z</time>
      </trkpt>
      <trkpt lat="44.90251" lon="5.1583">
        <ele>1026.83</ele>
        <time>2022-04-14T10:31:22Z</time>
      </trkpt>
      <trkpt lat="44.90252" lon="5.15832">
        <ele>1026.83</ele>
        <time>2022-04-14T10:31:44Z</time>
      </trkpt>
      <trkpt lat="44.90252" lon="5.15832">
        <ele>1026.83</ele>
        <time>2022-04-14T10:32:07Z</time>
      </trkpt>
      <trkpt lat="44.90252" lon="5.15833">
        <ele>1026.83</ele>
        <time>2022-04-14T10:32:36Z</time>
      </trkpt>
      <trkpt lat="44.90254" lon="5.15837">
        <ele>1026.83</ele>
        <time>2022-04-14T10:33:05Z</time>
      </trkpt>
      <trkpt lat="44.90265" lon="5.15847">
        <ele>1024.42</ele>
        <time>2022-04-14T10:33:20Z</time>
      </trkpt>
      <trkpt lat="44.90266" lon="5.15848">
        <ele>1024.42</ele>
        <time>2022-04-14T10:33:21Z</time>
      </trkpt>
      <trkpt lat="44.90267" lon="5.1585">
        <ele>1024.42</ele>
        <time>2022-04-14T10:33:22Z</time>
      </trkpt>
      <trkpt lat="44.90267" lon="5.15851">
        <ele>1024.42</ele>
        <time>2022-04-14T10:33:23Z</time>
      </trkpt>
      <trkpt lat="44.90268" lon="5.15853">
        <ele>1024.42</ele>
        <time>2022-04-14T10:33:24Z</time>
      </trkpt>
      <trkpt lat="44.90268" lon="5.15854">
        <ele>1024.42</ele>
        <time>2022-04-14T10:33:25Z</time>
      </trkpt>
      <trkpt lat="44.90269" lon="5.15856">
        <ele>1024.42</ele>
        <time>2022-04-14T10:33:26Z</time>
      </trkpt>
      <trkpt lat="44.90272" lon="5.15879">
        <ele>1023.94</ele>
        <time>2022-04-14T10:33:44Z</time>
      </trkpt>
      <trkpt lat="44.90269" lon="5.15893">
        <ele>1022.98</ele>
        <time>2022-04-14T10:34:00Z</time>
      </trkpt>
      <trkpt lat="44.90268" lon="5.159">
        <ele>1022.98</ele>
        <time>2022-04-14T10:34:09Z</time>
      </trkpt>
      <trkpt lat="44.90268" lon="5.15901">
        <ele>1022.98</ele>
        <time>2022-04-14T10:34:10Z</time>
      </trkpt>
      <trkpt lat="44.90268" lon="5.15903">
        <ele>1023.46</ele>
        <time>2022-04-14T10:34:11Z</time>
      </trkpt>
      <trkpt lat="44.90266" lon="5.15913">
        <ele>1024.9</ele>
        <time>2022-04-14T10:34:18Z</time>
      </trkpt>
      <trkpt lat="44.90266" lon="5.15914">
        <ele>1024.9</ele>
        <time>2022-04-14T10:34:19Z</time>
      </trkpt>
      <trkpt lat="44.90265" lon="5.15915">
        <ele>1024.9</ele>
        <time>2022-04-14T10:34:20Z</time>
      </trkpt>
      <trkpt lat="44.90265" lon="5.15916">
        <ele>1024.9</ele>
        <time>2022-04-14T10:34:21Z</time>
      </trkpt>
      <trkpt lat="44.90255" lon="5.15931">
        <ele>1023.46</ele>
        <time>2022-04-14T10:34:37Z</time>
      </trkpt>
      <trkpt lat="44.90254" lon="5.15934">
        <ele>1022.98</ele>
        <time>2022-04-14T10:34:40Z</time>
      </trkpt>
      <trkpt lat="44.90239" lon="5.15952">
        <ele>1022.02</ele>
        <time>2022-04-14T10:34:58Z</time>
      </trkpt>
      <trkpt lat="44.90229" lon="5.15969">
        <ele>1021.06</ele>
        <time>2022-04-14T10:35:14Z</time>
      </trkpt>
      <trkpt lat="44.90223" lon="5.1599">
        <ele>1020.58</ele>
        <time>2022-04-14T10:35:29Z</time>
      </trkpt>
      <trkpt lat="44.90225" lon="5.16017">
        <ele>1019.62</ele>
        <time>2022-04-14T10:35:49Z</time>
      </trkpt>
      <trkpt lat="44.90231" lon="5.16037">
        <ele>1022.98</ele>
        <time>2022-04-14T10:36:04Z</time>
      </trkpt>
      <trkpt lat="44.90232" lon="5.16039">
        <ele>1024.9</ele>
        <time>2022-04-14T10:36:07Z</time>
      </trkpt>
      <trkpt lat="44.90249" lon="5.16048">
        <ele>1023.94</ele>
        <time>2022-04-14T10:36:23Z</time>
      </trkpt>
      <trkpt lat="44.90251" lon="5.16049">
        <ele>1023.94</ele>
        <time>2022-04-14T10:36:24Z</time>
      </trkpt>
      <trkpt lat="44.90253" lon="5.16049">
        <ele>1023.46</ele>
        <time>2022-04-14T10:36:26Z</time>
      </trkpt>
      <trkpt lat="44.90255" lon="5.16049">
        <ele>1023.46</ele>
        <time>2022-04-14T10:36:27Z</time>
      </trkpt>
      <trkpt lat="44.90264" lon="5.16059">
        <ele>1023.94</ele>
        <time>2022-04-14T10:36:44Z</time>
      </trkpt>
      <trkpt lat="44.90273" lon="5.16071">
        <ele>1026.34</ele>
        <time>2022-04-14T10:36:59Z</time>
      </trkpt>
      <trkpt lat="44.90275" lon="5.16073">
        <ele>1026.83</ele>
        <time>2022-04-14T10:37:01Z</time>
      </trkpt>
      <trkpt lat="44.90276" lon="5.16074">
        <ele>1026.83</ele>
        <time>2022-04-14T10:37:02Z</time>
      </trkpt>
      <trkpt lat="44.90282" lon="5.16081">
        <ele>1027.79</ele>
        <time>2022-04-14T10:37:11Z</time>
      </trkpt>
      <trkpt lat="44.90284" lon="5.16084">
        <ele>1027.79</ele>
        <time>2022-04-14T10:37:13Z</time>
      </trkpt>
      <trkpt lat="44.90285" lon="5.16085">
        <ele>1027.79</ele>
        <time>2022-04-14T10:37:14Z</time>
      </trkpt>
      <trkpt lat="44.90293" lon="5.16101">
        <ele>1027.79</ele>
        <time>2022-04-14T10:37:32Z</time>
      </trkpt>
      <trkpt lat="44.90316" lon="5.16097">
        <ele>1029.23</ele>
        <time>2022-04-14T10:37:57Z</time>
      </trkpt>
      <trkpt lat="44.90326" lon="5.16103">
        <ele>1029.71</ele>
        <time>2022-04-14T10:38:10Z</time>
      </trkpt>
      <trkpt lat="44.90326" lon="5.16105">
        <ele>1029.71</ele>
        <time>2022-04-14T10:38:11Z</time>
      </trkpt>
      <trkpt lat="44.90327" lon="5.16107">
        <ele>1029.71</ele>
        <time>2022-04-14T10:38:12Z</time>
      </trkpt>
      <trkpt lat="44.90327" lon="5.1611">
        <ele>1029.23</ele>
        <time>2022-04-14T10:38:14Z</time>
      </trkpt>
      <trkpt lat="44.90328" lon="5.16111">
        <ele>1029.23</ele>
        <time>2022-04-14T10:38:15Z</time>
      </trkpt>
      <trkpt lat="44.90328" lon="5.16113">
        <ele>1028.75</ele>
        <time>2022-04-14T10:38:16Z</time>
      </trkpt>
      <trkpt lat="44.90339" lon="5.16136">
        <ele>1030.67</ele>
        <time>2022-04-14T10:38:33Z</time>
      </trkpt>
      <trkpt lat="44.90346" lon="5.16157">
        <ele>1030.19</ele>
        <time>2022-04-14T10:38:50Z</time>
      </trkpt>
      <trkpt lat="44.90363" lon="5.1618">
        <ele>1031.15</ele>
        <time>2022-04-14T10:39:08Z</time>
      </trkpt>
      <trkpt lat="44.90378" lon="5.16198">
        <ele>1031.63</ele>
        <time>2022-04-14T10:39:25Z</time>
      </trkpt>
      <trkpt lat="44.90394" lon="5.16212">
        <ele>1032.59</ele>
        <time>2022-04-14T10:39:40Z</time>
      </trkpt>
      <trkpt lat="44.904" lon="5.16228">
        <ele>1033.55</ele>
        <time>2022-04-14T10:39:58Z</time>
      </trkpt>
      <trkpt lat="44.9043" lon="5.16254">
        <ele>1035</ele>
        <time>2022-04-14T10:40:26Z</time>
      </trkpt>
      <trkpt lat="44.90444" lon="5.16277">
        <ele>1035.96</ele>
        <time>2022-04-14T10:40:45Z</time>
      </trkpt>
      <trkpt lat="44.90453" lon="5.16312">
        <ele>1035.48</ele>
        <time>2022-04-14T10:41:10Z</time>
      </trkpt>
      <trkpt lat="44.90455" lon="5.16354">
        <ele>1035.96</ele>
        <time>2022-04-14T10:41:38Z</time>
      </trkpt>
      <trkpt lat="44.90456" lon="5.16359">
        <ele>1036.44</ele>
        <time>2022-04-14T10:41:42Z</time>
      </trkpt>
      <trkpt lat="44.90445" lon="5.16397">
        <ele>1036.92</ele>
        <time>2022-04-14T10:42:05Z</time>
      </trkpt>
      <trkpt lat="44.90454" lon="5.16419">
        <ele>1039.32</ele>
        <time>2022-04-14T10:42:26Z</time>
      </trkpt>
      <trkpt lat="44.90458" lon="5.16424">
        <ele>1042.69</ele>
        <time>2022-04-14T10:42:33Z</time>
      </trkpt>
      <trkpt lat="44.90455" lon="5.16422">
        <ele>1043.17</ele>
        <time>2022-04-14T10:42:50Z</time>
      </trkpt>
      <trkpt lat="44.90449" lon="5.16417">
        <ele>1042.21</ele>
        <time>2022-04-14T10:42:58Z</time>
      </trkpt>
      <trkpt lat="44.90448" lon="5.16415">
        <ele>1042.21</ele>
        <time>2022-04-14T10:42:59Z</time>
      </trkpt>
      <trkpt lat="44.90443" lon="5.16401">
        <ele>1039.8</ele>
        <time>2022-04-14T10:43:14Z</time>
      </trkpt>
      <trkpt lat="44.9044" lon="5.16397">
        <ele>1040.76</ele>
        <time>2022-04-14T10:43:38Z</time>
      </trkpt>
      <trkpt lat="44.90423" lon="5.16401">
        <ele>1041.73</ele>
        <time>2022-04-14T10:44:01Z</time>
      </trkpt>
      <trkpt lat="44.9043" lon="5.16413">
        <ele>1044.13</ele>
        <time>2022-04-14T10:44:20Z</time>
      </trkpt>
      <trkpt lat="44.90432" lon="5.16428">
        <ele>1047.01</ele>
        <time>2022-04-14T10:44:36Z</time>
      </trkpt>
      <trkpt lat="44.90431" lon="5.16442">
        <ele>1048.45</ele>
        <time>2022-04-14T10:44:50Z</time>
      </trkpt>
      <trkpt lat="44.90433" lon="5.16451">
        <ele>1050.38</ele>
        <time>2022-04-14T10:45:04Z</time>
      </trkpt>
      <trkpt lat="44.90433" lon="5.16468">
        <ele>1051.82</ele>
        <time>2022-04-14T10:45:20Z</time>
      </trkpt>
      <trkpt lat="44.90435" lon="5.16481">
        <ele>1053.26</ele>
        <time>2022-04-14T10:45:34Z</time>
      </trkpt>
      <trkpt lat="44.90445" lon="5.16498">
        <ele>1056.63</ele>
        <time>2022-04-14T10:45:52Z</time>
      </trkpt>
      <trkpt lat="44.90452" lon="5.16508">
        <ele>1059.51</ele>
        <time>2022-04-14T10:46:06Z</time>
      </trkpt>
      <trkpt lat="44.90457" lon="5.16518">
        <ele>1062.39</ele>
        <time>2022-04-14T10:46:22Z</time>
      </trkpt>
      <trkpt lat="44.90461" lon="5.16534">
        <ele>1065.76</ele>
        <time>2022-04-14T10:46:41Z</time>
      </trkpt>
      <trkpt lat="44.90473" lon="5.16559">
        <ele>1068.16</ele>
        <time>2022-04-14T10:47:05Z</time>
      </trkpt>
      <trkpt lat="44.90493" lon="5.16571">
        <ele>1070.57</ele>
        <time>2022-04-14T10:47:30Z</time>
      </trkpt>
      <trkpt lat="44.90494" lon="5.16584">
        <ele>1072.97</ele>
        <time>2022-04-14T10:47:46Z</time>
      </trkpt>
      <trkpt lat="44.9049" lon="5.16613">
        <ele>1075.85</ele>
        <time>2022-04-14T10:48:08Z</time>
      </trkpt>
      <trkpt lat="44.90484" lon="5.1664">
        <ele>1077.78</ele>
        <time>2022-04-14T10:48:36Z</time>
      </trkpt>
      <trkpt lat="44.90491" lon="5.16663">
        <ele>1080.66</ele>
        <time>2022-04-14T10:48:54Z</time>
      </trkpt>
      <trkpt lat="44.90492" lon="5.16679">
        <ele>1082.1</ele>
        <time>2022-04-14T10:49:08Z</time>
      </trkpt>
      <trkpt lat="44.9049" lon="5.16684">
        <ele>1082.58</ele>
        <time>2022-04-14T10:49:12Z</time>
      </trkpt>
      <trkpt lat="44.90484" lon="5.16699">
        <ele>1084.5</ele>
        <time>2022-04-14T10:49:28Z</time>
      </trkpt>
      <trkpt lat="44.90472" lon="5.16722">
        <ele>1087.39</ele>
        <time>2022-04-14T10:49:47Z</time>
      </trkpt>
      <trkpt lat="44.90471" lon="5.16729">
        <ele>1088.83</ele>
        <time>2022-04-14T10:49:54Z</time>
      </trkpt>
      <trkpt lat="44.90478" lon="5.16735">
        <ele>1091.71</ele>
        <time>2022-04-14T10:50:12Z</time>
      </trkpt>
      <trkpt lat="44.90489" lon="5.16742">
        <ele>1095.08</ele>
        <time>2022-04-14T10:50:30Z</time>
      </trkpt>
      <trkpt lat="44.90506" lon="5.16739">
        <ele>1097.96</ele>
        <time>2022-04-14T10:50:55Z</time>
      </trkpt>
      <trkpt lat="44.90513" lon="5.16745">
        <ele>1099.4</ele>
        <time>2022-04-14T10:51:05Z</time>
      </trkpt>
      <trkpt lat="44.9052" lon="5.16773">
        <ele>1101.81</ele>
        <time>2022-04-14T10:51:31Z</time>
      </trkpt>
      <trkpt lat="44.90521" lon="5.16774">
        <ele>1101.81</ele>
        <time>2022-04-14T10:51:32Z</time>
      </trkpt>
      <trkpt lat="44.90518" lon="5.16787">
        <ele>1102.29</ele>
        <time>2022-04-14T10:51:52Z</time>
      </trkpt>
      <trkpt lat="44.90512" lon="5.16808">
        <ele>1100.85</ele>
        <time>2022-04-14T10:52:13Z</time>
      </trkpt>
      <trkpt lat="44.90513" lon="5.16831">
        <ele>1097.48</ele>
        <time>2022-04-14T10:52:32Z</time>
      </trkpt>
      <trkpt lat="44.90518" lon="5.1686">
        <ele>1095.56</ele>
        <time>2022-04-14T10:52:46Z</time>
      </trkpt>
      <trkpt lat="44.90519" lon="5.16861">
        <ele>1095.56</ele>
        <time>2022-04-14T10:52:47Z</time>
      </trkpt>
      <trkpt lat="44.90525" lon="5.16881">
        <ele>1095.08</ele>
        <time>2022-04-14T10:53:01Z</time>
      </trkpt>
      <trkpt lat="44.90529" lon="5.16911">
        <ele>1093.64</ele>
        <time>2022-04-14T10:53:22Z</time>
      </trkpt>
      <trkpt lat="44.90546" lon="5.16942">
        <ele>1094.6</ele>
        <time>2022-04-14T10:53:45Z</time>
      </trkpt>
      <trkpt lat="44.90558" lon="5.16972">
        <ele>1094.12</ele>
        <time>2022-04-14T10:54:05Z</time>
      </trkpt>
      <trkpt lat="44.90561" lon="5.16996">
        <ele>1094.12</ele>
        <time>2022-04-14T10:54:23Z</time>
      </trkpt>
      <trkpt lat="44.9056" lon="5.17003">
        <ele>1094.12</ele>
        <time>2022-04-14T10:54:27Z</time>
      </trkpt>
      <trkpt lat="44.9056" lon="5.17005">
        <ele>1094.6</ele>
        <time>2022-04-14T10:54:28Z</time>
      </trkpt>
      <trkpt lat="44.90561" lon="5.1703">
        <ele>1095.56</ele>
        <time>2022-04-14T10:54:44Z</time>
      </trkpt>
      <trkpt lat="44.90564" lon="5.1705">
        <ele>1097</ele>
        <time>2022-04-14T10:55:00Z</time>
      </trkpt>
      <trkpt lat="44.90567" lon="5.17061">
        <ele>1098.44</ele>
        <time>2022-04-14T10:55:13Z</time>
      </trkpt>
      <trkpt lat="44.90567" lon="5.17063">
        <ele>1098.44</ele>
        <time>2022-04-14T10:55:14Z</time>
      </trkpt>
      <trkpt lat="44.90568" lon="5.17064">
        <ele>1098.44</ele>
        <time>2022-04-14T10:55:15Z</time>
      </trkpt>
      <trkpt lat="44.90568" lon="5.17065">
        <ele>1098.44</ele>
        <time>2022-04-14T10:55:16Z</time>
      </trkpt>
      <trkpt lat="44.90569" lon="5.17066">
        <ele>1097.96</ele>
        <time>2022-04-14T10:55:17Z</time>
      </trkpt>
      <trkpt lat="44.9057" lon="5.17068">
        <ele>1097.96</ele>
        <time>2022-04-14T10:55:18Z</time>
      </trkpt>
      <trkpt lat="44.9057" lon="5.17069">
        <ele>1097.96</ele>
        <time>2022-04-14T10:55:19Z</time>
      </trkpt>
      <trkpt lat="44.90578" lon="5.17095">
        <ele>1100.37</ele>
        <time>2022-04-14T10:55:37Z</time>
      </trkpt>
      <trkpt lat="44.90584" lon="5.17125">
        <ele>1097.96</ele>
        <time>2022-04-14T10:55:56Z</time>
      </trkpt>
      <trkpt lat="44.90588" lon="5.17151">
        <ele>1097.48</ele>
        <time>2022-04-14T10:56:13Z</time>
      </trkpt>
      <trkpt lat="44.90598" lon="5.17182">
        <ele>1097</ele>
        <time>2022-04-14T10:56:34Z</time>
      </trkpt>
      <trkpt lat="44.9061" lon="5.1721">
        <ele>1097</ele>
        <time>2022-04-14T10:56:54Z</time>
      </trkpt>
      <trkpt lat="44.90624" lon="5.17234">
        <ele>1097</ele>
        <time>2022-04-14T10:57:14Z</time>
      </trkpt>
      <trkpt lat="44.90634" lon="5.17248">
        <ele>1097.96</ele>
        <time>2022-04-14T10:57:30Z</time>
      </trkpt>
      <trkpt lat="44.9065" lon="5.17283">
        <ele>1098.44</ele>
        <time>2022-04-14T10:58:00Z</time>
      </trkpt>
      <trkpt lat="44.9065" lon="5.17312">
        <ele>1098.92</ele>
        <time>2022-04-14T10:58:20Z</time>
      </trkpt>
      <trkpt lat="44.90645" lon="5.17328">
        <ele>1097.96</ele>
        <time>2022-04-14T10:58:31Z</time>
      </trkpt>
      <trkpt lat="44.90636" lon="5.17359">
        <ele>1098.92</ele>
        <time>2022-04-14T10:58:50Z</time>
      </trkpt>
      <trkpt lat="44.90634" lon="5.17383">
        <ele>1099.4</ele>
        <time>2022-04-14T10:59:07Z</time>
      </trkpt>
      <trkpt lat="44.9063" lon="5.17408">
        <ele>1098.92</ele>
        <time>2022-04-14T10:59:25Z</time>
      </trkpt>
      <trkpt lat="44.90635" lon="5.17427">
        <ele>1097</ele>
        <time>2022-04-14T10:59:39Z</time>
      </trkpt>
      <trkpt lat="44.90644" lon="5.17445">
        <ele>1095.56</ele>
        <time>2022-04-14T10:59:52Z</time>
      </trkpt>
      <trkpt lat="44.90659" lon="5.17471">
        <ele>1093.16</ele>
        <time>2022-04-14T11:00:11Z</time>
      </trkpt>
      <trkpt lat="44.9066" lon="5.17473">
        <ele>1092.68</ele>
        <time>2022-04-14T11:00:12Z</time>
      </trkpt>
      <trkpt lat="44.90666" lon="5.17499">
        <ele>1089.79</ele>
        <time>2022-04-14T11:00:28Z</time>
      </trkpt>
      <trkpt lat="44.90687" lon="5.17534">
        <ele>1086.91</ele>
        <time>2022-04-14T11:00:53Z</time>
      </trkpt>
      <trkpt lat="44.9069" lon="5.17571">
        <ele>1084.02</ele>
        <time>2022-04-14T11:01:22Z</time>
      </trkpt>
      <trkpt lat="44.90701" lon="5.17602">
        <ele>1081.14</ele>
        <time>2022-04-14T11:01:45Z</time>
      </trkpt>
      <trkpt lat="44.90708" lon="5.17626">
        <ele>1077.78</ele>
        <time>2022-04-14T11:02:00Z</time>
      </trkpt>
      <trkpt lat="44.9071" lon="5.17659">
        <ele>1074.89</ele>
        <time>2022-04-14T11:02:16Z</time>
      </trkpt>
      <trkpt lat="44.90712" lon="5.17678">
        <ele>1072.01</ele>
        <time>2022-04-14T11:02:30Z</time>
      </trkpt>
      <trkpt lat="44.90713" lon="5.17684">
        <ele>1071.05</ele>
        <time>2022-04-14T11:02:43Z</time>
      </trkpt>
      <trkpt lat="44.90713" lon="5.17685">
        <ele>1071.53</ele>
        <time>2022-04-14T11:02:44Z</time>
      </trkpt>
      <trkpt lat="44.90713" lon="5.17687">
        <ele>1071.53</ele>
        <time>2022-04-14T11:02:45Z</time>
      </trkpt>
      <trkpt lat="44.90713" lon="5.17693">
        <ele>1071.05</ele>
        <time>2022-04-14T11:02:49Z</time>
      </trkpt>
      <trkpt lat="44.90712" lon="5.17699">
        <ele>1070.57</ele>
        <time>2022-04-14T11:02:54Z</time>
      </trkpt>
      <trkpt lat="44.90712" lon="5.17701">
        <ele>1070.08</ele>
        <time>2022-04-14T11:02:55Z</time>
      </trkpt>
      <trkpt lat="44.90712" lon="5.17703">
        <ele>1070.08</ele>
        <time>2022-04-14T11:02:57Z</time>
      </trkpt>
      <trkpt lat="44.90711" lon="5.17705">
        <ele>1070.08</ele>
        <time>2022-04-14T11:02:58Z</time>
      </trkpt>
      <trkpt lat="44.90711" lon="5.17707">
        <ele>1069.6</ele>
        <time>2022-04-14T11:02:59Z</time>
      </trkpt>
      <trkpt lat="44.90711" lon="5.17708">
        <ele>1069.6</ele>
        <time>2022-04-14T11:03:00Z</time>
      </trkpt>
      <trkpt lat="44.90711" lon="5.1771">
        <ele>1069.6</ele>
        <time>2022-04-14T11:03:01Z</time>
      </trkpt>
      <trkpt lat="44.90711" lon="5.17712">
        <ele>1069.6</ele>
        <time>2022-04-14T11:03:02Z</time>
      </trkpt>
      <trkpt lat="44.90711" lon="5.17714">
        <ele>1069.6</ele>
        <time>2022-04-14T11:03:03Z</time>
      </trkpt>
      <trkpt lat="44.9071" lon="5.17715">
        <ele>1069.6</ele>
        <time>2022-04-14T11:03:04Z</time>
      </trkpt>
      <trkpt lat="44.9071" lon="5.17717">
        <ele>1069.12</ele>
        <time>2022-04-14T11:03:05Z</time>
      </trkpt>
      <trkpt lat="44.90704" lon="5.17757">
        <ele>1069.12</ele>
        <time>2022-04-14T11:03:29Z</time>
      </trkpt>
      <trkpt lat="44.90697" lon="5.17793">
        <ele>1069.6</ele>
        <time>2022-04-14T11:03:51Z</time>
      </trkpt>
      <trkpt lat="44.90695" lon="5.17799">
        <ele>1070.08</ele>
        <time>2022-04-14T11:03:55Z</time>
      </trkpt>
      <trkpt lat="44.90695" lon="5.17801">
        <ele>1070.08</ele>
        <time>2022-04-14T11:03:56Z</time>
      </trkpt>
      <trkpt lat="44.90694" lon="5.17802">
        <ele>1070.08</ele>
        <time>2022-04-14T11:03:57Z</time>
      </trkpt>
      <trkpt lat="44.90693" lon="5.17803">
        <ele>1070.08</ele>
        <time>2022-04-14T11:03:58Z</time>
      </trkpt>
      <trkpt lat="44.90693" lon="5.17805">
        <ele>1070.08</ele>
        <time>2022-04-14T11:03:59Z</time>
      </trkpt>
      <trkpt lat="44.90691" lon="5.17813">
        <ele>1069.6</ele>
        <time>2022-04-14T11:04:13Z</time>
      </trkpt>
      <trkpt lat="44.90686" lon="5.17846">
        <ele>1072.01</ele>
        <time>2022-04-14T11:04:44Z</time>
      </trkpt>
      <trkpt lat="44.90685" lon="5.17849">
        <ele>1072.01</ele>
        <time>2022-04-14T11:04:47Z</time>
      </trkpt>
      <trkpt lat="44.90666" lon="5.17886">
        <ele>1072.97</ele>
        <time>2022-04-14T11:05:13Z</time>
      </trkpt>
      <trkpt lat="44.90667" lon="5.17903">
        <ele>1072.49</ele>
        <time>2022-04-14T11:05:23Z</time>
      </trkpt>
      <trkpt lat="44.90666" lon="5.17909">
        <ele>1072.01</ele>
        <time>2022-04-14T11:05:26Z</time>
      </trkpt>
      <trkpt lat="44.90665" lon="5.17911">
        <ele>1072.01</ele>
        <time>2022-04-14T11:05:27Z</time>
      </trkpt>
      <trkpt lat="44.9067" lon="5.17955">
        <ele>1069.6</ele>
        <time>2022-04-14T11:05:53Z</time>
      </trkpt>
      <trkpt lat="44.90674" lon="5.1799">
        <ele>1067.68</ele>
        <time>2022-04-14T11:06:20Z</time>
      </trkpt>
      <trkpt lat="44.90673" lon="5.18031">
        <ele>1064.8</ele>
        <time>2022-04-14T11:06:49Z</time>
      </trkpt>
      <trkpt lat="44.90679" lon="5.18051">
        <ele>1061.91</ele>
        <time>2022-04-14T11:07:04Z</time>
      </trkpt>
      <trkpt lat="44.9069" lon="5.18086">
        <ele>1059.03</ele>
        <time>2022-04-14T11:07:27Z</time>
      </trkpt>
      <trkpt lat="44.90702" lon="5.18112">
        <ele>1055.67</ele>
        <time>2022-04-14T11:07:44Z</time>
      </trkpt>
      <trkpt lat="44.9071" lon="5.18134">
        <ele>1052.78</ele>
        <time>2022-04-14T11:07:57Z</time>
      </trkpt>
      <trkpt lat="44.90711" lon="5.1814">
        <ele>1052.3</ele>
        <time>2022-04-14T11:08:08Z</time>
      </trkpt>
      <trkpt lat="44.90712" lon="5.18145">
        <ele>1053.74</ele>
        <time>2022-04-14T11:08:11Z</time>
      </trkpt>
      <trkpt lat="44.90714" lon="5.18159">
        <ele>1050.86</ele>
        <time>2022-04-14T11:08:28Z</time>
      </trkpt>
      <trkpt lat="44.90719" lon="5.18175">
        <ele>1049.9</ele>
        <time>2022-04-14T11:08:44Z</time>
      </trkpt>
      <trkpt lat="44.90739" lon="5.18206">
        <ele>1048.45</ele>
        <time>2022-04-14T11:09:06Z</time>
      </trkpt>
      <trkpt lat="44.90747" lon="5.18216">
        <ele>1047.49</ele>
        <time>2022-04-14T11:09:16Z</time>
      </trkpt>
      <trkpt lat="44.90748" lon="5.18217">
        <ele>1047.49</ele>
        <time>2022-04-14T11:09:17Z</time>
      </trkpt>
      <trkpt lat="44.90749" lon="5.18218">
        <ele>1047.49</ele>
        <time>2022-04-14T11:09:18Z</time>
      </trkpt>
      <trkpt lat="44.9075" lon="5.18219">
        <ele>1047.97</ele>
        <time>2022-04-14T11:09:19Z</time>
      </trkpt>
      <trkpt lat="44.9075" lon="5.18221">
        <ele>1047.97</ele>
        <time>2022-04-14T11:09:20Z</time>
      </trkpt>
      <trkpt lat="44.90769" lon="5.18242">
        <ele>1047.49</ele>
        <time>2022-04-14T11:09:42Z</time>
      </trkpt>
      <trkpt lat="44.90772" lon="5.18251">
        <ele>1048.45</ele>
        <time>2022-04-14T11:09:59Z</time>
      </trkpt>
      <trkpt lat="44.90773" lon="5.18253">
        <ele>1048.45</ele>
        <time>2022-04-14T11:10:00Z</time>
      </trkpt>
      <trkpt lat="44.90778" lon="5.18264">
        <ele>1047.97</ele>
        <time>2022-04-14T11:10:08Z</time>
      </trkpt>
      <trkpt lat="44.9078" lon="5.18266">
        <ele>1047.97</ele>
        <time>2022-04-14T11:10:10Z</time>
      </trkpt>
      <trkpt lat="44.90781" lon="5.18267">
        <ele>1047.97</ele>
        <time>2022-04-14T11:10:11Z</time>
      </trkpt>
      <trkpt lat="44.90798" lon="5.18295">
        <ele>1046.53</ele>
        <time>2022-04-14T11:10:33Z</time>
      </trkpt>
      <trkpt lat="44.90814" lon="5.18303">
        <ele>1045.57</ele>
        <time>2022-04-14T11:10:48Z</time>
      </trkpt>
      <trkpt lat="44.90834" lon="5.18309">
        <ele>1044.61</ele>
        <time>2022-04-14T11:11:08Z</time>
      </trkpt>
      <trkpt lat="44.90857" lon="5.18319">
        <ele>1043.65</ele>
        <time>2022-04-14T11:11:31Z</time>
      </trkpt>
      <trkpt lat="44.90882" lon="5.18334">
        <ele>1043.17</ele>
        <time>2022-04-14T11:11:56Z</time>
      </trkpt>
      <trkpt lat="44.90903" lon="5.18346">
        <ele>1039.8</ele>
        <time>2022-04-14T11:12:15Z</time>
      </trkpt>
      <trkpt lat="44.90917" lon="5.18351">
        <ele>1036.92</ele>
        <time>2022-04-14T11:12:33Z</time>
      </trkpt>
      <trkpt lat="44.90919" lon="5.18352">
        <ele>1036.92</ele>
        <time>2022-04-14T11:12:36Z</time>
      </trkpt>
      <trkpt lat="44.9092" lon="5.18352">
        <ele>1036.92</ele>
        <time>2022-04-14T11:12:37Z</time>
      </trkpt>
      <trkpt lat="44.90921" lon="5.18352">
        <ele>1037.4</ele>
        <time>2022-04-14T11:12:38Z</time>
      </trkpt>
      <trkpt lat="44.90922" lon="5.18352">
        <ele>1037.4</ele>
        <time>2022-04-14T11:12:39Z</time>
      </trkpt>
      <trkpt lat="44.90923" lon="5.18353">
        <ele>1037.4</ele>
        <time>2022-04-14T11:12:40Z</time>
      </trkpt>
      <trkpt lat="44.90928" lon="5.18354">
        <ele>1039.8</ele>
        <time>2022-04-14T11:12:45Z</time>
      </trkpt>
      <trkpt lat="44.90954" lon="5.18362">
        <ele>1037.4</ele>
        <time>2022-04-14T11:13:07Z</time>
      </trkpt>
      <trkpt lat="44.90972" lon="5.18367">
        <ele>1036.44</ele>
        <time>2022-04-14T11:13:24Z</time>
      </trkpt>
      <trkpt lat="44.90974" lon="5.18367">
        <ele>1036.44</ele>
        <time>2022-04-14T11:13:26Z</time>
      </trkpt>
      <trkpt lat="44.90975" lon="5.18368">
        <ele>1036.44</ele>
        <time>2022-04-14T11:13:27Z</time>
      </trkpt>
      <trkpt lat="44.9099" lon="5.18372">
        <ele>1033.07</ele>
        <time>2022-04-14T11:13:44Z</time>
      </trkpt>
      <trkpt lat="44.9099" lon="5.18371">
        <ele>1030.67</ele>
        <time>2022-04-14T11:13:48Z</time>
      </trkpt>
      <trkpt lat="44.90992" lon="5.18372">
        <ele>1034.04</ele>
        <time>2022-04-14T11:14:00Z</time>
      </trkpt>
      <trkpt lat="44.91" lon="5.18373">
        <ele>1030.67</ele>
        <time>2022-04-14T11:14:09Z</time>
      </trkpt>
      <trkpt lat="44.91001" lon="5.18374">
        <ele>1030.19</ele>
        <time>2022-04-14T11:14:10Z</time>
      </trkpt>
      <trkpt lat="44.91003" lon="5.18377">
        <ele>1033.55</ele>
        <time>2022-04-14T11:14:14Z</time>
      </trkpt>
      <trkpt lat="44.91003" lon="5.18379">
        <ele>1034.52</ele>
        <time>2022-04-14T11:14:16Z</time>
      </trkpt>
      <trkpt lat="44.91002" lon="5.1838">
        <ele>1034.52</ele>
        <time>2022-04-14T11:14:17Z</time>
      </trkpt>
      <trkpt lat="44.91001" lon="5.1838">
        <ele>1034.04</ele>
        <time>2022-04-14T11:14:18Z</time>
      </trkpt>
      <trkpt lat="44.91" lon="5.18381">
        <ele>1034.04</ele>
        <time>2022-04-14T11:14:19Z</time>
      </trkpt>
      <trkpt lat="44.90999" lon="5.18382">
        <ele>1033.55</ele>
        <time>2022-04-14T11:14:20Z</time>
      </trkpt>
      <trkpt lat="44.90991" lon="5.18384">
        <ele>1032.59</ele>
        <time>2022-04-14T11:14:27Z</time>
      </trkpt>
      <trkpt lat="44.9097" lon="5.18386">
        <ele>1029.71</ele>
        <time>2022-04-14T11:14:46Z</time>
      </trkpt>
      <trkpt lat="44.90957" lon="5.1839">
        <ele>1028.75</ele>
        <time>2022-04-14T11:14:59Z</time>
      </trkpt>
      <trkpt lat="44.90943" lon="5.18411">
        <ele>1026.34</ele>
        <time>2022-04-14T11:15:17Z</time>
      </trkpt>
      <trkpt lat="44.90952" lon="5.18438">
        <ele>1026.83</ele>
        <time>2022-04-14T11:15:36Z</time>
      </trkpt>
      <trkpt lat="44.90961" lon="5.18448">
        <ele>1025.38</ele>
        <time>2022-04-14T11:15:54Z</time>
      </trkpt>
      <trkpt lat="44.90962" lon="5.1845">
        <ele>1025.38</ele>
        <time>2022-04-14T11:15:56Z</time>
      </trkpt>
      <trkpt lat="44.90964" lon="5.18452">
        <ele>1025.38</ele>
        <time>2022-04-14T11:15:58Z</time>
      </trkpt>
      <trkpt lat="44.90965" lon="5.18453">
        <ele>1024.9</ele>
        <time>2022-04-14T11:15:59Z</time>
      </trkpt>
      <trkpt lat="44.90979" lon="5.18472">
        <ele>1024.42</ele>
        <time>2022-04-14T11:16:18Z</time>
      </trkpt>
      <trkpt lat="44.90984" lon="5.18487">
        <ele>1022.98</ele>
        <time>2022-04-14T11:16:33Z</time>
      </trkpt>
      <trkpt lat="44.90987" lon="5.18504">
        <ele>1022.02</ele>
        <time>2022-04-14T11:16:46Z</time>
      </trkpt>
      <trkpt lat="44.90996" lon="5.18531">
        <ele>1020.1</ele>
        <time>2022-04-14T11:17:08Z</time>
      </trkpt>
      <trkpt lat="44.91007" lon="5.18564">
        <ele>1017.21</ele>
        <time>2022-04-14T11:17:34Z</time>
      </trkpt>
      <trkpt lat="44.91024" lon="5.18597">
        <ele>1014.81</ele>
        <time>2022-04-14T11:17:52Z</time>
      </trkpt>
      <trkpt lat="44.91025" lon="5.18599">
        <ele>1014.81</ele>
        <time>2022-04-14T11:17:53Z</time>
      </trkpt>
      <trkpt lat="44.91024" lon="5.18601">
        <ele>1014.81</ele>
        <time>2022-04-14T11:17:55Z</time>
      </trkpt>
      <trkpt lat="44.91023" lon="5.18603">
        <ele>1014.81</ele>
        <time>2022-04-14T11:17:56Z</time>
      </trkpt>
      <trkpt lat="44.91022" lon="5.18621">
        <ele>1014.81</ele>
        <time>2022-04-14T11:18:19Z</time>
      </trkpt>
      <trkpt lat="44.91022" lon="5.18624">
        <ele>1014.81</ele>
        <time>2022-04-14T11:18:21Z</time>
      </trkpt>
      <trkpt lat="44.91028" lon="5.1863">
        <ele>1014.33</ele>
        <time>2022-04-14T11:18:32Z</time>
      </trkpt>
      <trkpt lat="44.91029" lon="5.1863">
        <ele>1014.33</ele>
        <time>2022-04-14T11:18:33Z</time>
      </trkpt>
      <trkpt lat="44.91029" lon="5.18632">
        <ele>1014.33</ele>
        <time>2022-04-14T11:18:36Z</time>
      </trkpt>
      <trkpt lat="44.91038" lon="5.18666">
        <ele>1012.41</ele>
        <time>2022-04-14T11:19:05Z</time>
      </trkpt>
      <trkpt lat="44.91054" lon="5.18704">
        <ele>1010</ele>
        <time>2022-04-14T11:19:34Z</time>
      </trkpt>
      <trkpt lat="44.91076" lon="5.18747">
        <ele>1007.12</ele>
        <time>2022-04-14T11:20:01Z</time>
      </trkpt>
      <trkpt lat="44.9111" lon="5.1877">
        <ele>1005.2</ele>
        <time>2022-04-14T11:20:31Z</time>
      </trkpt>
      <trkpt lat="44.91122" lon="5.18783">
        <ele>1003.75</ele>
        <time>2022-04-14T11:20:47Z</time>
      </trkpt>
      <trkpt lat="44.91133" lon="5.18794">
        <ele>1002.79</ele>
        <time>2022-04-14T11:21:07Z</time>
      </trkpt>
      <trkpt lat="44.91133" lon="5.188">
        <ele>999.43</ele>
        <time>2022-04-14T11:21:25Z</time>
      </trkpt>
      <trkpt lat="44.91129" lon="5.18812">
        <ele>996.06</ele>
        <time>2022-04-14T11:21:41Z</time>
      </trkpt>
      <trkpt lat="44.91109" lon="5.18828">
        <ele>993.18</ele>
        <time>2022-04-14T11:22:01Z</time>
      </trkpt>
      <trkpt lat="44.91087" lon="5.18845">
        <ele>989.81</ele>
        <time>2022-04-14T11:22:23Z</time>
      </trkpt>
      <trkpt lat="44.91058" lon="5.18867">
        <ele>988.37</ele>
        <time>2022-04-14T11:22:50Z</time>
      </trkpt>
      <trkpt lat="44.91036" lon="5.18882">
        <ele>985.49</ele>
        <time>2022-04-14T11:23:09Z</time>
      </trkpt>
      <trkpt lat="44.91024" lon="5.18888">
        <ele>982.6</ele>
        <time>2022-04-14T11:23:23Z</time>
      </trkpt>
      <trkpt lat="44.91011" lon="5.18898">
        <ele>979.24</ele>
        <time>2022-04-14T11:23:39Z</time>
      </trkpt>
      <trkpt lat="44.90991" lon="5.1891">
        <ele>976.36</ele>
        <time>2022-04-14T11:23:56Z</time>
      </trkpt>
      <trkpt lat="44.90973" lon="5.18922">
        <ele>972.99</ele>
        <time>2022-04-14T11:24:11Z</time>
      </trkpt>
      <trkpt lat="44.90961" lon="5.18927">
        <ele>970.11</ele>
        <time>2022-04-14T11:24:27Z</time>
      </trkpt>
      <trkpt lat="44.90959" lon="5.18928">
        <ele>969.63</ele>
        <time>2022-04-14T11:24:30Z</time>
      </trkpt>
      <trkpt lat="44.90944" lon="5.18936">
        <ele>966.26</ele>
        <time>2022-04-14T11:24:43Z</time>
      </trkpt>
      <trkpt lat="44.90934" lon="5.18943">
        <ele>964.82</ele>
        <time>2022-04-14T11:25:10Z</time>
      </trkpt>
      <trkpt lat="44.90918" lon="5.18953">
        <ele>961.94</ele>
        <time>2022-04-14T11:25:24Z</time>
      </trkpt>
      <trkpt lat="44.90893" lon="5.18972">
        <ele>958.57</ele>
        <time>2022-04-14T11:25:49Z</time>
      </trkpt>
      <trkpt lat="44.90866" lon="5.1899">
        <ele>955.69</ele>
        <time>2022-04-14T11:26:13Z</time>
      </trkpt>
      <trkpt lat="44.90846" lon="5.18999">
        <ele>952.8</ele>
        <time>2022-04-14T11:26:32Z</time>
      </trkpt>
      <trkpt lat="44.9083" lon="5.19012">
        <ele>949.44</ele>
        <time>2022-04-14T11:26:46Z</time>
      </trkpt>
      <trkpt lat="44.90827" lon="5.1902">
        <ele>947.52</ele>
        <time>2022-04-14T11:27:08Z</time>
      </trkpt>
      <trkpt lat="44.90836" lon="5.19025">
        <ele>944.63</ele>
        <time>2022-04-14T11:27:49Z</time>
      </trkpt>
      <trkpt lat="44.90838" lon="5.19027">
        <ele>944.15</ele>
        <time>2022-04-14T11:27:51Z</time>
      </trkpt>
      <trkpt lat="44.90867" lon="5.1903">
        <ele>941.75</ele>
        <time>2022-04-14T11:28:16Z</time>
      </trkpt>
      <trkpt lat="44.90897" lon="5.19028">
        <ele>939.83</ele>
        <time>2022-04-14T11:28:46Z</time>
      </trkpt>
      <trkpt lat="44.90926" lon="5.1903">
        <ele>937.42</ele>
        <time>2022-04-14T11:29:11Z</time>
      </trkpt>
      <trkpt lat="44.90948" lon="5.19032">
        <ele>935.98</ele>
        <time>2022-04-14T11:29:29Z</time>
      </trkpt>
      <trkpt lat="44.90961" lon="5.19033">
        <ele>934.54</ele>
        <time>2022-04-14T11:29:49Z</time>
      </trkpt>
      <trkpt lat="44.9098" lon="5.19036">
        <ele>933.1</ele>
        <time>2022-04-14T11:30:05Z</time>
      </trkpt>
      <trkpt lat="44.91003" lon="5.19041">
        <ele>931.17</ele>
        <time>2022-04-14T11:30:25Z</time>
      </trkpt>
      <trkpt lat="44.91025" lon="5.19046">
        <ele>930.21</ele>
        <time>2022-04-14T11:30:45Z</time>
      </trkpt>
      <trkpt lat="44.91035" lon="5.19048">
        <ele>930.21</ele>
        <time>2022-04-14T11:31:01Z</time>
      </trkpt>
      <trkpt lat="44.91046" lon="5.19052">
        <ele>928.29</ele>
        <time>2022-04-14T11:31:15Z</time>
      </trkpt>
      <trkpt lat="44.91067" lon="5.19058">
        <ele>926.85</ele>
        <time>2022-04-14T11:31:36Z</time>
      </trkpt>
      <trkpt lat="44.91084" lon="5.19069">
        <ele>925.89</ele>
        <time>2022-04-14T11:31:56Z</time>
      </trkpt>
      <trkpt lat="44.91103" lon="5.19077">
        <ele>924.45</ele>
        <time>2022-04-14T11:32:13Z</time>
      </trkpt>
      <trkpt lat="44.91125" lon="5.19094">
        <ele>923</ele>
        <time>2022-04-14T11:32:35Z</time>
      </trkpt>
      <trkpt lat="44.9114" lon="5.19114">
        <ele>921.08</ele>
        <time>2022-04-14T11:32:53Z</time>
      </trkpt>
      <trkpt lat="44.91156" lon="5.19141">
        <ele>918.68</ele>
        <time>2022-04-14T11:33:14Z</time>
      </trkpt>
      <trkpt lat="44.91174" lon="5.19167">
        <ele>916.75</ele>
        <time>2022-04-14T11:33:37Z</time>
      </trkpt>
      <trkpt lat="44.91182" lon="5.19177">
        <ele>915.79</ele>
        <time>2022-04-14T11:33:53Z</time>
      </trkpt>
      <trkpt lat="44.91202" lon="5.19206">
        <ele>912.91</ele>
        <time>2022-04-14T11:34:18Z</time>
      </trkpt>
      <trkpt lat="44.91207" lon="5.19215">
        <ele>912.43</ele>
        <time>2022-04-14T11:34:38Z</time>
      </trkpt>
      <trkpt lat="44.91215" lon="5.19224">
        <ele>910.99</ele>
        <time>2022-04-14T11:35:03Z</time>
      </trkpt>
      <trkpt lat="44.91214" lon="5.19228">
        <ele>910.99</ele>
        <time>2022-04-14T11:35:36Z</time>
      </trkpt>
      <trkpt lat="44.9122" lon="5.19239">
        <ele>910.03</ele>
        <time>2022-04-14T11:35:45Z</time>
      </trkpt>
      <trkpt lat="44.91221" lon="5.19241">
        <ele>910.03</ele>
        <time>2022-04-14T11:35:46Z</time>
      </trkpt>
      <trkpt lat="44.91222" lon="5.19243">
        <ele>909.54</ele>
        <time>2022-04-14T11:35:47Z</time>
      </trkpt>
      <trkpt lat="44.91221" lon="5.19247">
        <ele>909.54</ele>
        <time>2022-04-14T11:35:50Z</time>
      </trkpt>
      <trkpt lat="44.91211" lon="5.19259">
        <ele>908.1</ele>
        <time>2022-04-14T11:36:04Z</time>
      </trkpt>
      <trkpt lat="44.91192" lon="5.19269">
        <ele>906.18</ele>
        <time>2022-04-14T11:36:23Z</time>
      </trkpt>
      <trkpt lat="44.91189" lon="5.19273">
        <ele>905.22</ele>
        <time>2022-04-14T11:36:29Z</time>
      </trkpt>
      <trkpt lat="44.91187" lon="5.19274">
        <ele>905.22</ele>
        <time>2022-04-14T11:36:30Z</time>
      </trkpt>
      <trkpt lat="44.9118" lon="5.19281">
        <ele>903.3</ele>
        <time>2022-04-14T11:36:38Z</time>
      </trkpt>
      <trkpt lat="44.91161" lon="5.19303">
        <ele>901.37</ele>
        <time>2022-04-14T11:36:59Z</time>
      </trkpt>
      <trkpt lat="44.9115" lon="5.19314">
        <ele>900.89</ele>
        <time>2022-04-14T11:37:11Z</time>
      </trkpt>
      <trkpt lat="44.91141" lon="5.19328">
        <ele>901.85</ele>
        <time>2022-04-14T11:37:33Z</time>
      </trkpt>
      <trkpt lat="44.9113" lon="5.19329">
        <ele>901.85</ele>
        <time>2022-04-14T11:37:50Z</time>
      </trkpt>
      <trkpt lat="44.9113" lon="5.19334">
        <ele>902.82</ele>
        <time>2022-04-14T11:38:17Z</time>
      </trkpt>
      <trkpt lat="44.9112" lon="5.19332">
        <ele>904.26</ele>
        <time>2022-04-14T11:38:51Z</time>
      </trkpt>
      <trkpt lat="44.91117" lon="5.19327">
        <ele>904.26</ele>
        <time>2022-04-14T11:39:03Z</time>
      </trkpt>
      <trkpt lat="44.91114" lon="5.19316">
        <ele>904.74</ele>
        <time>2022-04-14T11:39:40Z</time>
      </trkpt>
      <trkpt lat="44.91112" lon="5.19316">
        <ele>903.78</ele>
        <time>2022-04-14T11:39:46Z</time>
      </trkpt>
      <trkpt lat="44.91109" lon="5.19338">
        <ele>903.78</ele>
        <time>2022-04-14T11:40:13Z</time>
      </trkpt>
      <trkpt lat="44.91088" lon="5.19329">
        <ele>904.26</ele>
        <time>2022-04-14T11:40:57Z</time>
      </trkpt>
      <trkpt lat="44.91093" lon="5.19324">
        <ele>904.26</ele>
        <time>2022-04-14T11:41:10Z</time>
      </trkpt>
      <trkpt lat="44.91101" lon="5.19327">
        <ele>904.74</ele>
        <time>2022-04-14T11:41:22Z</time>
      </trkpt>
      <trkpt lat="44.91112" lon="5.19324">
        <ele>904.26</ele>
        <time>2022-04-14T11:41:35Z</time>
      </trkpt>
      <trkpt lat="44.91107" lon="5.19321">
        <ele>903.78</ele>
        <time>2022-04-14T11:41:49Z</time>
      </trkpt>
      <trkpt lat="44.91106" lon="5.19288">
        <ele>903.78</ele>
        <time>2022-04-14T11:42:22Z</time>
      </trkpt>
      <trkpt lat="44.91107" lon="5.19315">
        <ele>902.82</ele>
        <time>2022-04-14T11:42:37Z</time>
      </trkpt>
      <trkpt lat="44.91118" lon="5.19324">
        <ele>903.78</ele>
        <time>2022-04-14T11:42:43Z</time>
      </trkpt>
      <trkpt lat="44.91117" lon="5.19324">
        <ele>903.78</ele>
        <time>2022-04-14T11:42:44Z</time>
      </trkpt>
      <trkpt lat="44.91107" lon="5.19327">
        <ele>903.78</ele>
        <time>2022-04-14T11:42:57Z</time>
      </trkpt>
      <trkpt lat="44.91101" lon="5.19323">
        <ele>903.3</ele>
        <time>2022-04-14T11:43:05Z</time>
      </trkpt>
      <trkpt lat="44.911" lon="5.19323">
        <ele>903.3</ele>
        <time>2022-04-14T11:43:06Z</time>
      </trkpt>
      <trkpt lat="44.91097" lon="5.19323">
        <ele>902.82</ele>
        <time>2022-04-14T11:43:07Z</time>
      </trkpt>
      <trkpt lat="44.91096" lon="5.19321">
        <ele>902.82</ele>
        <time>2022-04-14T11:43:08Z</time>
      </trkpt>
      <trkpt lat="44.91094" lon="5.1932">
        <ele>902.82</ele>
        <time>2022-04-14T11:43:09Z</time>
      </trkpt>
      <trkpt lat="44.91092" lon="5.19318">
        <ele>903.3</ele>
        <time>2022-04-14T11:43:10Z</time>
      </trkpt>
      <trkpt lat="44.91091" lon="5.19317">
        <ele>903.3</ele>
        <time>2022-04-14T11:43:11Z</time>
      </trkpt>
      <trkpt lat="44.91092" lon="5.19321">
        <ele>903.3</ele>
        <time>2022-04-14T11:43:22Z</time>
      </trkpt>
      <trkpt lat="44.91092" lon="5.19321">
        <ele>904.74</ele>
        <time>2022-04-14T11:44:34Z</time>
      </trkpt>
      <trkpt lat="44.91086" lon="5.19278">
        <ele>905.22</ele>
        <time>2022-04-14T11:46:22Z</time>
      </trkpt>
      <trkpt lat="44.91096" lon="5.1929">
        <ele>904.26</ele>
        <time>2022-04-14T11:46:27Z</time>
      </trkpt>
      <trkpt lat="44.91098" lon="5.19295">
        <ele>903.78</ele>
        <time>2022-04-14T11:46:31Z</time>
      </trkpt>
      <trkpt lat="44.91099" lon="5.19296">
        <ele>903.78</ele>
        <time>2022-04-14T11:46:32Z</time>
      </trkpt>
      <trkpt lat="44.91099" lon="5.19297">
        <ele>903.3</ele>
        <time>2022-04-14T11:46:33Z</time>
      </trkpt>
      <trkpt lat="44.91105" lon="5.1932">
        <ele>902.82</ele>
        <time>2022-04-14T11:46:45Z</time>
      </trkpt>
      <trkpt lat="44.91104" lon="5.19322">
        <ele>903.3</ele>
        <time>2022-04-14T11:46:46Z</time>
      </trkpt>
      <trkpt lat="44.91103" lon="5.19324">
        <ele>903.3</ele>
        <time>2022-04-14T11:46:47Z</time>
      </trkpt>
      <trkpt lat="44.91103" lon="5.19324">
        <ele>904.26</ele>
        <time>2022-04-14T11:47:35Z</time>
      </trkpt>
      <trkpt lat="44.91089" lon="5.19351">
        <ele>902.82</ele>
        <time>2022-04-14T11:57:20Z</time>
      </trkpt>
      <trkpt lat="44.911" lon="5.19304">
        <ele>902.33</ele>
        <time>2022-04-14T11:57:35Z</time>
      </trkpt>
      <trkpt lat="44.91102" lon="5.19306">
        <ele>901.37</ele>
        <time>2022-04-14T11:57:41Z</time>
      </trkpt>
      <trkpt lat="44.91108" lon="5.19313">
        <ele>900.89</ele>
        <time>2022-04-14T11:57:58Z</time>
      </trkpt>
      <trkpt lat="44.91102" lon="5.19313">
        <ele>900.41</ele>
        <time>2022-04-14T11:58:15Z</time>
      </trkpt>
      <trkpt lat="44.91094" lon="5.19303">
        <ele>900.41</ele>
        <time>2022-04-14T11:58:35Z</time>
      </trkpt>
      <trkpt lat="44.91092" lon="5.193">
        <ele>900.41</ele>
        <time>2022-04-14T11:58:40Z</time>
      </trkpt>
      <trkpt lat="44.91094" lon="5.19309">
        <ele>900.41</ele>
        <time>2022-04-14T11:58:52Z</time>
      </trkpt>
      <trkpt lat="44.91094" lon="5.19315">
        <ele>900.41</ele>
        <time>2022-04-14T11:59:04Z</time>
      </trkpt>
      <trkpt lat="44.91096" lon="5.19314">
        <ele>900.41</ele>
        <time>2022-04-14T11:59:09Z</time>
      </trkpt>
      <trkpt lat="44.911" lon="5.19311">
        <ele>900.89</ele>
        <time>2022-04-14T11:59:25Z</time>
      </trkpt>
      <trkpt lat="44.91101" lon="5.19316">
        <ele>900.41</ele>
        <time>2022-04-14T11:59:40Z</time>
      </trkpt>
      <trkpt lat="44.91102" lon="5.19323">
        <ele>900.41</ele>
        <time>2022-04-14T11:59:44Z</time>
      </trkpt>
      <trkpt lat="44.91104" lon="5.19323">
        <ele>901.37</ele>
        <time>2022-04-14T12:00:06Z</time>
      </trkpt>
      <trkpt lat="44.91106" lon="5.19324">
        <ele>900.89</ele>
        <time>2022-04-14T12:00:19Z</time>
      </trkpt>
      <trkpt lat="44.911" lon="5.19317">
        <ele>900.89</ele>
        <time>2022-04-14T12:00:34Z</time>
      </trkpt>
      <trkpt lat="44.91101" lon="5.19321">
        <ele>900.89</ele>
        <time>2022-04-14T12:00:51Z</time>
      </trkpt>
      <trkpt lat="44.91102" lon="5.19325">
        <ele>900.89</ele>
        <time>2022-04-14T12:01:04Z</time>
      </trkpt>
      <trkpt lat="44.91099" lon="5.19322">
        <ele>900.89</ele>
        <time>2022-04-14T12:01:20Z</time>
      </trkpt>
      <trkpt lat="44.91098" lon="5.19313">
        <ele>901.37</ele>
        <time>2022-04-14T12:01:35Z</time>
      </trkpt>
      <trkpt lat="44.91101" lon="5.19321">
        <ele>901.37</ele>
        <time>2022-04-14T12:01:47Z</time>
      </trkpt>
      <trkpt lat="44.91101" lon="5.19326">
        <ele>901.37</ele>
        <time>2022-04-14T12:02:04Z</time>
      </trkpt>
      <trkpt lat="44.91093" lon="5.19323">
        <ele>900.89</ele>
        <time>2022-04-14T12:02:21Z</time>
      </trkpt>
      <trkpt lat="44.91081" lon="5.19324">
        <ele>901.37</ele>
        <time>2022-04-14T12:02:35Z</time>
      </trkpt>
      <trkpt lat="44.91091" lon="5.19325">
        <ele>901.37</ele>
        <time>2022-04-14T12:02:48Z</time>
      </trkpt>
      <trkpt lat="44.91094" lon="5.19323">
        <ele>901.37</ele>
        <time>2022-04-14T12:03:05Z</time>
      </trkpt>
      <trkpt lat="44.91099" lon="5.19324">
        <ele>901.37</ele>
        <time>2022-04-14T12:03:23Z</time>
      </trkpt>
      <trkpt lat="44.91099" lon="5.19324">
        <ele>901.37</ele>
        <time>2022-04-14T12:03:33Z</time>
      </trkpt>
      <trkpt lat="44.91096" lon="5.19321">
        <ele>901.37</ele>
        <time>2022-04-14T12:03:48Z</time>
      </trkpt>
      <trkpt lat="44.91097" lon="5.19325">
        <ele>901.37</ele>
        <time>2022-04-14T12:04:05Z</time>
      </trkpt>
      <trkpt lat="44.911" lon="5.19328">
        <ele>901.37</ele>
        <time>2022-04-14T12:04:17Z</time>
      </trkpt>
      <trkpt lat="44.91104" lon="5.19329">
        <ele>902.82</ele>
        <time>2022-04-14T12:04:44Z</time>
      </trkpt>
      <trkpt lat="44.91105" lon="5.19334">
        <ele>902.82</ele>
        <time>2022-04-14T12:05:22Z</time>
      </trkpt>
      <trkpt lat="44.9111" lon="5.19334">
        <ele>903.3</ele>
        <time>2022-04-14T12:05:56Z</time>
      </trkpt>
      <trkpt lat="44.91107" lon="5.19325">
        <ele>903.3</ele>
        <time>2022-04-14T12:06:32Z</time>
      </trkpt>
      <trkpt lat="44.91108" lon="5.19334">
        <ele>903.3</ele>
        <time>2022-04-14T12:07:14Z</time>
      </trkpt>
      <trkpt lat="44.91103" lon="5.19329">
        <ele>902.82</ele>
        <time>2022-04-14T12:07:51Z</time>
      </trkpt>
      <trkpt lat="44.91102" lon="5.1933">
        <ele>902.82</ele>
        <time>2022-04-14T12:08:16Z</time>
      </trkpt>
      <trkpt lat="44.911" lon="5.19327">
        <ele>902.82</ele>
        <time>2022-04-14T12:08:25Z</time>
      </trkpt>
      <trkpt lat="44.91104" lon="5.19323">
        <ele>902.82</ele>
        <time>2022-04-14T12:08:57Z</time>
      </trkpt>
      <trkpt lat="44.91111" lon="5.19315">
        <ele>902.82</ele>
        <time>2022-04-14T12:09:11Z</time>
      </trkpt>
      <trkpt lat="44.91117" lon="5.19315">
        <ele>902.82</ele>
        <time>2022-04-14T12:09:19Z</time>
      </trkpt>
      <trkpt lat="44.91107" lon="5.19322">
        <ele>902.82</ele>
        <time>2022-04-14T12:09:53Z</time>
      </trkpt>
      <trkpt lat="44.91104" lon="5.19327">
        <ele>902.82</ele>
        <time>2022-04-14T12:10:22Z</time>
      </trkpt>
      <trkpt lat="44.91106" lon="5.19332">
        <ele>902.82</ele>
        <time>2022-04-14T12:10:25Z</time>
      </trkpt>
      <trkpt lat="44.91107" lon="5.19333">
        <ele>902.82</ele>
        <time>2022-04-14T12:10:30Z</time>
      </trkpt>
      <trkpt lat="44.91105" lon="5.19331">
        <ele>903.3</ele>
        <time>2022-04-14T12:11:02Z</time>
      </trkpt>
      <trkpt lat="44.91102" lon="5.19324">
        <ele>903.3</ele>
        <time>2022-04-14T12:11:26Z</time>
      </trkpt>
      <trkpt lat="44.91104" lon="5.19326">
        <ele>903.3</ele>
        <time>2022-04-14T12:12:01Z</time>
      </trkpt>
      <trkpt lat="44.91103" lon="5.1932">
        <ele>902.82</ele>
        <time>2022-04-14T12:12:38Z</time>
      </trkpt>
      <trkpt lat="44.91103" lon="5.19316">
        <ele>902.82</ele>
        <time>2022-04-14T12:13:13Z</time>
      </trkpt>
      <trkpt lat="44.91103" lon="5.19321">
        <ele>902.82</ele>
        <time>2022-04-14T12:13:38Z</time>
      </trkpt>
      <trkpt lat="44.91102" lon="5.19323">
        <ele>902.82</ele>
        <time>2022-04-14T12:13:46Z</time>
      </trkpt>
      <trkpt lat="44.91101" lon="5.19324">
        <ele>902.82</ele>
        <time>2022-04-14T12:14:07Z</time>
      </trkpt>
      <trkpt lat="44.91097" lon="5.19321">
        <ele>902.82</ele>
        <time>2022-04-14T12:14:23Z</time>
      </trkpt>
      <trkpt lat="44.91095" lon="5.19321">
        <ele>902.82</ele>
        <time>2022-04-14T12:14:24Z</time>
      </trkpt>
      <trkpt lat="44.91093" lon="5.19324">
        <ele>902.82</ele>
        <time>2022-04-14T12:14:40Z</time>
      </trkpt>
      <trkpt lat="44.91082" lon="5.1934">
        <ele>902.33</ele>
        <time>2022-04-14T12:15:06Z</time>
      </trkpt>
      <trkpt lat="44.91073" lon="5.19344">
        <ele>901.85</ele>
        <time>2022-04-14T12:15:26Z</time>
      </trkpt>
      <trkpt lat="44.91071" lon="5.19344">
        <ele>901.85</ele>
        <time>2022-04-14T12:15:27Z</time>
      </trkpt>
      <trkpt lat="44.91066" lon="5.19358">
        <ele>901.37</ele>
        <time>2022-04-14T12:15:52Z</time>
      </trkpt>
      <trkpt lat="44.91071" lon="5.19389">
        <ele>900.41</ele>
        <time>2022-04-14T12:16:18Z</time>
      </trkpt>
      <trkpt lat="44.91089" lon="5.19392">
        <ele>900.41</ele>
        <time>2022-04-14T12:16:45Z</time>
      </trkpt>
      <trkpt lat="44.91115" lon="5.19386">
        <ele>901.37</ele>
        <time>2022-04-14T12:17:13Z</time>
      </trkpt>
      <trkpt lat="44.91121" lon="5.19371">
        <ele>901.85</ele>
        <time>2022-04-14T12:17:39Z</time>
      </trkpt>
      <trkpt lat="44.91119" lon="5.19347">
        <ele>902.82</ele>
        <time>2022-04-14T12:18:01Z</time>
      </trkpt>
      <trkpt lat="44.91132" lon="5.19332">
        <ele>903.3</ele>
        <time>2022-04-14T12:18:26Z</time>
      </trkpt>
      <trkpt lat="44.91153" lon="5.19308">
        <ele>902.82</ele>
        <time>2022-04-14T12:18:58Z</time>
      </trkpt>
      <trkpt lat="44.91181" lon="5.1928">
        <ele>904.26</ele>
        <time>2022-04-14T12:19:25Z</time>
      </trkpt>
      <trkpt lat="44.91201" lon="5.19278">
        <ele>906.18</ele>
        <time>2022-04-14T12:19:46Z</time>
      </trkpt>
      <trkpt lat="44.91203" lon="5.1927">
        <ele>907.62</ele>
        <time>2022-04-14T12:20:12Z</time>
      </trkpt>
      <trkpt lat="44.91215" lon="5.19255">
        <ele>907.62</ele>
        <time>2022-04-14T12:20:38Z</time>
      </trkpt>
      <trkpt lat="44.91219" lon="5.19253">
        <ele>907.14</ele>
        <time>2022-04-14T12:21:15Z</time>
      </trkpt>
      <trkpt lat="44.91228" lon="5.19253">
        <ele>907.14</ele>
        <time>2022-04-14T12:21:22Z</time>
      </trkpt>
      <trkpt lat="44.91249" lon="5.19256">
        <ele>907.14</ele>
        <time>2022-04-14T12:21:41Z</time>
      </trkpt>
      <trkpt lat="44.91258" lon="5.19257">
        <ele>903.78</ele>
        <time>2022-04-14T12:21:50Z</time>
      </trkpt>
      <trkpt lat="44.91266" lon="5.19257">
        <ele>906.66</ele>
        <time>2022-04-14T12:21:59Z</time>
      </trkpt>
      <trkpt lat="44.91268" lon="5.19258">
        <ele>907.62</ele>
        <time>2022-04-14T12:22:01Z</time>
      </trkpt>
      <trkpt lat="44.91289" lon="5.19259">
        <ele>907.14</ele>
        <time>2022-04-14T12:22:19Z</time>
      </trkpt>
      <trkpt lat="44.9131" lon="5.19261">
        <ele>906.66</ele>
        <time>2022-04-14T12:22:38Z</time>
      </trkpt>
      <trkpt lat="44.91331" lon="5.19264">
        <ele>906.66</ele>
        <time>2022-04-14T12:22:56Z</time>
      </trkpt>
      <trkpt lat="44.91346" lon="5.19264">
        <ele>906.66</ele>
        <time>2022-04-14T12:23:11Z</time>
      </trkpt>
      <trkpt lat="44.91354" lon="5.19265">
        <ele>907.62</ele>
        <time>2022-04-14T12:23:22Z</time>
      </trkpt>
      <trkpt lat="44.91355" lon="5.19266">
        <ele>907.62</ele>
        <time>2022-04-14T12:23:23Z</time>
      </trkpt>
      <trkpt lat="44.91356" lon="5.19267">
        <ele>907.62</ele>
        <time>2022-04-14T12:23:24Z</time>
      </trkpt>
      <trkpt lat="44.91357" lon="5.19268">
        <ele>907.62</ele>
        <time>2022-04-14T12:23:25Z</time>
      </trkpt>
      <trkpt lat="44.91358" lon="5.19268">
        <ele>907.62</ele>
        <time>2022-04-14T12:23:26Z</time>
      </trkpt>
      <trkpt lat="44.91359" lon="5.19268">
        <ele>907.62</ele>
        <time>2022-04-14T12:23:27Z</time>
      </trkpt>
      <trkpt lat="44.9136" lon="5.19268">
        <ele>907.62</ele>
        <time>2022-04-14T12:23:28Z</time>
      </trkpt>
      <trkpt lat="44.91361" lon="5.19268">
        <ele>907.62</ele>
        <time>2022-04-14T12:23:29Z</time>
      </trkpt>
      <trkpt lat="44.91362" lon="5.19268">
        <ele>907.62</ele>
        <time>2022-04-14T12:23:30Z</time>
      </trkpt>
      <trkpt lat="44.91363" lon="5.19269">
        <ele>907.62</ele>
        <time>2022-04-14T12:23:31Z</time>
      </trkpt>
      <trkpt lat="44.91365" lon="5.19269">
        <ele>907.62</ele>
        <time>2022-04-14T12:23:32Z</time>
      </trkpt>
      <trkpt lat="44.91386" lon="5.19273">
        <ele>909.06</ele>
        <time>2022-04-14T12:23:51Z</time>
      </trkpt>
      <trkpt lat="44.9141" lon="5.19278">
        <ele>909.54</ele>
        <time>2022-04-14T12:24:11Z</time>
      </trkpt>
      <trkpt lat="44.91435" lon="5.19283">
        <ele>910.99</ele>
        <time>2022-04-14T12:24:33Z</time>
      </trkpt>
      <trkpt lat="44.91455" lon="5.19288">
        <ele>912.43</ele>
        <time>2022-04-14T12:24:51Z</time>
      </trkpt>
      <trkpt lat="44.91479" lon="5.19292">
        <ele>914.83</ele>
        <time>2022-04-14T12:25:12Z</time>
      </trkpt>
      <trkpt lat="44.91502" lon="5.19297">
        <ele>915.79</ele>
        <time>2022-04-14T12:25:32Z</time>
      </trkpt>
      <trkpt lat="44.91511" lon="5.193">
        <ele>915.79</ele>
        <time>2022-04-14T12:25:41Z</time>
      </trkpt>
      <trkpt lat="44.91512" lon="5.19301">
        <ele>915.79</ele>
        <time>2022-04-14T12:25:42Z</time>
      </trkpt>
      <trkpt lat="44.91513" lon="5.19301">
        <ele>915.79</ele>
        <time>2022-04-14T12:25:43Z</time>
      </trkpt>
      <trkpt lat="44.91533" lon="5.19303">
        <ele>917.72</ele>
        <time>2022-04-14T12:26:02Z</time>
      </trkpt>
      <trkpt lat="44.91552" lon="5.19306">
        <ele>919.16</ele>
        <time>2022-04-14T12:26:20Z</time>
      </trkpt>
      <trkpt lat="44.91569" lon="5.19311">
        <ele>920.6</ele>
        <time>2022-04-14T12:26:36Z</time>
      </trkpt>
      <trkpt lat="44.91588" lon="5.19312">
        <ele>922.04</ele>
        <time>2022-04-14T12:26:52Z</time>
      </trkpt>
      <trkpt lat="44.91608" lon="5.19309">
        <ele>923</ele>
        <time>2022-04-14T12:27:11Z</time>
      </trkpt>
      <trkpt lat="44.91622" lon="5.19311">
        <ele>924.45</ele>
        <time>2022-04-14T12:27:26Z</time>
      </trkpt>
      <trkpt lat="44.91649" lon="5.19312">
        <ele>927.33</ele>
        <time>2022-04-14T12:27:52Z</time>
      </trkpt>
      <trkpt lat="44.91675" lon="5.19315">
        <ele>930.21</ele>
        <time>2022-04-14T12:28:16Z</time>
      </trkpt>
      <trkpt lat="44.91678" lon="5.19312">
        <ele>931.17</ele>
        <time>2022-04-14T12:28:38Z</time>
      </trkpt>
      <trkpt lat="44.91678" lon="5.19313">
        <ele>930.21</ele>
        <time>2022-04-14T12:29:18Z</time>
      </trkpt>
      <trkpt lat="44.91677" lon="5.19313">
        <ele>930.69</ele>
        <time>2022-04-14T12:29:59Z</time>
      </trkpt>
      <trkpt lat="44.91677" lon="5.19312">
        <ele>930.69</ele>
        <time>2022-04-14T12:30:52Z</time>
      </trkpt>
      <trkpt lat="44.91678" lon="5.19312">
        <ele>931.17</ele>
        <time>2022-04-14T12:31:40Z</time>
      </trkpt>
      <trkpt lat="44.91678" lon="5.19312">
        <ele>931.17</ele>
        <time>2022-04-14T12:32:16Z</time>
      </trkpt>
      <trkpt lat="44.91679" lon="5.19308">
        <ele>931.17</ele>
        <time>2022-04-14T12:33:08Z</time>
      </trkpt>
      <trkpt lat="44.91678" lon="5.19308">
        <ele>931.17</ele>
        <time>2022-04-14T12:34:17Z</time>
      </trkpt>
      <trkpt lat="44.91678" lon="5.19307">
        <ele>931.17</ele>
        <time>2022-04-14T12:35:13Z</time>
      </trkpt>
      <trkpt lat="44.91678" lon="5.19307">
        <ele>931.17</ele>
        <time>2022-04-14T12:36:40Z</time>
      </trkpt>
      <trkpt lat="44.91678" lon="5.19308">
        <ele>931.17</ele>
        <time>2022-04-14T12:37:54Z</time>
      </trkpt>
      <trkpt lat="44.91678" lon="5.19309">
        <ele>931.17</ele>
        <time>2022-04-14T12:38:57Z</time>
      </trkpt>
      <trkpt lat="44.91679" lon="5.19311">
        <ele>931.17</ele>
        <time>2022-04-14T12:39:40Z</time>
      </trkpt>
      <trkpt lat="44.91678" lon="5.19314">
        <ele>931.17</ele>
        <time>2022-04-14T12:40:37Z</time>
      </trkpt>
      <trkpt lat="44.91682" lon="5.19316">
        <ele>931.17</ele>
        <time>2022-04-14T12:41:30Z</time>
      </trkpt>
      <trkpt lat="44.91699" lon="5.19316">
        <ele>931.17</ele>
        <time>2022-04-14T12:41:53Z</time>
      </trkpt>
      <trkpt lat="44.91725" lon="5.19318">
        <ele>931.17</ele>
        <time>2022-04-14T12:42:18Z</time>
      </trkpt>
      <trkpt lat="44.91732" lon="5.19321">
        <ele>931.17</ele>
        <time>2022-04-14T12:42:25Z</time>
      </trkpt>
      <trkpt lat="44.9174" lon="5.19324">
        <ele>936.46</ele>
        <time>2022-04-14T12:42:35Z</time>
      </trkpt>
      <trkpt lat="44.91741" lon="5.19324">
        <ele>935.98</ele>
        <time>2022-04-14T12:42:36Z</time>
      </trkpt>
      <trkpt lat="44.91771" lon="5.19329">
        <ele>938.86</ele>
        <time>2022-04-14T12:43:07Z</time>
      </trkpt>
      <trkpt lat="44.91801" lon="5.19334">
        <ele>941.75</ele>
        <time>2022-04-14T12:43:35Z</time>
      </trkpt>
      <trkpt lat="44.91836" lon="5.19336">
        <ele>944.63</ele>
        <time>2022-04-14T12:44:08Z</time>
      </trkpt>
      <trkpt lat="44.91862" lon="5.19337">
        <ele>947.52</ele>
        <time>2022-04-14T12:44:31Z</time>
      </trkpt>
      <trkpt lat="44.91885" lon="5.1934">
        <ele>950.4</ele>
        <time>2022-04-14T12:44:56Z</time>
      </trkpt>
      <trkpt lat="44.91904" lon="5.19338">
        <ele>953.77</ele>
        <time>2022-04-14T12:45:16Z</time>
      </trkpt>
      <trkpt lat="44.91928" lon="5.19335">
        <ele>956.65</ele>
        <time>2022-04-14T12:45:41Z</time>
      </trkpt>
      <trkpt lat="44.91956" lon="5.19334">
        <ele>960.01</ele>
        <time>2022-04-14T12:46:04Z</time>
      </trkpt>
      <trkpt lat="44.91976" lon="5.19336">
        <ele>962.9</ele>
        <time>2022-04-14T12:46:24Z</time>
      </trkpt>
      <trkpt lat="44.92003" lon="5.19334">
        <ele>965.78</ele>
        <time>2022-04-14T12:46:51Z</time>
      </trkpt>
      <trkpt lat="44.92026" lon="5.19333">
        <ele>969.15</ele>
        <time>2022-04-14T12:47:14Z</time>
      </trkpt>
      <trkpt lat="44.92056" lon="5.19332">
        <ele>972.03</ele>
        <time>2022-04-14T12:47:42Z</time>
      </trkpt>
      <trkpt lat="44.92082" lon="5.19332">
        <ele>975.39</ele>
        <time>2022-04-14T12:48:06Z</time>
      </trkpt>
      <trkpt lat="44.92109" lon="5.19339">
        <ele>978.28</ele>
        <time>2022-04-14T12:48:31Z</time>
      </trkpt>
      <trkpt lat="44.92131" lon="5.19352">
        <ele>981.16</ele>
        <time>2022-04-14T12:48:54Z</time>
      </trkpt>
      <trkpt lat="44.92156" lon="5.19359">
        <ele>984.53</ele>
        <time>2022-04-14T12:49:18Z</time>
      </trkpt>
      <trkpt lat="44.92174" lon="5.19353">
        <ele>987.41</ele>
        <time>2022-04-14T12:49:40Z</time>
      </trkpt>
      <trkpt lat="44.92195" lon="5.19354">
        <ele>990.3</ele>
        <time>2022-04-14T12:49:56Z</time>
      </trkpt>
      <trkpt lat="44.92196" lon="5.19355">
        <ele>990.3</ele>
        <time>2022-04-14T12:49:57Z</time>
      </trkpt>
      <trkpt lat="44.92197" lon="5.19355">
        <ele>990.3</ele>
        <time>2022-04-14T12:49:58Z</time>
      </trkpt>
      <trkpt lat="44.92207" lon="5.19356">
        <ele>991.74</ele>
        <time>2022-04-14T12:50:14Z</time>
      </trkpt>
      <trkpt lat="44.9223" lon="5.19351">
        <ele>993.66</ele>
        <time>2022-04-14T12:50:41Z</time>
      </trkpt>
      <trkpt lat="44.92253" lon="5.19347">
        <ele>996.54</ele>
        <time>2022-04-14T12:51:04Z</time>
      </trkpt>
      <trkpt lat="44.92276" lon="5.19341">
        <ele>999.43</ele>
        <time>2022-04-14T12:51:25Z</time>
      </trkpt>
      <trkpt lat="44.9229" lon="5.19337">
        <ele>1001.83</ele>
        <time>2022-04-14T12:51:42Z</time>
      </trkpt>
      <trkpt lat="44.92291" lon="5.19337">
        <ele>1001.83</ele>
        <time>2022-04-14T12:51:43Z</time>
      </trkpt>
      <trkpt lat="44.92315" lon="5.19337">
        <ele>1004.72</ele>
        <time>2022-04-14T12:52:05Z</time>
      </trkpt>
      <trkpt lat="44.92339" lon="5.19341">
        <ele>1008.08</ele>
        <time>2022-04-14T12:52:26Z</time>
      </trkpt>
      <trkpt lat="44.92367" lon="5.19345">
        <ele>1010.96</ele>
        <time>2022-04-14T12:52:50Z</time>
      </trkpt>
      <trkpt lat="44.92388" lon="5.19343">
        <ele>1013.37</ele>
        <time>2022-04-14T12:53:11Z</time>
      </trkpt>
      <trkpt lat="44.92416" lon="5.19339">
        <ele>1016.25</ele>
        <time>2022-04-14T12:53:35Z</time>
      </trkpt>
      <trkpt lat="44.92435" lon="5.19346">
        <ele>1019.13</ele>
        <time>2022-04-14T12:53:56Z</time>
      </trkpt>
      <trkpt lat="44.92463" lon="5.19343">
        <ele>1022.5</ele>
        <time>2022-04-14T12:54:22Z</time>
      </trkpt>
      <trkpt lat="44.92491" lon="5.19352">
        <ele>1025.38</ele>
        <time>2022-04-14T12:54:47Z</time>
      </trkpt>
      <trkpt lat="44.92521" lon="5.19359">
        <ele>1027.79</ele>
        <time>2022-04-14T12:55:12Z</time>
      </trkpt>
      <trkpt lat="44.92543" lon="5.19356">
        <ele>1029.23</ele>
        <time>2022-04-14T12:55:34Z</time>
      </trkpt>
      <trkpt lat="44.92572" lon="5.19355">
        <ele>1030.67</ele>
        <time>2022-04-14T12:56:00Z</time>
      </trkpt>
      <trkpt lat="44.9259" lon="5.19354">
        <ele>1034.04</ele>
        <time>2022-04-14T12:56:17Z</time>
      </trkpt>
      <trkpt lat="44.92606" lon="5.19358">
        <ele>1036.92</ele>
        <time>2022-04-14T12:56:35Z</time>
      </trkpt>
      <trkpt lat="44.92621" lon="5.19363">
        <ele>1038.84</ele>
        <time>2022-04-14T12:56:52Z</time>
      </trkpt>
      <trkpt lat="44.92644" lon="5.19369">
        <ele>1040.76</ele>
        <time>2022-04-14T12:57:16Z</time>
      </trkpt>
      <trkpt lat="44.92674" lon="5.19376">
        <ele>1041.25</ele>
        <time>2022-04-14T12:57:45Z</time>
      </trkpt>
      <trkpt lat="44.92688" lon="5.19375">
        <ele>1042.21</ele>
        <time>2022-04-14T12:58:05Z</time>
      </trkpt>
      <trkpt lat="44.92699" lon="5.1937">
        <ele>1044.61</ele>
        <time>2022-04-14T12:58:31Z</time>
      </trkpt>
      <trkpt lat="44.92701" lon="5.19368">
        <ele>1044.61</ele>
        <time>2022-04-14T12:59:01Z</time>
      </trkpt>
      <trkpt lat="44.92715" lon="5.19361">
        <ele>1047.49</ele>
        <time>2022-04-14T12:59:22Z</time>
      </trkpt>
      <trkpt lat="44.92729" lon="5.19355">
        <ele>1050.38</ele>
        <time>2022-04-14T12:59:42Z</time>
      </trkpt>
      <trkpt lat="44.92745" lon="5.19346">
        <ele>1053.74</ele>
        <time>2022-04-14T13:00:05Z</time>
      </trkpt>
      <trkpt lat="44.92758" lon="5.1934">
        <ele>1056.63</ele>
        <time>2022-04-14T13:00:24Z</time>
      </trkpt>
      <trkpt lat="44.92774" lon="5.19338">
        <ele>1059.99</ele>
        <time>2022-04-14T13:00:44Z</time>
      </trkpt>
      <trkpt lat="44.92787" lon="5.19338">
        <ele>1062.87</ele>
        <time>2022-04-14T13:00:58Z</time>
      </trkpt>
      <trkpt lat="44.92804" lon="5.19337">
        <ele>1065.76</ele>
        <time>2022-04-14T13:01:21Z</time>
      </trkpt>
      <trkpt lat="44.92814" lon="5.19336">
        <ele>1068.16</ele>
        <time>2022-04-14T13:01:39Z</time>
      </trkpt>
      <trkpt lat="44.92836" lon="5.19339">
        <ele>1071.53</ele>
        <time>2022-04-14T13:02:04Z</time>
      </trkpt>
      <trkpt lat="44.92855" lon="5.19342">
        <ele>1073.45</ele>
        <time>2022-04-14T13:02:26Z</time>
      </trkpt>
      <trkpt lat="44.92872" lon="5.19348">
        <ele>1074.89</ele>
        <time>2022-04-14T13:02:44Z</time>
      </trkpt>
      <trkpt lat="44.9289" lon="5.1935">
        <ele>1076.81</ele>
        <time>2022-04-14T13:03:02Z</time>
      </trkpt>
      <trkpt lat="44.92891" lon="5.1935">
        <ele>1076.81</ele>
        <time>2022-04-14T13:03:03Z</time>
      </trkpt>
      <trkpt lat="44.92912" lon="5.19356">
        <ele>1079.22</ele>
        <time>2022-04-14T13:03:22Z</time>
      </trkpt>
      <trkpt lat="44.92929" lon="5.19367">
        <ele>1080.18</ele>
        <time>2022-04-14T13:03:40Z</time>
      </trkpt>
      <trkpt lat="44.92939" lon="5.19371">
        <ele>1080.18</ele>
        <time>2022-04-14T13:03:53Z</time>
      </trkpt>
      <trkpt lat="44.92942" lon="5.19372">
        <ele>1080.66</ele>
        <time>2022-04-14T13:03:56Z</time>
      </trkpt>
      <trkpt lat="44.92948" lon="5.19375">
        <ele>1081.62</ele>
        <time>2022-04-14T13:04:04Z</time>
      </trkpt>
      <trkpt lat="44.92951" lon="5.19376">
        <ele>1081.62</ele>
        <time>2022-04-14T13:04:07Z</time>
      </trkpt>
      <trkpt lat="44.92965" lon="5.19381">
        <ele>1083.54</ele>
        <time>2022-04-14T13:04:23Z</time>
      </trkpt>
      <trkpt lat="44.92973" lon="5.19384">
        <ele>1085.95</ele>
        <time>2022-04-14T13:04:39Z</time>
      </trkpt>
      <trkpt lat="44.92991" lon="5.19388">
        <ele>1088.83</ele>
        <time>2022-04-14T13:04:59Z</time>
      </trkpt>
      <trkpt lat="44.93005" lon="5.19391">
        <ele>1091.71</ele>
        <time>2022-04-14T13:05:17Z</time>
      </trkpt>
      <trkpt lat="44.93017" lon="5.19397">
        <ele>1093.16</ele>
        <time>2022-04-14T13:05:37Z</time>
      </trkpt>
      <trkpt lat="44.93037" lon="5.19409">
        <ele>1094.6</ele>
        <time>2022-04-14T13:05:58Z</time>
      </trkpt>
      <trkpt lat="44.93051" lon="5.19412">
        <ele>1096.52</ele>
        <time>2022-04-14T13:06:19Z</time>
      </trkpt>
      <trkpt lat="44.93056" lon="5.19413">
        <ele>1098.44</ele>
        <time>2022-04-14T13:06:40Z</time>
      </trkpt>
      <trkpt lat="44.93064" lon="5.19411">
        <ele>1099.4</ele>
        <time>2022-04-14T13:07:11Z</time>
      </trkpt>
      <trkpt lat="44.93064" lon="5.19412">
        <ele>1094.12</ele>
        <time>2022-04-14T13:07:16Z</time>
      </trkpt>
      <trkpt lat="44.93064" lon="5.19412">
        <ele>1099.89</ele>
        <time>2022-04-14T13:07:22Z</time>
      </trkpt>
      <trkpt lat="44.93065" lon="5.19411">
        <ele>1103.25</ele>
        <time>2022-04-14T13:07:24Z</time>
      </trkpt>
      <trkpt lat="44.93062" lon="5.19412">
        <ele>1102.77</ele>
        <time>2022-04-14T13:07:57Z</time>
      </trkpt>
      <trkpt lat="44.9306" lon="5.19414">
        <ele>1101.81</ele>
        <time>2022-04-14T13:08:25Z</time>
      </trkpt>
      <trkpt lat="44.93061" lon="5.19412">
        <ele>1098.44</ele>
        <time>2022-04-14T13:08:53Z</time>
      </trkpt>
      <trkpt lat="44.93061" lon="5.19412">
        <ele>1101.81</ele>
        <time>2022-04-14T13:09:02Z</time>
      </trkpt>
      <trkpt lat="44.9306" lon="5.19413">
        <ele>1102.77</ele>
        <time>2022-04-14T13:09:34Z</time>
      </trkpt>
      <trkpt lat="44.93059" lon="5.19413">
        <ele>1102.77</ele>
        <time>2022-04-14T13:10:00Z</time>
      </trkpt>
      <trkpt lat="44.93059" lon="5.19411">
        <ele>1095.56</ele>
        <time>2022-04-14T13:10:13Z</time>
      </trkpt>
      <trkpt lat="44.93058" lon="5.19411">
        <ele>1098.44</ele>
        <time>2022-04-14T13:10:26Z</time>
      </trkpt>
      <trkpt lat="44.93058" lon="5.1941">
        <ele>1102.77</ele>
        <time>2022-04-14T13:10:29Z</time>
      </trkpt>
      <trkpt lat="44.93058" lon="5.19411">
        <ele>1106.61</ele>
        <time>2022-04-14T13:10:31Z</time>
      </trkpt>
      <trkpt lat="44.93057" lon="5.19411">
        <ele>1101.81</ele>
        <time>2022-04-14T13:10:38Z</time>
      </trkpt>
      <trkpt lat="44.93057" lon="5.19411">
        <ele>1097.96</ele>
        <time>2022-04-14T13:10:40Z</time>
      </trkpt>
      <trkpt lat="44.93057" lon="5.19411">
        <ele>1097.48</ele>
        <time>2022-04-14T13:10:42Z</time>
      </trkpt>
      <trkpt lat="44.93057" lon="5.19411">
        <ele>1103.73</ele>
        <time>2022-04-14T13:10:49Z</time>
      </trkpt>
      <trkpt lat="44.93057" lon="5.19411">
        <ele>1105.17</ele>
        <time>2022-04-14T13:10:52Z</time>
      </trkpt>
      <trkpt lat="44.93057" lon="5.19411">
        <ele>1102.29</ele>
        <time>2022-04-14T13:11:00Z</time>
      </trkpt>
      <trkpt lat="44.93056" lon="5.19411">
        <ele>1098.92</ele>
        <time>2022-04-14T13:11:19Z</time>
      </trkpt>
      <trkpt lat="44.93056" lon="5.19411">
        <ele>1097.96</ele>
        <time>2022-04-14T13:11:21Z</time>
      </trkpt>
      <trkpt lat="44.93056" lon="5.19411">
        <ele>1101.81</ele>
        <time>2022-04-14T13:11:25Z</time>
      </trkpt>
      <trkpt lat="44.93056" lon="5.19411">
        <ele>1106.13</ele>
        <time>2022-04-14T13:11:28Z</time>
      </trkpt>
      <trkpt lat="44.93056" lon="5.19411">
        <ele>1109.02</ele>
        <time>2022-04-14T13:11:30Z</time>
      </trkpt>
      <trkpt lat="44.93056" lon="5.19411">
        <ele>1106.13</ele>
        <time>2022-04-14T13:11:43Z</time>
      </trkpt>
      <trkpt lat="44.93062" lon="5.19412">
        <ele>1104.69</ele>
        <time>2022-04-14T13:12:13Z</time>
      </trkpt>
      <trkpt lat="44.93074" lon="5.19409">
        <ele>1107.58</ele>
        <time>2022-04-14T13:12:27Z</time>
      </trkpt>
      <trkpt lat="44.93086" lon="5.19406">
        <ele>1110.46</ele>
        <time>2022-04-14T13:12:42Z</time>
      </trkpt>
      <trkpt lat="44.93096" lon="5.19403">
        <ele>1113.82</ele>
        <time>2022-04-14T13:12:57Z</time>
      </trkpt>
      <trkpt lat="44.93105" lon="5.19404">
        <ele>1116.71</ele>
        <time>2022-04-14T13:13:15Z</time>
      </trkpt>
      <trkpt lat="44.93112" lon="5.19403">
        <ele>1119.59</ele>
        <time>2022-04-14T13:13:37Z</time>
      </trkpt>
      <trkpt lat="44.93121" lon="5.19404">
        <ele>1122</ele>
        <time>2022-04-14T13:13:59Z</time>
      </trkpt>
      <trkpt lat="44.93132" lon="5.19404">
        <ele>1124.88</ele>
        <time>2022-04-14T13:14:16Z</time>
      </trkpt>
      <trkpt lat="44.93142" lon="5.19406">
        <ele>1127.76</ele>
        <time>2022-04-14T13:14:32Z</time>
      </trkpt>
      <trkpt lat="44.93146" lon="5.19407">
        <ele>1129.69</ele>
        <time>2022-04-14T13:15:01Z</time>
      </trkpt>
      <trkpt lat="44.93158" lon="5.19409">
        <ele>1133.05</ele>
        <time>2022-04-14T13:15:26Z</time>
      </trkpt>
      <trkpt lat="44.93165" lon="5.19409">
        <ele>1135.94</ele>
        <time>2022-04-14T13:15:48Z</time>
      </trkpt>
      <trkpt lat="44.93173" lon="5.19411">
        <ele>1139.3</ele>
        <time>2022-04-14T13:16:05Z</time>
      </trkpt>
      <trkpt lat="44.93181" lon="5.19412">
        <ele>1142.18</ele>
        <time>2022-04-14T13:16:23Z</time>
      </trkpt>
      <trkpt lat="44.93185" lon="5.19416">
        <ele>1144.59</ele>
        <time>2022-04-14T13:16:51Z</time>
      </trkpt>
      <trkpt lat="44.93194" lon="5.19415">
        <ele>1147.47</ele>
        <time>2022-04-14T13:17:09Z</time>
      </trkpt>
      <trkpt lat="44.93204" lon="5.19415">
        <ele>1150.84</ele>
        <time>2022-04-14T13:17:25Z</time>
      </trkpt>
      <trkpt lat="44.93208" lon="5.19415">
        <ele>1152.28</ele>
        <time>2022-04-14T13:17:54Z</time>
      </trkpt>
      <trkpt lat="44.93218" lon="5.19417">
        <ele>1154.2</ele>
        <time>2022-04-14T13:18:22Z</time>
      </trkpt>
      <trkpt lat="44.93229" lon="5.19419">
        <ele>1157.56</ele>
        <time>2022-04-14T13:18:40Z</time>
      </trkpt>
      <trkpt lat="44.93233" lon="5.1942">
        <ele>1158.53</ele>
        <time>2022-04-14T13:18:50Z</time>
      </trkpt>
      <trkpt lat="44.93234" lon="5.1942">
        <ele>1160.45</ele>
        <time>2022-04-14T13:19:13Z</time>
      </trkpt>
      <trkpt lat="44.93248" lon="5.19421">
        <ele>1162.85</ele>
        <time>2022-04-14T13:19:35Z</time>
      </trkpt>
      <trkpt lat="44.93258" lon="5.1942">
        <ele>1165.74</ele>
        <time>2022-04-14T13:19:52Z</time>
      </trkpt>
      <trkpt lat="44.93269" lon="5.19422">
        <ele>1169.1</ele>
        <time>2022-04-14T13:20:11Z</time>
      </trkpt>
      <trkpt lat="44.9328" lon="5.19424">
        <ele>1171.98</ele>
        <time>2022-04-14T13:20:31Z</time>
      </trkpt>
      <trkpt lat="44.93291" lon="5.19425">
        <ele>1175.35</ele>
        <time>2022-04-14T13:20:48Z</time>
      </trkpt>
      <trkpt lat="44.93304" lon="5.19426">
        <ele>1178.23</ele>
        <time>2022-04-14T13:21:05Z</time>
      </trkpt>
      <trkpt lat="44.9332" lon="5.1943">
        <ele>1181.6</ele>
        <time>2022-04-14T13:21:25Z</time>
      </trkpt>
      <trkpt lat="44.93332" lon="5.19433">
        <ele>1183.52</ele>
        <time>2022-04-14T13:21:40Z</time>
      </trkpt>
      <trkpt lat="44.93349" lon="5.19434">
        <ele>1186.4</ele>
        <time>2022-04-14T13:22:00Z</time>
      </trkpt>
      <trkpt lat="44.93358" lon="5.19439">
        <ele>1188.33</ele>
        <time>2022-04-14T13:22:20Z</time>
      </trkpt>
      <trkpt lat="44.93358" lon="5.19438">
        <ele>1189.77</ele>
        <time>2022-04-14T13:22:36Z</time>
      </trkpt>
      <trkpt lat="44.93349" lon="5.19433">
        <ele>1188.81</ele>
        <time>2022-04-14T13:23:02Z</time>
      </trkpt>
      <trkpt lat="44.93339" lon="5.19429">
        <ele>1187.37</ele>
        <time>2022-04-14T13:23:16Z</time>
      </trkpt>
      <trkpt lat="44.9333" lon="5.19427">
        <ele>1185.92</ele>
        <time>2022-04-14T13:23:28Z</time>
      </trkpt>
      <trkpt lat="44.93329" lon="5.19427">
        <ele>1185.44</ele>
        <time>2022-04-14T13:23:29Z</time>
      </trkpt>
      <trkpt lat="44.93308" lon="5.19421">
        <ele>1182.56</ele>
        <time>2022-04-14T13:23:49Z</time>
      </trkpt>
      <trkpt lat="44.93292" lon="5.19417">
        <ele>1179.67</ele>
        <time>2022-04-14T13:24:07Z</time>
      </trkpt>
      <trkpt lat="44.93276" lon="5.19417">
        <ele>1176.79</ele>
        <time>2022-04-14T13:24:24Z</time>
      </trkpt>
      <trkpt lat="44.93266" lon="5.19418">
        <ele>1173.43</ele>
        <time>2022-04-14T13:24:36Z</time>
      </trkpt>
      <trkpt lat="44.93264" lon="5.19418">
        <ele>1170.54</ele>
        <time>2022-04-14T13:24:46Z</time>
      </trkpt>
      <trkpt lat="44.93258" lon="5.19418">
        <ele>1167.18</ele>
        <time>2022-04-14T13:24:54Z</time>
      </trkpt>
      <trkpt lat="44.93256" lon="5.19418">
        <ele>1166.22</ele>
        <time>2022-04-14T13:24:56Z</time>
      </trkpt>
      <trkpt lat="44.93244" lon="5.19417">
        <ele>1168.14</ele>
        <time>2022-04-14T13:25:12Z</time>
      </trkpt>
      <trkpt lat="44.93237" lon="5.19416">
        <ele>1167.18</ele>
        <time>2022-04-14T13:25:28Z</time>
      </trkpt>
      <trkpt lat="44.93231" lon="5.19416">
        <ele>1164.29</ele>
        <time>2022-04-14T13:25:36Z</time>
      </trkpt>
      <trkpt lat="44.93221" lon="5.19417">
        <ele>1160.93</ele>
        <time>2022-04-14T13:25:47Z</time>
      </trkpt>
      <trkpt lat="44.93211" lon="5.19415">
        <ele>1158.05</ele>
        <time>2022-04-14T13:25:58Z</time>
      </trkpt>
      <trkpt lat="44.93201" lon="5.19412">
        <ele>1155.16</ele>
        <time>2022-04-14T13:26:10Z</time>
      </trkpt>
      <trkpt lat="44.93191" lon="5.1941">
        <ele>1151.8</ele>
        <time>2022-04-14T13:26:21Z</time>
      </trkpt>
      <trkpt lat="44.93182" lon="5.19407">
        <ele>1148.91</ele>
        <time>2022-04-14T13:26:32Z</time>
      </trkpt>
      <trkpt lat="44.93174" lon="5.19406">
        <ele>1145.55</ele>
        <time>2022-04-14T13:26:42Z</time>
      </trkpt>
      <trkpt lat="44.93167" lon="5.19405">
        <ele>1142.18</ele>
        <time>2022-04-14T13:26:51Z</time>
      </trkpt>
      <trkpt lat="44.93161" lon="5.19404">
        <ele>1140.26</ele>
        <time>2022-04-14T13:26:57Z</time>
      </trkpt>
      <trkpt lat="44.93152" lon="5.19402">
        <ele>1136.9</ele>
        <time>2022-04-14T13:27:08Z</time>
      </trkpt>
      <trkpt lat="44.93143" lon="5.19401">
        <ele>1134.01</ele>
        <time>2022-04-14T13:27:17Z</time>
      </trkpt>
      <trkpt lat="44.93133" lon="5.19399">
        <ele>1130.65</ele>
        <time>2022-04-14T13:27:27Z</time>
      </trkpt>
      <trkpt lat="44.93123" lon="5.19399">
        <ele>1127.28</ele>
        <time>2022-04-14T13:27:37Z</time>
      </trkpt>
      <trkpt lat="44.93112" lon="5.19398">
        <ele>1124.4</ele>
        <time>2022-04-14T13:27:49Z</time>
      </trkpt>
      <trkpt lat="44.93101" lon="5.19399">
        <ele>1121.03</ele>
        <time>2022-04-14T13:27:59Z</time>
      </trkpt>
      <trkpt lat="44.93092" lon="5.19399">
        <ele>1118.15</ele>
        <time>2022-04-14T13:28:08Z</time>
      </trkpt>
      <trkpt lat="44.93083" lon="5.19402">
        <ele>1114.79</ele>
        <time>2022-04-14T13:28:18Z</time>
      </trkpt>
      <trkpt lat="44.93074" lon="5.19404">
        <ele>1111.42</ele>
        <time>2022-04-14T13:28:28Z</time>
      </trkpt>
      <trkpt lat="44.93067" lon="5.19405">
        <ele>1108.54</ele>
        <time>2022-04-14T13:28:36Z</time>
      </trkpt>
      <trkpt lat="44.9306" lon="5.19406">
        <ele>1105.17</ele>
        <time>2022-04-14T13:28:45Z</time>
      </trkpt>
      <trkpt lat="44.93059" lon="5.19406">
        <ele>1105.17</ele>
        <time>2022-04-14T13:28:46Z</time>
      </trkpt>
      <trkpt lat="44.93057" lon="5.19407">
        <ele>1104.21</ele>
        <time>2022-04-14T13:28:48Z</time>
      </trkpt>
      <trkpt lat="44.93056" lon="5.19407">
        <ele>1104.21</ele>
        <time>2022-04-14T13:28:49Z</time>
      </trkpt>
      <trkpt lat="44.93046" lon="5.19408">
        <ele>1100.37</ele>
        <time>2022-04-14T13:28:57Z</time>
      </trkpt>
      <trkpt lat="44.93044" lon="5.19408">
        <ele>1099.89</ele>
        <time>2022-04-14T13:28:59Z</time>
      </trkpt>
      <trkpt lat="44.93031" lon="5.19402">
        <ele>1096.52</ele>
        <time>2022-04-14T13:29:10Z</time>
      </trkpt>
      <trkpt lat="44.93012" lon="5.19392">
        <ele>1095.08</ele>
        <time>2022-04-14T13:29:27Z</time>
      </trkpt>
      <trkpt lat="44.9299" lon="5.19383">
        <ele>1092.68</ele>
        <time>2022-04-14T13:29:46Z</time>
      </trkpt>
      <trkpt lat="44.92983" lon="5.19382">
        <ele>1091.71</ele>
        <time>2022-04-14T13:29:52Z</time>
      </trkpt>
      <trkpt lat="44.92967" lon="5.19376">
        <ele>1088.35</ele>
        <time>2022-04-14T13:30:07Z</time>
      </trkpt>
      <trkpt lat="44.9296" lon="5.19373">
        <ele>1086.91</ele>
        <time>2022-04-14T13:30:14Z</time>
      </trkpt>
      <trkpt lat="44.92955" lon="5.19372">
        <ele>1084.99</ele>
        <time>2022-04-14T13:30:18Z</time>
      </trkpt>
      <trkpt lat="44.92933" lon="5.19362">
        <ele>1082.1</ele>
        <time>2022-04-14T13:30:36Z</time>
      </trkpt>
      <trkpt lat="44.92912" lon="5.1935">
        <ele>1079.22</ele>
        <time>2022-04-14T13:30:54Z</time>
      </trkpt>
      <trkpt lat="44.92899" lon="5.19345">
        <ele>1075.85</ele>
        <time>2022-04-14T13:31:05Z</time>
      </trkpt>
      <trkpt lat="44.92897" lon="5.19344">
        <ele>1075.37</ele>
        <time>2022-04-14T13:31:07Z</time>
      </trkpt>
      <trkpt lat="44.92891" lon="5.19343">
        <ele>1078.26</ele>
        <time>2022-04-14T13:31:12Z</time>
      </trkpt>
      <trkpt lat="44.92878" lon="5.1934">
        <ele>1074.89</ele>
        <time>2022-04-14T13:31:23Z</time>
      </trkpt>
      <trkpt lat="44.92873" lon="5.1934">
        <ele>1078.74</ele>
        <time>2022-04-14T13:31:27Z</time>
      </trkpt>
      <trkpt lat="44.92872" lon="5.1934">
        <ele>1078.74</ele>
        <time>2022-04-14T13:31:28Z</time>
      </trkpt>
      <trkpt lat="44.92859" lon="5.19338">
        <ele>1075.37</ele>
        <time>2022-04-14T13:31:38Z</time>
      </trkpt>
      <trkpt lat="44.9284" lon="5.19333">
        <ele>1072.97</ele>
        <time>2022-04-14T13:31:54Z</time>
      </trkpt>
      <trkpt lat="44.92817" lon="5.19329">
        <ele>1070.57</ele>
        <time>2022-04-14T13:32:12Z</time>
      </trkpt>
      <trkpt lat="44.92797" lon="5.19331">
        <ele>1068.64</ele>
        <time>2022-04-14T13:32:30Z</time>
      </trkpt>
      <trkpt lat="44.92781" lon="5.19331">
        <ele>1065.76</ele>
        <time>2022-04-14T13:32:44Z</time>
      </trkpt>
      <trkpt lat="44.92767" lon="5.19333">
        <ele>1062.39</ele>
        <time>2022-04-14T13:32:57Z</time>
      </trkpt>
      <trkpt lat="44.92751" lon="5.19342">
        <ele>1059.03</ele>
        <time>2022-04-14T13:33:12Z</time>
      </trkpt>
      <trkpt lat="44.92738" lon="5.19349">
        <ele>1055.67</ele>
        <time>2022-04-14T13:33:25Z</time>
      </trkpt>
      <trkpt lat="44.9272" lon="5.19357">
        <ele>1052.78</ele>
        <time>2022-04-14T13:33:42Z</time>
      </trkpt>
      <trkpt lat="44.92707" lon="5.19363">
        <ele>1049.42</ele>
        <time>2022-04-14T13:33:54Z</time>
      </trkpt>
      <trkpt lat="44.92693" lon="5.1937">
        <ele>1046.05</ele>
        <time>2022-04-14T13:34:05Z</time>
      </trkpt>
      <trkpt lat="44.9267" lon="5.19369">
        <ele>1043.65</ele>
        <time>2022-04-14T13:34:23Z</time>
      </trkpt>
      <trkpt lat="44.92642" lon="5.19363">
        <ele>1042.69</ele>
        <time>2022-04-14T13:34:44Z</time>
      </trkpt>
      <trkpt lat="44.92618" lon="5.19355">
        <ele>1041.25</ele>
        <time>2022-04-14T13:35:04Z</time>
      </trkpt>
      <trkpt lat="44.92597" lon="5.19347">
        <ele>1038.36</ele>
        <time>2022-04-14T13:35:22Z</time>
      </trkpt>
      <trkpt lat="44.92581" lon="5.19349">
        <ele>1035.48</ele>
        <time>2022-04-14T13:35:36Z</time>
      </trkpt>
      <trkpt lat="44.92565" lon="5.19349">
        <ele>1032.59</ele>
        <time>2022-04-14T13:35:48Z</time>
      </trkpt>
      <trkpt lat="44.92564" lon="5.1935">
        <ele>1032.11</ele>
        <time>2022-04-14T13:35:49Z</time>
      </trkpt>
      <trkpt lat="44.92543" lon="5.19352">
        <ele>1030.67</ele>
        <time>2022-04-14T13:36:07Z</time>
      </trkpt>
      <trkpt lat="44.92517" lon="5.1935">
        <ele>1029.23</ele>
        <time>2022-04-14T13:36:26Z</time>
      </trkpt>
      <trkpt lat="44.92491" lon="5.19345">
        <ele>1026.83</ele>
        <time>2022-04-14T13:36:47Z</time>
      </trkpt>
      <trkpt lat="44.9247" lon="5.1934">
        <ele>1024.42</ele>
        <time>2022-04-14T13:37:06Z</time>
      </trkpt>
      <trkpt lat="44.92458" lon="5.19341">
        <ele>1022.98</ele>
        <time>2022-04-14T13:37:16Z</time>
      </trkpt>
      <trkpt lat="44.92442" lon="5.19344">
        <ele>1021.54</ele>
        <time>2022-04-14T13:37:31Z</time>
      </trkpt>
      <trkpt lat="44.92422" lon="5.19333">
        <ele>1019.13</ele>
        <time>2022-04-14T13:37:50Z</time>
      </trkpt>
      <trkpt lat="44.92401" lon="5.19337">
        <ele>1017.69</ele>
        <time>2022-04-14T13:38:03Z</time>
      </trkpt>
      <trkpt lat="44.92377" lon="5.19342">
        <ele>1015.77</ele>
        <time>2022-04-14T13:38:20Z</time>
      </trkpt>
      <trkpt lat="44.92357" lon="5.19337">
        <ele>1012.89</ele>
        <time>2022-04-14T13:38:39Z</time>
      </trkpt>
      <trkpt lat="44.92336" lon="5.19332">
        <ele>1010.48</ele>
        <time>2022-04-14T13:38:58Z</time>
      </trkpt>
      <trkpt lat="44.92314" lon="5.19334">
        <ele>1007.12</ele>
        <time>2022-04-14T13:39:14Z</time>
      </trkpt>
      <trkpt lat="44.92292" lon="5.19334">
        <ele>1004.23</ele>
        <time>2022-04-14T13:39:31Z</time>
      </trkpt>
      <trkpt lat="44.92268" lon="5.19342">
        <ele>1001.35</ele>
        <time>2022-04-14T13:39:49Z</time>
      </trkpt>
      <trkpt lat="44.92252" lon="5.19349">
        <ele>999.43</ele>
        <time>2022-04-14T13:40:05Z</time>
      </trkpt>
      <trkpt lat="44.92233" lon="5.19357">
        <ele>997.02</ele>
        <time>2022-04-14T13:40:24Z</time>
      </trkpt>
      <trkpt lat="44.92221" lon="5.19355">
        <ele>995.58</ele>
        <time>2022-04-14T13:40:35Z</time>
      </trkpt>
      <trkpt lat="44.92218" lon="5.19356">
        <ele>995.1</ele>
        <time>2022-04-14T13:40:36Z</time>
      </trkpt>
      <trkpt lat="44.92217" lon="5.19356">
        <ele>995.1</ele>
        <time>2022-04-14T13:40:37Z</time>
      </trkpt>
      <trkpt lat="44.92215" lon="5.19356">
        <ele>995.1</ele>
        <time>2022-04-14T13:40:38Z</time>
      </trkpt>
      <trkpt lat="44.92214" lon="5.19356">
        <ele>994.62</ele>
        <time>2022-04-14T13:40:39Z</time>
      </trkpt>
      <trkpt lat="44.92205" lon="5.19354">
        <ele>994.62</ele>
        <time>2022-04-14T13:40:45Z</time>
      </trkpt>
      <trkpt lat="44.92181" lon="5.19354">
        <ele>991.26</ele>
        <time>2022-04-14T13:41:03Z</time>
      </trkpt>
      <trkpt lat="44.92159" lon="5.19358">
        <ele>988.37</ele>
        <time>2022-04-14T13:41:19Z</time>
      </trkpt>
      <trkpt lat="44.92139" lon="5.19352">
        <ele>985.01</ele>
        <time>2022-04-14T13:41:36Z</time>
      </trkpt>
      <trkpt lat="44.92122" lon="5.19341">
        <ele>982.12</ele>
        <time>2022-04-14T13:41:53Z</time>
      </trkpt>
      <trkpt lat="44.92117" lon="5.19338">
        <ele>981.16</ele>
        <time>2022-04-14T13:41:58Z</time>
      </trkpt>
      <trkpt lat="44.92116" lon="5.19337">
        <ele>981.16</ele>
        <time>2022-04-14T13:41:59Z</time>
      </trkpt>
      <trkpt lat="44.92093" lon="5.19332">
        <ele>978.76</ele>
        <time>2022-04-14T13:42:16Z</time>
      </trkpt>
      <trkpt lat="44.92074" lon="5.1933">
        <ele>976.36</ele>
        <time>2022-04-14T13:42:34Z</time>
      </trkpt>
      <trkpt lat="44.92073" lon="5.1933">
        <ele>976.36</ele>
        <time>2022-04-14T13:42:35Z</time>
      </trkpt>
      <trkpt lat="44.92051" lon="5.19331">
        <ele>974.43</ele>
        <time>2022-04-14T13:42:52Z</time>
      </trkpt>
      <trkpt lat="44.92019" lon="5.19334">
        <ele>971.55</ele>
        <time>2022-04-14T13:43:14Z</time>
      </trkpt>
      <trkpt lat="44.91997" lon="5.19336">
        <ele>968.67</ele>
        <time>2022-04-14T13:43:32Z</time>
      </trkpt>
      <trkpt lat="44.91976" lon="5.19339">
        <ele>965.78</ele>
        <time>2022-04-14T13:43:50Z</time>
      </trkpt>
      <trkpt lat="44.91955" lon="5.19337">
        <ele>963.38</ele>
        <time>2022-04-14T13:44:08Z</time>
      </trkpt>
      <trkpt lat="44.9193" lon="5.19335">
        <ele>960.01</ele>
        <time>2022-04-14T13:44:27Z</time>
      </trkpt>
      <trkpt lat="44.91907" lon="5.19337">
        <ele>956.65</ele>
        <time>2022-04-14T13:44:47Z</time>
      </trkpt>
      <trkpt lat="44.91882" lon="5.19335">
        <ele>954.73</ele>
        <time>2022-04-14T13:45:05Z</time>
      </trkpt>
      <trkpt lat="44.91857" lon="5.19336">
        <ele>951.84</ele>
        <time>2022-04-14T13:45:25Z</time>
      </trkpt>
      <trkpt lat="44.91833" lon="5.19332">
        <ele>948.96</ele>
        <time>2022-04-14T13:45:44Z</time>
      </trkpt>
      <trkpt lat="44.9181" lon="5.19328">
        <ele>946.56</ele>
        <time>2022-04-14T13:46:03Z</time>
      </trkpt>
      <trkpt lat="44.91789" lon="5.19325">
        <ele>945.11</ele>
        <time>2022-04-14T13:46:19Z</time>
      </trkpt>
      <trkpt lat="44.91771" lon="5.19323">
        <ele>942.71</ele>
        <time>2022-04-14T13:46:34Z</time>
      </trkpt>
      <trkpt lat="44.91754" lon="5.19323">
        <ele>940.79</ele>
        <time>2022-04-14T13:46:50Z</time>
      </trkpt>
      <trkpt lat="44.91731" lon="5.19319">
        <ele>939.35</ele>
        <time>2022-04-14T13:47:08Z</time>
      </trkpt>
      <trkpt lat="44.9171" lon="5.19313">
        <ele>937.9</ele>
        <time>2022-04-14T13:47:26Z</time>
      </trkpt>
      <trkpt lat="44.9169" lon="5.19311">
        <ele>936.94</ele>
        <time>2022-04-14T13:47:40Z</time>
      </trkpt>
      <trkpt lat="44.91688" lon="5.19311">
        <ele>936.46</ele>
        <time>2022-04-14T13:47:41Z</time>
      </trkpt>
      <trkpt lat="44.91687" lon="5.19311">
        <ele>936.46</ele>
        <time>2022-04-14T13:47:42Z</time>
      </trkpt>
      <trkpt lat="44.91675" lon="5.19309">
        <ele>934.54</ele>
        <time>2022-04-14T13:47:58Z</time>
      </trkpt>
      <trkpt lat="44.91658" lon="5.19305">
        <ele>932.14</ele>
        <time>2022-04-14T13:48:13Z</time>
      </trkpt>
      <trkpt lat="44.91646" lon="5.19303">
        <ele>930.21</ele>
        <time>2022-04-14T13:48:24Z</time>
      </trkpt>
      <trkpt lat="44.91624" lon="5.19307">
        <ele>928.29</ele>
        <time>2022-04-14T13:48:39Z</time>
      </trkpt>
      <trkpt lat="44.91623" lon="5.19306">
        <ele>928.29</ele>
        <time>2022-04-14T13:48:40Z</time>
      </trkpt>
      <trkpt lat="44.91615" lon="5.193">
        <ele>928.77</ele>
        <time>2022-04-14T13:48:54Z</time>
      </trkpt>
      <trkpt lat="44.91617" lon="5.19295">
        <ele>929.25</ele>
        <time>2022-04-14T13:49:21Z</time>
      </trkpt>
      <trkpt lat="44.91619" lon="5.19293">
        <ele>930.21</ele>
        <time>2022-04-14T13:49:43Z</time>
      </trkpt>
      <trkpt lat="44.91619" lon="5.19293">
        <ele>929.73</ele>
        <time>2022-04-14T13:50:28Z</time>
      </trkpt>
      <trkpt lat="44.91619" lon="5.19294">
        <ele>929.73</ele>
        <time>2022-04-14T13:51:16Z</time>
      </trkpt>
      <trkpt lat="44.91619" lon="5.19295">
        <ele>929.73</ele>
        <time>2022-04-14T13:51:46Z</time>
      </trkpt>
      <trkpt lat="44.91619" lon="5.19292">
        <ele>929.73</ele>
        <time>2022-04-14T13:52:21Z</time>
      </trkpt>
      <trkpt lat="44.91621" lon="5.19293">
        <ele>929.73</ele>
        <time>2022-04-14T13:52:58Z</time>
      </trkpt>
      <trkpt lat="44.91608" lon="5.19306">
        <ele>929.73</ele>
        <time>2022-04-14T13:53:18Z</time>
      </trkpt>
      <trkpt lat="44.91605" lon="5.19306">
        <ele>929.25</ele>
        <time>2022-04-14T13:53:20Z</time>
      </trkpt>
      <trkpt lat="44.91603" lon="5.19305">
        <ele>928.29</ele>
        <time>2022-04-14T13:53:21Z</time>
      </trkpt>
      <trkpt lat="44.91602" lon="5.19305">
        <ele>927.33</ele>
        <time>2022-04-14T13:53:22Z</time>
      </trkpt>
      <trkpt lat="44.91601" lon="5.19305">
        <ele>926.37</ele>
        <time>2022-04-14T13:53:23Z</time>
      </trkpt>
      <trkpt lat="44.91599" lon="5.19305">
        <ele>926.37</ele>
        <time>2022-04-14T13:53:24Z</time>
      </trkpt>
      <trkpt lat="44.91598" lon="5.19305">
        <ele>925.89</ele>
        <time>2022-04-14T13:53:25Z</time>
      </trkpt>
      <trkpt lat="44.91597" lon="5.19305">
        <ele>925.41</ele>
        <time>2022-04-14T13:53:26Z</time>
      </trkpt>
      <trkpt lat="44.9157" lon="5.193">
        <ele>923.96</ele>
        <time>2022-04-14T13:53:46Z</time>
      </trkpt>
      <trkpt lat="44.91545" lon="5.19299">
        <ele>921.08</ele>
        <time>2022-04-14T13:54:06Z</time>
      </trkpt>
      <trkpt lat="44.91523" lon="5.19294">
        <ele>919.64</ele>
        <time>2022-04-14T13:54:24Z</time>
      </trkpt>
      <trkpt lat="44.91497" lon="5.19291">
        <ele>917.24</ele>
        <time>2022-04-14T13:54:43Z</time>
      </trkpt>
      <trkpt lat="44.91482" lon="5.19289">
        <ele>915.79</ele>
        <time>2022-04-14T13:54:55Z</time>
      </trkpt>
      <trkpt lat="44.91481" lon="5.19288">
        <ele>915.79</ele>
        <time>2022-04-14T13:54:56Z</time>
      </trkpt>
      <trkpt lat="44.9148" lon="5.19288">
        <ele>915.79</ele>
        <time>2022-04-14T13:54:57Z</time>
      </trkpt>
      <trkpt lat="44.9146" lon="5.19281">
        <ele>914.35</ele>
        <time>2022-04-14T13:55:15Z</time>
      </trkpt>
      <trkpt lat="44.91437" lon="5.19276">
        <ele>912.43</ele>
        <time>2022-04-14T13:55:35Z</time>
      </trkpt>
      <trkpt lat="44.91415" lon="5.19273">
        <ele>910.99</ele>
        <time>2022-04-14T13:55:53Z</time>
      </trkpt>
      <trkpt lat="44.91389" lon="5.19268">
        <ele>910.03</ele>
        <time>2022-04-14T13:56:14Z</time>
      </trkpt>
      <trkpt lat="44.91364" lon="5.19266">
        <ele>909.06</ele>
        <time>2022-04-14T13:56:34Z</time>
      </trkpt>
      <trkpt lat="44.91348" lon="5.19261">
        <ele>907.62</ele>
        <time>2022-04-14T13:56:50Z</time>
      </trkpt>
      <trkpt lat="44.91347" lon="5.19261">
        <ele>907.62</ele>
        <time>2022-04-14T13:56:51Z</time>
      </trkpt>
      <trkpt lat="44.91346" lon="5.19261">
        <ele>907.62</ele>
        <time>2022-04-14T13:56:52Z</time>
      </trkpt>
      <trkpt lat="44.91327" lon="5.19264">
        <ele>906.66</ele>
        <time>2022-04-14T13:57:07Z</time>
      </trkpt>
      <trkpt lat="44.91302" lon="5.19265">
        <ele>907.62</ele>
        <time>2022-04-14T13:57:27Z</time>
      </trkpt>
      <trkpt lat="44.91273" lon="5.19263">
        <ele>908.1</ele>
        <time>2022-04-14T13:57:49Z</time>
      </trkpt>
      <trkpt lat="44.91248" lon="5.19263">
        <ele>908.58</ele>
        <time>2022-04-14T13:58:08Z</time>
      </trkpt>
      <trkpt lat="44.91238" lon="5.19263">
        <ele>908.58</ele>
        <time>2022-04-14T13:58:22Z</time>
      </trkpt>
      <trkpt lat="44.91237" lon="5.19263">
        <ele>908.58</ele>
        <time>2022-04-14T13:58:24Z</time>
      </trkpt>
      <trkpt lat="44.91235" lon="5.19263">
        <ele>908.58</ele>
        <time>2022-04-14T13:58:25Z</time>
      </trkpt>
      <trkpt lat="44.91234" lon="5.19264">
        <ele>908.58</ele>
        <time>2022-04-14T13:58:26Z</time>
      </trkpt>
      <trkpt lat="44.91233" lon="5.19264">
        <ele>908.58</ele>
        <time>2022-04-14T13:58:27Z</time>
      </trkpt>
      <trkpt lat="44.91231" lon="5.19264">
        <ele>908.58</ele>
        <time>2022-04-14T13:58:28Z</time>
      </trkpt>
      <trkpt lat="44.9123" lon="5.19264">
        <ele>908.58</ele>
        <time>2022-04-14T13:58:29Z</time>
      </trkpt>
      <trkpt lat="44.91208" lon="5.19267">
        <ele>908.58</ele>
        <time>2022-04-14T13:58:46Z</time>
      </trkpt>
      <trkpt lat="44.91185" lon="5.19265">
        <ele>908.58</ele>
        <time>2022-04-14T13:59:05Z</time>
      </trkpt>
      <trkpt lat="44.91161" lon="5.1926">
        <ele>907.62</ele>
        <time>2022-04-14T13:59:24Z</time>
      </trkpt>
      <trkpt lat="44.91137" lon="5.19255">
        <ele>906.66</ele>
        <time>2022-04-14T13:59:43Z</time>
      </trkpt>
      <trkpt lat="44.91113" lon="5.19249">
        <ele>906.18</ele>
        <time>2022-04-14T14:00:04Z</time>
      </trkpt>
      <trkpt lat="44.91106" lon="5.19248">
        <ele>905.7</ele>
        <time>2022-04-14T14:00:19Z</time>
      </trkpt>
      <trkpt lat="44.91104" lon="5.19246">
        <ele>905.7</ele>
        <time>2022-04-14T14:00:22Z</time>
      </trkpt>
      <trkpt lat="44.91102" lon="5.19246">
        <ele>905.7</ele>
        <time>2022-04-14T14:00:24Z</time>
      </trkpt>
      <trkpt lat="44.91088" lon="5.19241">
        <ele>905.7</ele>
        <time>2022-04-14T14:00:40Z</time>
      </trkpt>
      <trkpt lat="44.91075" lon="5.19237">
        <ele>905.22</ele>
        <time>2022-04-14T14:00:56Z</time>
      </trkpt>
      <trkpt lat="44.91074" lon="5.19237">
        <ele>905.22</ele>
        <time>2022-04-14T14:00:57Z</time>
      </trkpt>
      <trkpt lat="44.91067" lon="5.19237">
        <ele>905.22</ele>
        <time>2022-04-14T14:01:04Z</time>
      </trkpt>
      <trkpt lat="44.91066" lon="5.19238">
        <ele>905.22</ele>
        <time>2022-04-14T14:01:05Z</time>
      </trkpt>
      <trkpt lat="44.91061" lon="5.1924">
        <ele>905.22</ele>
        <time>2022-04-14T14:01:09Z</time>
      </trkpt>
      <trkpt lat="44.91056" lon="5.19246">
        <ele>904.74</ele>
        <time>2022-04-14T14:01:17Z</time>
      </trkpt>
      <trkpt lat="44.9104" lon="5.19247">
        <ele>904.26</ele>
        <time>2022-04-14T14:01:34Z</time>
      </trkpt>
      <trkpt lat="44.91037" lon="5.19245">
        <ele>904.26</ele>
        <time>2022-04-14T14:01:39Z</time>
      </trkpt>
      <trkpt lat="44.91036" lon="5.19245">
        <ele>904.26</ele>
        <time>2022-04-14T14:01:40Z</time>
      </trkpt>
      <trkpt lat="44.91032" lon="5.19245">
        <ele>904.26</ele>
        <time>2022-04-14T14:01:46Z</time>
      </trkpt>
      <trkpt lat="44.9103" lon="5.19247">
        <ele>904.26</ele>
        <time>2022-04-14T14:01:49Z</time>
      </trkpt>
      <trkpt lat="44.91028" lon="5.19249">
        <ele>904.26</ele>
        <time>2022-04-14T14:02:03Z</time>
      </trkpt>
      <trkpt lat="44.91028" lon="5.19249">
        <ele>903.78</ele>
        <time>2022-04-14T14:02:28Z</time>
      </trkpt>
      <trkpt lat="44.91029" lon="5.19249">
        <ele>903.78</ele>
        <time>2022-04-14T14:02:48Z</time>
      </trkpt>
      <trkpt lat="44.91029" lon="5.19248">
        <ele>903.78</ele>
        <time>2022-04-14T14:03:04Z</time>
      </trkpt>
      <trkpt lat="44.91029" lon="5.19247">
        <ele>903.78</ele>
        <time>2022-04-14T14:03:25Z</time>
      </trkpt>
      <trkpt lat="44.91029" lon="5.19248">
        <ele>903.78</ele>
        <time>2022-04-14T14:03:41Z</time>
      </trkpt>
    </trkseg>
  </trk>
</gpx>